<?xml version="1.0" encoding="UTF-8" standalone="no" ?>
<gpx xmlns="http://www.topografix.com/GPX/1/1" xmlns:xsi="http://www.w3.org/2001/XMLSchema-instance" xsi:schemaLocation="http://www.topografix.com/GPX/1/1 http://www.topografix.com/GPX/1/1/gpx.xsd" version="1.1" creator="VisuGPX - https://www.visugpx.com">
  <metadata>
    <name>V-14-09-05-sergy-vaud</name>
    <desc><![CDATA[canton de Vaud]]></desc>
  </metadata>
  <trk>
    <name><![CDATA[V-14-09-05-sergy-vaud]]></name>
    <trkseg>
      <trkpt lat="46.25897" lon="5.98979">
        <ele>508.81</ele>
        <time>2014-09-05T07:54:45Z</time>
      </trkpt>
      <trkpt lat="46.25897" lon="5.98978">
        <ele>508.74</ele>
        <time>2014-09-05T07:54:46Z</time>
      </trkpt>
      <trkpt lat="46.25897" lon="5.98981">
        <ele>508.28</ele>
        <time>2014-09-05T07:54:56Z</time>
      </trkpt>
      <trkpt lat="46.25898" lon="5.98993">
        <ele>508.36</ele>
        <time>2014-09-05T07:55:01Z</time>
      </trkpt>
      <trkpt lat="46.25898" lon="5.98995">
        <ele>508.14</ele>
        <time>2014-09-05T07:55:07Z</time>
      </trkpt>
      <trkpt lat="46.25885" lon="5.99018">
        <ele>506.43</ele>
        <time>2014-09-05T07:55:13Z</time>
      </trkpt>
      <trkpt lat="46.25838" lon="5.99086">
        <ele>503.42</ele>
        <time>2014-09-05T07:55:23Z</time>
      </trkpt>
      <trkpt lat="46.25801" lon="5.99134">
        <ele>500.3</ele>
        <time>2014-09-05T07:55:30Z</time>
      </trkpt>
      <trkpt lat="46.25771" lon="5.99163">
        <ele>497.64</ele>
        <time>2014-09-05T07:55:35Z</time>
      </trkpt>
      <trkpt lat="46.25766" lon="5.99171">
        <ele>497.31</ele>
        <time>2014-09-05T07:55:36Z</time>
      </trkpt>
      <trkpt lat="46.25762" lon="5.99179">
        <ele>496.75</ele>
        <time>2014-09-05T07:55:37Z</time>
      </trkpt>
      <trkpt lat="46.25758" lon="5.99189">
        <ele>495.96</ele>
        <time>2014-09-05T07:55:38Z</time>
      </trkpt>
      <trkpt lat="46.25755" lon="5.992">
        <ele>495.19</ele>
        <time>2014-09-05T07:55:39Z</time>
      </trkpt>
      <trkpt lat="46.25752" lon="5.99212">
        <ele>494.62</ele>
        <time>2014-09-05T07:55:40Z</time>
      </trkpt>
      <trkpt lat="46.25749" lon="5.99223">
        <ele>494.15</ele>
        <time>2014-09-05T07:55:41Z</time>
      </trkpt>
      <trkpt lat="46.25745" lon="5.99234">
        <ele>493.52</ele>
        <time>2014-09-05T07:55:42Z</time>
      </trkpt>
      <trkpt lat="46.25741" lon="5.99245">
        <ele>492.77</ele>
        <time>2014-09-05T07:55:43Z</time>
      </trkpt>
      <trkpt lat="46.2572" lon="5.99287">
        <ele>490.53</ele>
        <time>2014-09-05T07:55:47Z</time>
      </trkpt>
      <trkpt lat="46.25713" lon="5.99296">
        <ele>489.82</ele>
        <time>2014-09-05T07:55:48Z</time>
      </trkpt>
      <trkpt lat="46.25678" lon="5.99337">
        <ele>486.53</ele>
        <time>2014-09-05T07:55:53Z</time>
      </trkpt>
      <trkpt lat="46.25664" lon="5.99351">
        <ele>485.71</ele>
        <time>2014-09-05T07:55:55Z</time>
      </trkpt>
      <trkpt lat="46.25628" lon="5.99383">
        <ele>482.44</ele>
        <time>2014-09-05T07:56:00Z</time>
      </trkpt>
      <trkpt lat="46.25598" lon="5.99416">
        <ele>479.92</ele>
        <time>2014-09-05T07:56:05Z</time>
      </trkpt>
      <trkpt lat="46.25583" lon="5.99443">
        <ele>479.03</ele>
        <time>2014-09-05T07:56:08Z</time>
      </trkpt>
      <trkpt lat="46.25577" lon="5.9945">
        <ele>478.7</ele>
        <time>2014-09-05T07:56:09Z</time>
      </trkpt>
      <trkpt lat="46.25542" lon="5.99492">
        <ele>475.18</ele>
        <time>2014-09-05T07:56:14Z</time>
      </trkpt>
      <trkpt lat="46.25489" lon="5.99563">
        <ele>471.85</ele>
        <time>2014-09-05T07:56:21Z</time>
      </trkpt>
      <trkpt lat="46.25424" lon="5.99649">
        <ele>468.33</ele>
        <time>2014-09-05T07:56:30Z</time>
      </trkpt>
      <trkpt lat="46.25384" lon="5.99711">
        <ele>465.16</ele>
        <time>2014-09-05T07:56:36Z</time>
      </trkpt>
      <trkpt lat="46.25369" lon="5.9973">
        <ele>464.46</ele>
        <time>2014-09-05T07:56:38Z</time>
      </trkpt>
      <trkpt lat="46.25315" lon="5.99805">
        <ele>461.16</ele>
        <time>2014-09-05T07:56:46Z</time>
      </trkpt>
      <trkpt lat="46.25309" lon="5.99814">
        <ele>460.75</ele>
        <time>2014-09-05T07:56:47Z</time>
      </trkpt>
      <trkpt lat="46.25285" lon="5.9986">
        <ele>459.34</ele>
        <time>2014-09-05T07:56:52Z</time>
      </trkpt>
      <trkpt lat="46.25281" lon="5.99867">
        <ele>459.11</ele>
        <time>2014-09-05T07:56:53Z</time>
      </trkpt>
      <trkpt lat="46.25267" lon="5.99892">
        <ele>458.53</ele>
        <time>2014-09-05T07:56:57Z</time>
      </trkpt>
      <trkpt lat="46.25258" lon="5.99914">
        <ele>457.61</ele>
        <time>2014-09-05T07:57:04Z</time>
      </trkpt>
      <trkpt lat="46.25258" lon="5.99917">
        <ele>457.61</ele>
        <time>2014-09-05T07:57:05Z</time>
      </trkpt>
      <trkpt lat="46.25265" lon="5.99929">
        <ele>457.64</ele>
        <time>2014-09-05T07:57:08Z</time>
      </trkpt>
      <trkpt lat="46.25277" lon="5.99942">
        <ele>457.58</ele>
        <time>2014-09-05T07:57:11Z</time>
      </trkpt>
      <trkpt lat="46.25286" lon="5.9995">
        <ele>457.39</ele>
        <time>2014-09-05T07:57:13Z</time>
      </trkpt>
      <trkpt lat="46.25291" lon="5.99955">
        <ele>457.25</ele>
        <time>2014-09-05T07:57:14Z</time>
      </trkpt>
      <trkpt lat="46.25339" lon="6">
        <ele>456.14</ele>
        <time>2014-09-05T07:57:23Z</time>
      </trkpt>
      <trkpt lat="46.25343" lon="6.00008">
        <ele>455.89</ele>
        <time>2014-09-05T07:57:24Z</time>
      </trkpt>
      <trkpt lat="46.25346" lon="6.00018">
        <ele>455.71</ele>
        <time>2014-09-05T07:57:25Z</time>
      </trkpt>
      <trkpt lat="46.25348" lon="6.0003">
        <ele>455.55</ele>
        <time>2014-09-05T07:57:26Z</time>
      </trkpt>
      <trkpt lat="46.25348" lon="6.00041">
        <ele>455.37</ele>
        <time>2014-09-05T07:57:27Z</time>
      </trkpt>
      <trkpt lat="46.25347" lon="6.00052">
        <ele>455.04</ele>
        <time>2014-09-05T07:57:28Z</time>
      </trkpt>
      <trkpt lat="46.25343" lon="6.00063">
        <ele>454.59</ele>
        <time>2014-09-05T07:57:29Z</time>
      </trkpt>
      <trkpt lat="46.25339" lon="6.00073">
        <ele>454.14</ele>
        <time>2014-09-05T07:57:30Z</time>
      </trkpt>
      <trkpt lat="46.25333" lon="6.00083">
        <ele>453.7</ele>
        <time>2014-09-05T07:57:31Z</time>
      </trkpt>
      <trkpt lat="46.25306" lon="6.00126">
        <ele>452.31</ele>
        <time>2014-09-05T07:57:36Z</time>
      </trkpt>
      <trkpt lat="46.25224" lon="6.00219">
        <ele>449.73</ele>
        <time>2014-09-05T07:57:49Z</time>
      </trkpt>
      <trkpt lat="46.25141" lon="6.00324">
        <ele>447.49</ele>
        <time>2014-09-05T07:58:03Z</time>
      </trkpt>
      <trkpt lat="46.25053" lon="6.00458">
        <ele>444.7</ele>
        <time>2014-09-05T07:58:19Z</time>
      </trkpt>
      <trkpt lat="46.25016" lon="6.00573">
        <ele>443.53</ele>
        <time>2014-09-05T07:58:30Z</time>
      </trkpt>
      <trkpt lat="46.24977" lon="6.00738">
        <ele>441.05</ele>
        <time>2014-09-05T07:58:45Z</time>
      </trkpt>
      <trkpt lat="46.24936" lon="6.00907">
        <ele>438.07</ele>
        <time>2014-09-05T07:59:00Z</time>
      </trkpt>
      <trkpt lat="46.24906" lon="6.01018">
        <ele>436.62</ele>
        <time>2014-09-05T07:59:10Z</time>
      </trkpt>
      <trkpt lat="46.24901" lon="6.01028">
        <ele>436.2</ele>
        <time>2014-09-05T07:59:11Z</time>
      </trkpt>
      <trkpt lat="46.24896" lon="6.01038">
        <ele>436.2</ele>
        <time>2014-09-05T07:59:12Z</time>
      </trkpt>
      <trkpt lat="46.24832" lon="6.01154">
        <ele>434.05</ele>
        <time>2014-09-05T07:59:25Z</time>
      </trkpt>
      <trkpt lat="46.24745" lon="6.01301">
        <ele>431.52</ele>
        <time>2014-09-05T07:59:42Z</time>
      </trkpt>
      <trkpt lat="46.24629" lon="6.01479">
        <ele>428.27</ele>
        <time>2014-09-05T08:00:03Z</time>
      </trkpt>
      <trkpt lat="46.24611" lon="6.01506">
        <ele>427.1</ele>
        <time>2014-09-05T08:00:06Z</time>
      </trkpt>
      <trkpt lat="46.24586" lon="6.01538">
        <ele>425.96</ele>
        <time>2014-09-05T08:00:10Z</time>
      </trkpt>
      <trkpt lat="46.24517" lon="6.01652">
        <ele>424.97</ele>
        <time>2014-09-05T08:00:24Z</time>
      </trkpt>
      <trkpt lat="46.24505" lon="6.01676">
        <ele>425.06</ele>
        <time>2014-09-05T08:00:27Z</time>
      </trkpt>
      <trkpt lat="46.24502" lon="6.01684">
        <ele>425.05</ele>
        <time>2014-09-05T08:00:28Z</time>
      </trkpt>
      <trkpt lat="46.24494" lon="6.01708">
        <ele>425.56</ele>
        <time>2014-09-05T08:00:31Z</time>
      </trkpt>
      <trkpt lat="46.24488" lon="6.01733">
        <ele>425.98</ele>
        <time>2014-09-05T08:00:34Z</time>
      </trkpt>
      <trkpt lat="46.24488" lon="6.01742">
        <ele>426.06</ele>
        <time>2014-09-05T08:00:35Z</time>
      </trkpt>
      <trkpt lat="46.24488" lon="6.0175">
        <ele>426.2</ele>
        <time>2014-09-05T08:00:36Z</time>
      </trkpt>
      <trkpt lat="46.2449" lon="6.01758">
        <ele>426.41</ele>
        <time>2014-09-05T08:00:37Z</time>
      </trkpt>
      <trkpt lat="46.24492" lon="6.01765">
        <ele>426.58</ele>
        <time>2014-09-05T08:00:38Z</time>
      </trkpt>
      <trkpt lat="46.24494" lon="6.01773">
        <ele>426.72</ele>
        <time>2014-09-05T08:00:39Z</time>
      </trkpt>
      <trkpt lat="46.24496" lon="6.01779">
        <ele>426.86</ele>
        <time>2014-09-05T08:00:40Z</time>
      </trkpt>
      <trkpt lat="46.24558" lon="6.01914">
        <ele>428.96</ele>
        <time>2014-09-05T08:01:00Z</time>
      </trkpt>
      <trkpt lat="46.24564" lon="6.01927">
        <ele>428.95</ele>
        <time>2014-09-05T08:01:02Z</time>
      </trkpt>
      <trkpt lat="46.24574" lon="6.01946">
        <ele>428.95</ele>
        <time>2014-09-05T08:01:05Z</time>
      </trkpt>
      <trkpt lat="46.24576" lon="6.01953">
        <ele>428.94</ele>
        <time>2014-09-05T08:01:06Z</time>
      </trkpt>
      <trkpt lat="46.24577" lon="6.0196">
        <ele>429.07</ele>
        <time>2014-09-05T08:01:07Z</time>
      </trkpt>
      <trkpt lat="46.24574" lon="6.01974">
        <ele>429.21</ele>
        <time>2014-09-05T08:01:09Z</time>
      </trkpt>
      <trkpt lat="46.24571" lon="6.01981">
        <ele>429.3</ele>
        <time>2014-09-05T08:01:10Z</time>
      </trkpt>
      <trkpt lat="46.24568" lon="6.01987">
        <ele>429.35</ele>
        <time>2014-09-05T08:01:11Z</time>
      </trkpt>
      <trkpt lat="46.24565" lon="6.01994">
        <ele>429.4</ele>
        <time>2014-09-05T08:01:12Z</time>
      </trkpt>
      <trkpt lat="46.24561" lon="6.01999">
        <ele>429.52</ele>
        <time>2014-09-05T08:01:13Z</time>
      </trkpt>
      <trkpt lat="46.24548" lon="6.02015">
        <ele>429.65</ele>
        <time>2014-09-05T08:01:16Z</time>
      </trkpt>
      <trkpt lat="46.24523" lon="6.02044">
        <ele>430.14</ele>
        <time>2014-09-05T08:01:22Z</time>
      </trkpt>
      <trkpt lat="46.24519" lon="6.02047">
        <ele>430.14</ele>
        <time>2014-09-05T08:01:23Z</time>
      </trkpt>
      <trkpt lat="46.24484" lon="6.02083">
        <ele>431.56</ele>
        <time>2014-09-05T08:01:32Z</time>
      </trkpt>
      <trkpt lat="46.2447" lon="6.021">
        <ele>432.45</ele>
        <time>2014-09-05T08:01:36Z</time>
      </trkpt>
      <trkpt lat="46.24463" lon="6.02108">
        <ele>432.66</ele>
        <time>2014-09-05T08:01:38Z</time>
      </trkpt>
      <trkpt lat="46.24425" lon="6.02152">
        <ele>434.3</ele>
        <time>2014-09-05T08:01:50Z</time>
      </trkpt>
      <trkpt lat="46.24422" lon="6.02156">
        <ele>434.54</ele>
        <time>2014-09-05T08:01:51Z</time>
      </trkpt>
      <trkpt lat="46.24419" lon="6.02159">
        <ele>434.7</ele>
        <time>2014-09-05T08:01:52Z</time>
      </trkpt>
      <trkpt lat="46.24415" lon="6.02163">
        <ele>434.71</ele>
        <time>2014-09-05T08:01:53Z</time>
      </trkpt>
      <trkpt lat="46.24413" lon="6.02167">
        <ele>434.81</ele>
        <time>2014-09-05T08:01:54Z</time>
      </trkpt>
      <trkpt lat="46.24412" lon="6.02172">
        <ele>434.96</ele>
        <time>2014-09-05T08:01:55Z</time>
      </trkpt>
      <trkpt lat="46.24412" lon="6.02178">
        <ele>435.04</ele>
        <time>2014-09-05T08:01:56Z</time>
      </trkpt>
      <trkpt lat="46.24414" lon="6.02184">
        <ele>435.04</ele>
        <time>2014-09-05T08:01:57Z</time>
      </trkpt>
      <trkpt lat="46.24416" lon="6.02189">
        <ele>435.11</ele>
        <time>2014-09-05T08:01:58Z</time>
      </trkpt>
      <trkpt lat="46.24419" lon="6.02194">
        <ele>435.22</ele>
        <time>2014-09-05T08:01:59Z</time>
      </trkpt>
      <trkpt lat="46.24421" lon="6.02199">
        <ele>435.33</ele>
        <time>2014-09-05T08:02:00Z</time>
      </trkpt>
      <trkpt lat="46.24424" lon="6.02203">
        <ele>435.61</ele>
        <time>2014-09-05T08:02:01Z</time>
      </trkpt>
      <trkpt lat="46.24489" lon="6.02307">
        <ele>436.74</ele>
        <time>2014-09-05T08:02:21Z</time>
      </trkpt>
      <trkpt lat="46.24513" lon="6.02336">
        <ele>436.77</ele>
        <time>2014-09-05T08:02:27Z</time>
      </trkpt>
      <trkpt lat="46.24517" lon="6.0234">
        <ele>436.86</ele>
        <time>2014-09-05T08:02:28Z</time>
      </trkpt>
      <trkpt lat="46.24522" lon="6.02343">
        <ele>436.86</ele>
        <time>2014-09-05T08:02:29Z</time>
      </trkpt>
      <trkpt lat="46.24532" lon="6.02349">
        <ele>436.81</ele>
        <time>2014-09-05T08:02:31Z</time>
      </trkpt>
      <trkpt lat="46.24536" lon="6.02353">
        <ele>436.81</ele>
        <time>2014-09-05T08:02:32Z</time>
      </trkpt>
      <trkpt lat="46.24539" lon="6.02359">
        <ele>436.81</ele>
        <time>2014-09-05T08:02:33Z</time>
      </trkpt>
      <trkpt lat="46.24545" lon="6.0237">
        <ele>436.72</ele>
        <time>2014-09-05T08:02:35Z</time>
      </trkpt>
      <trkpt lat="46.24552" lon="6.0239">
        <ele>436.77</ele>
        <time>2014-09-05T08:02:38Z</time>
      </trkpt>
      <trkpt lat="46.24566" lon="6.0241">
        <ele>437.47</ele>
        <time>2014-09-05T08:02:42Z</time>
      </trkpt>
      <trkpt lat="46.2457" lon="6.02415">
        <ele>437.56</ele>
        <time>2014-09-05T08:02:43Z</time>
      </trkpt>
      <trkpt lat="46.24628" lon="6.02511">
        <ele>439.38</ele>
        <time>2014-09-05T08:03:01Z</time>
      </trkpt>
      <trkpt lat="46.24695" lon="6.02617">
        <ele>439.39</ele>
        <time>2014-09-05T08:03:20Z</time>
      </trkpt>
      <trkpt lat="46.24764" lon="6.02717">
        <ele>438.38</ele>
        <time>2014-09-05T08:03:37Z</time>
      </trkpt>
      <trkpt lat="46.24843" lon="6.02828">
        <ele>436.52</ele>
        <time>2014-09-05T08:03:54Z</time>
      </trkpt>
      <trkpt lat="46.24915" lon="6.02921">
        <ele>437.06</ele>
        <time>2014-09-05T08:04:10Z</time>
      </trkpt>
      <trkpt lat="46.24927" lon="6.02936">
        <ele>437.61</ele>
        <time>2014-09-05T08:04:13Z</time>
      </trkpt>
      <trkpt lat="46.24983" lon="6.03001">
        <ele>439.41</ele>
        <time>2014-09-05T08:04:27Z</time>
      </trkpt>
      <trkpt lat="46.24991" lon="6.03011">
        <ele>439.5</ele>
        <time>2014-09-05T08:04:29Z</time>
      </trkpt>
      <trkpt lat="46.24996" lon="6.03015">
        <ele>439.51</ele>
        <time>2014-09-05T08:04:30Z</time>
      </trkpt>
      <trkpt lat="46.25006" lon="6.03021">
        <ele>439.56</ele>
        <time>2014-09-05T08:04:32Z</time>
      </trkpt>
      <trkpt lat="46.25011" lon="6.03023">
        <ele>439.57</ele>
        <time>2014-09-05T08:04:33Z</time>
      </trkpt>
      <trkpt lat="46.25017" lon="6.03027">
        <ele>439.55</ele>
        <time>2014-09-05T08:04:34Z</time>
      </trkpt>
      <trkpt lat="46.25044" lon="6.03051">
        <ele>438.78</ele>
        <time>2014-09-05T08:04:39Z</time>
      </trkpt>
      <trkpt lat="46.25049" lon="6.03057">
        <ele>438.78</ele>
        <time>2014-09-05T08:04:40Z</time>
      </trkpt>
      <trkpt lat="46.2506" lon="6.03069">
        <ele>438.62</ele>
        <time>2014-09-05T08:04:42Z</time>
      </trkpt>
      <trkpt lat="46.25102" lon="6.03127">
        <ele>437.38</ele>
        <time>2014-09-05T08:04:50Z</time>
      </trkpt>
      <trkpt lat="46.25107" lon="6.03135">
        <ele>437.11</ele>
        <time>2014-09-05T08:04:51Z</time>
      </trkpt>
      <trkpt lat="46.25149" lon="6.03201">
        <ele>435.2</ele>
        <time>2014-09-05T08:04:59Z</time>
      </trkpt>
      <trkpt lat="46.25185" lon="6.03314">
        <ele>433.06</ele>
        <time>2014-09-05T08:05:11Z</time>
      </trkpt>
      <trkpt lat="46.252" lon="6.03342">
        <ele>433.44</ele>
        <time>2014-09-05T08:05:15Z</time>
      </trkpt>
      <trkpt lat="46.25204" lon="6.03348">
        <ele>433.58</ele>
        <time>2014-09-05T08:05:16Z</time>
      </trkpt>
      <trkpt lat="46.25221" lon="6.03366">
        <ele>434.25</ele>
        <time>2014-09-05T08:05:20Z</time>
      </trkpt>
      <trkpt lat="46.25225" lon="6.03372">
        <ele>434.61</ele>
        <time>2014-09-05T08:05:21Z</time>
      </trkpt>
      <trkpt lat="46.25229" lon="6.03378">
        <ele>434.95</ele>
        <time>2014-09-05T08:05:22Z</time>
      </trkpt>
      <trkpt lat="46.25294" lon="6.0346">
        <ele>434.14</ele>
        <time>2014-09-05T08:05:36Z</time>
      </trkpt>
      <trkpt lat="46.25382" lon="6.03517">
        <ele>433.57</ele>
        <time>2014-09-05T08:05:51Z</time>
      </trkpt>
      <trkpt lat="46.25459" lon="6.0354">
        <ele>433.22</ele>
        <time>2014-09-05T08:06:03Z</time>
      </trkpt>
      <trkpt lat="46.25464" lon="6.03544">
        <ele>433.25</ele>
        <time>2014-09-05T08:06:04Z</time>
      </trkpt>
      <trkpt lat="46.25516" lon="6.03597">
        <ele>433.61</ele>
        <time>2014-09-05T08:06:14Z</time>
      </trkpt>
      <trkpt lat="46.25524" lon="6.03611">
        <ele>433.67</ele>
        <time>2014-09-05T08:06:16Z</time>
      </trkpt>
      <trkpt lat="46.2553" lon="6.03627">
        <ele>433.71</ele>
        <time>2014-09-05T08:06:18Z</time>
      </trkpt>
      <trkpt lat="46.25534" lon="6.03634">
        <ele>433.71</ele>
        <time>2014-09-05T08:06:19Z</time>
      </trkpt>
      <trkpt lat="46.25537" lon="6.03642">
        <ele>433.72</ele>
        <time>2014-09-05T08:06:20Z</time>
      </trkpt>
      <trkpt lat="46.25539" lon="6.03651">
        <ele>433.76</ele>
        <time>2014-09-05T08:06:21Z</time>
      </trkpt>
      <trkpt lat="46.25541" lon="6.0366">
        <ele>433.78</ele>
        <time>2014-09-05T08:06:22Z</time>
      </trkpt>
      <trkpt lat="46.25549" lon="6.03683">
        <ele>433.84</ele>
        <time>2014-09-05T08:06:25Z</time>
      </trkpt>
      <trkpt lat="46.25552" lon="6.0369">
        <ele>433.85</ele>
        <time>2014-09-05T08:06:26Z</time>
      </trkpt>
      <trkpt lat="46.25555" lon="6.03696">
        <ele>433.94</ele>
        <time>2014-09-05T08:06:27Z</time>
      </trkpt>
      <trkpt lat="46.25622" lon="6.03787">
        <ele>434.69</ele>
        <time>2014-09-05T08:06:42Z</time>
      </trkpt>
      <trkpt lat="46.25699" lon="6.03878">
        <ele>435.56</ele>
        <time>2014-09-05T08:07:00Z</time>
      </trkpt>
      <trkpt lat="46.25701" lon="6.03882">
        <ele>435.78</ele>
        <time>2014-09-05T08:07:01Z</time>
      </trkpt>
      <trkpt lat="46.25705" lon="6.03893">
        <ele>435.93</ele>
        <time>2014-09-05T08:07:03Z</time>
      </trkpt>
      <trkpt lat="46.25709" lon="6.03898">
        <ele>435.96</ele>
        <time>2014-09-05T08:07:04Z</time>
      </trkpt>
      <trkpt lat="46.25714" lon="6.03901">
        <ele>436.01</ele>
        <time>2014-09-05T08:07:05Z</time>
      </trkpt>
      <trkpt lat="46.25784" lon="6.03941">
        <ele>438.15</ele>
        <time>2014-09-05T08:07:19Z</time>
      </trkpt>
      <trkpt lat="46.25859" lon="6.03999">
        <ele>439.11</ele>
        <time>2014-09-05T08:07:35Z</time>
      </trkpt>
      <trkpt lat="46.25924" lon="6.04062">
        <ele>439.99</ele>
        <time>2014-09-05T08:07:50Z</time>
      </trkpt>
      <trkpt lat="46.25999" lon="6.04128">
        <ele>438.54</ele>
        <time>2014-09-05T08:08:04Z</time>
      </trkpt>
      <trkpt lat="46.26077" lon="6.04149">
        <ele>438.82</ele>
        <time>2014-09-05T08:08:18Z</time>
      </trkpt>
      <trkpt lat="46.26081" lon="6.04151">
        <ele>438.83</ele>
        <time>2014-09-05T08:08:19Z</time>
      </trkpt>
      <trkpt lat="46.26097" lon="6.0416">
        <ele>438.63</ele>
        <time>2014-09-05T08:08:23Z</time>
      </trkpt>
      <trkpt lat="46.261" lon="6.04165">
        <ele>438.59</ele>
        <time>2014-09-05T08:08:24Z</time>
      </trkpt>
      <trkpt lat="46.26107" lon="6.04177">
        <ele>438.49</ele>
        <time>2014-09-05T08:08:26Z</time>
      </trkpt>
      <trkpt lat="46.26112" lon="6.04182">
        <ele>438.5</ele>
        <time>2014-09-05T08:08:27Z</time>
      </trkpt>
      <trkpt lat="46.26194" lon="6.0427">
        <ele>437.06</ele>
        <time>2014-09-05T08:08:43Z</time>
      </trkpt>
      <trkpt lat="46.26299" lon="6.04344">
        <ele>438.15</ele>
        <time>2014-09-05T08:09:02Z</time>
      </trkpt>
      <trkpt lat="46.26401" lon="6.04372">
        <ele>438.99</ele>
        <time>2014-09-05T08:09:19Z</time>
      </trkpt>
      <trkpt lat="46.26442" lon="6.04374">
        <ele>438.91</ele>
        <time>2014-09-05T08:09:26Z</time>
      </trkpt>
      <trkpt lat="46.26447" lon="6.04375">
        <ele>438.86</ele>
        <time>2014-09-05T08:09:27Z</time>
      </trkpt>
      <trkpt lat="46.26453" lon="6.04377">
        <ele>438.81</ele>
        <time>2014-09-05T08:09:28Z</time>
      </trkpt>
      <trkpt lat="46.26459" lon="6.0438">
        <ele>438.69</ele>
        <time>2014-09-05T08:09:29Z</time>
      </trkpt>
      <trkpt lat="46.26464" lon="6.04381">
        <ele>438.7</ele>
        <time>2014-09-05T08:09:30Z</time>
      </trkpt>
      <trkpt lat="46.2647" lon="6.04382">
        <ele>438.57</ele>
        <time>2014-09-05T08:09:31Z</time>
      </trkpt>
      <trkpt lat="46.26475" lon="6.04385">
        <ele>438.43</ele>
        <time>2014-09-05T08:09:32Z</time>
      </trkpt>
      <trkpt lat="46.2648" lon="6.04389">
        <ele>438.43</ele>
        <time>2014-09-05T08:09:33Z</time>
      </trkpt>
      <trkpt lat="46.26485" lon="6.04393">
        <ele>438.4</ele>
        <time>2014-09-05T08:09:34Z</time>
      </trkpt>
      <trkpt lat="46.26489" lon="6.04398">
        <ele>438.48</ele>
        <time>2014-09-05T08:09:35Z</time>
      </trkpt>
      <trkpt lat="46.26597" lon="6.0452">
        <ele>438.43</ele>
        <time>2014-09-05T08:09:57Z</time>
      </trkpt>
      <trkpt lat="46.26694" lon="6.04584">
        <ele>438.32</ele>
        <time>2014-09-05T08:10:14Z</time>
      </trkpt>
      <trkpt lat="46.26764" lon="6.04603">
        <ele>438.13</ele>
        <time>2014-09-05T08:10:25Z</time>
      </trkpt>
      <trkpt lat="46.26782" lon="6.04615">
        <ele>437.94</ele>
        <time>2014-09-05T08:10:28Z</time>
      </trkpt>
      <trkpt lat="46.26792" lon="6.04625">
        <ele>437.75</ele>
        <time>2014-09-05T08:10:30Z</time>
      </trkpt>
      <trkpt lat="46.26797" lon="6.04631">
        <ele>437.74</ele>
        <time>2014-09-05T08:10:31Z</time>
      </trkpt>
      <trkpt lat="46.26841" lon="6.04685">
        <ele>438.3</ele>
        <time>2014-09-05T08:10:40Z</time>
      </trkpt>
      <trkpt lat="46.26847" lon="6.04689">
        <ele>438.3</ele>
        <time>2014-09-05T08:10:41Z</time>
      </trkpt>
      <trkpt lat="46.26853" lon="6.04694">
        <ele>438.35</ele>
        <time>2014-09-05T08:10:42Z</time>
      </trkpt>
      <trkpt lat="46.26969" lon="6.04773">
        <ele>439.19</ele>
        <time>2014-09-05T08:11:03Z</time>
      </trkpt>
      <trkpt lat="46.27059" lon="6.04843">
        <ele>442.2</ele>
        <time>2014-09-05T08:11:22Z</time>
      </trkpt>
      <trkpt lat="46.27163" lon="6.04932">
        <ele>442.59</ele>
        <time>2014-09-05T08:11:44Z</time>
      </trkpt>
      <trkpt lat="46.27183" lon="6.04955">
        <ele>442.37</ele>
        <time>2014-09-05T08:11:48Z</time>
      </trkpt>
      <trkpt lat="46.27188" lon="6.04962">
        <ele>442.3</ele>
        <time>2014-09-05T08:11:49Z</time>
      </trkpt>
      <trkpt lat="46.27193" lon="6.04968">
        <ele>442.26</ele>
        <time>2014-09-05T08:11:50Z</time>
      </trkpt>
      <trkpt lat="46.27291" lon="6.05038">
        <ele>441.05</ele>
        <time>2014-09-05T08:12:07Z</time>
      </trkpt>
      <trkpt lat="46.27318" lon="6.05054">
        <ele>441.11</ele>
        <time>2014-09-05T08:12:12Z</time>
      </trkpt>
      <trkpt lat="46.27339" lon="6.05064">
        <ele>441.6</ele>
        <time>2014-09-05T08:12:16Z</time>
      </trkpt>
      <trkpt lat="46.27345" lon="6.05067">
        <ele>441.63</ele>
        <time>2014-09-05T08:12:17Z</time>
      </trkpt>
      <trkpt lat="46.2735" lon="6.05071">
        <ele>441.64</ele>
        <time>2014-09-05T08:12:18Z</time>
      </trkpt>
      <trkpt lat="46.27356" lon="6.05074">
        <ele>441.64</ele>
        <time>2014-09-05T08:12:19Z</time>
      </trkpt>
      <trkpt lat="46.27362" lon="6.05077">
        <ele>441.64</ele>
        <time>2014-09-05T08:12:20Z</time>
      </trkpt>
      <trkpt lat="46.27368" lon="6.05081">
        <ele>441.51</ele>
        <time>2014-09-05T08:12:21Z</time>
      </trkpt>
      <trkpt lat="46.27403" lon="6.05109">
        <ele>441.32</ele>
        <time>2014-09-05T08:12:27Z</time>
      </trkpt>
      <trkpt lat="46.27409" lon="6.05114">
        <ele>441.19</ele>
        <time>2014-09-05T08:12:28Z</time>
      </trkpt>
      <trkpt lat="46.27463" lon="6.05161">
        <ele>441.19</ele>
        <time>2014-09-05T08:12:38Z</time>
      </trkpt>
      <trkpt lat="46.27469" lon="6.05166">
        <ele>441.36</ele>
        <time>2014-09-05T08:12:39Z</time>
      </trkpt>
      <trkpt lat="46.27568" lon="6.05213">
        <ele>442.25</ele>
        <time>2014-09-05T08:12:56Z</time>
      </trkpt>
      <trkpt lat="46.27667" lon="6.05246">
        <ele>444.51</ele>
        <time>2014-09-05T08:13:14Z</time>
      </trkpt>
      <trkpt lat="46.27772" lon="6.05269">
        <ele>446.4</ele>
        <time>2014-09-05T08:13:34Z</time>
      </trkpt>
      <trkpt lat="46.27786" lon="6.05272">
        <ele>446.76</ele>
        <time>2014-09-05T08:13:37Z</time>
      </trkpt>
      <trkpt lat="46.2787" lon="6.05275">
        <ele>448.85</ele>
        <time>2014-09-05T08:13:54Z</time>
      </trkpt>
      <trkpt lat="46.27955" lon="6.05282">
        <ele>449.57</ele>
        <time>2014-09-05T08:14:11Z</time>
      </trkpt>
      <trkpt lat="46.27999" lon="6.05286">
        <ele>451.66</ele>
        <time>2014-09-05T08:14:23Z</time>
      </trkpt>
      <trkpt lat="46.28043" lon="6.05298">
        <ele>454.7</ele>
        <time>2014-09-05T08:14:35Z</time>
      </trkpt>
      <trkpt lat="46.28065" lon="6.05323">
        <ele>455.29</ele>
        <time>2014-09-05T08:14:42Z</time>
      </trkpt>
      <trkpt lat="46.28068" lon="6.05327">
        <ele>455.31</ele>
        <time>2014-09-05T08:14:43Z</time>
      </trkpt>
      <trkpt lat="46.28071" lon="6.05333">
        <ele>455.18</ele>
        <time>2014-09-05T08:14:44Z</time>
      </trkpt>
      <trkpt lat="46.28077" lon="6.05347">
        <ele>454.83</ele>
        <time>2014-09-05T08:14:46Z</time>
      </trkpt>
      <trkpt lat="46.28079" lon="6.05356">
        <ele>454.64</ele>
        <time>2014-09-05T08:14:47Z</time>
      </trkpt>
      <trkpt lat="46.28082" lon="6.05375">
        <ele>454.18</ele>
        <time>2014-09-05T08:14:49Z</time>
      </trkpt>
      <trkpt lat="46.28082" lon="6.05386">
        <ele>453.63</ele>
        <time>2014-09-05T08:14:50Z</time>
      </trkpt>
      <trkpt lat="46.28081" lon="6.05396">
        <ele>452.93</ele>
        <time>2014-09-05T08:14:51Z</time>
      </trkpt>
      <trkpt lat="46.28079" lon="6.05408">
        <ele>452.34</ele>
        <time>2014-09-05T08:14:52Z</time>
      </trkpt>
      <trkpt lat="46.28075" lon="6.05443">
        <ele>451.03</ele>
        <time>2014-09-05T08:14:55Z</time>
      </trkpt>
      <trkpt lat="46.28074" lon="6.05455">
        <ele>450.61</ele>
        <time>2014-09-05T08:14:56Z</time>
      </trkpt>
      <trkpt lat="46.28075" lon="6.05541">
        <ele>448.62</ele>
        <time>2014-09-05T08:15:03Z</time>
      </trkpt>
      <trkpt lat="46.28074" lon="6.05552">
        <ele>448.31</ele>
        <time>2014-09-05T08:15:04Z</time>
      </trkpt>
      <trkpt lat="46.28049" lon="6.05676">
        <ele>448.93</ele>
        <time>2014-09-05T08:15:17Z</time>
      </trkpt>
      <trkpt lat="46.28013" lon="6.05786">
        <ele>450.17</ele>
        <time>2014-09-05T08:15:31Z</time>
      </trkpt>
      <trkpt lat="46.2797" lon="6.05895">
        <ele>449.5</ele>
        <time>2014-09-05T08:15:44Z</time>
      </trkpt>
      <trkpt lat="46.27945" lon="6.06021">
        <ele>448.04</ele>
        <time>2014-09-05T08:15:57Z</time>
      </trkpt>
      <trkpt lat="46.27906" lon="6.06151">
        <ele>448.71</ele>
        <time>2014-09-05T08:16:12Z</time>
      </trkpt>
      <trkpt lat="46.27895" lon="6.06215">
        <ele>448.76</ele>
        <time>2014-09-05T08:16:19Z</time>
      </trkpt>
      <trkpt lat="46.27895" lon="6.06225">
        <ele>448.71</ele>
        <time>2014-09-05T08:16:20Z</time>
      </trkpt>
      <trkpt lat="46.27895" lon="6.06234">
        <ele>448.68</ele>
        <time>2014-09-05T08:16:21Z</time>
      </trkpt>
      <trkpt lat="46.27896" lon="6.06244">
        <ele>448.63</ele>
        <time>2014-09-05T08:16:22Z</time>
      </trkpt>
      <trkpt lat="46.27896" lon="6.06254">
        <ele>448.61</ele>
        <time>2014-09-05T08:16:23Z</time>
      </trkpt>
      <trkpt lat="46.27914" lon="6.06435">
        <ele>447.27</ele>
        <time>2014-09-05T08:16:41Z</time>
      </trkpt>
      <trkpt lat="46.27928" lon="6.06569">
        <ele>446.52</ele>
        <time>2014-09-05T08:16:55Z</time>
      </trkpt>
      <trkpt lat="46.27932" lon="6.06587">
        <ele>446.43</ele>
        <time>2014-09-05T08:16:57Z</time>
      </trkpt>
      <trkpt lat="46.27934" lon="6.06596">
        <ele>446.41</ele>
        <time>2014-09-05T08:16:58Z</time>
      </trkpt>
      <trkpt lat="46.27941" lon="6.06612">
        <ele>446.3</ele>
        <time>2014-09-05T08:17:00Z</time>
      </trkpt>
      <trkpt lat="46.27953" lon="6.06642">
        <ele>446.44</ele>
        <time>2014-09-05T08:17:04Z</time>
      </trkpt>
      <trkpt lat="46.27955" lon="6.0665">
        <ele>446.49</ele>
        <time>2014-09-05T08:17:05Z</time>
      </trkpt>
      <trkpt lat="46.27956" lon="6.06658">
        <ele>446.52</ele>
        <time>2014-09-05T08:17:06Z</time>
      </trkpt>
      <trkpt lat="46.27956" lon="6.06666">
        <ele>446.59</ele>
        <time>2014-09-05T08:17:07Z</time>
      </trkpt>
      <trkpt lat="46.27956" lon="6.06673">
        <ele>446.69</ele>
        <time>2014-09-05T08:17:08Z</time>
      </trkpt>
      <trkpt lat="46.27956" lon="6.06679">
        <ele>446.81</ele>
        <time>2014-09-05T08:17:09Z</time>
      </trkpt>
      <trkpt lat="46.27952" lon="6.06704">
        <ele>447.95</ele>
        <time>2014-09-05T08:17:14Z</time>
      </trkpt>
      <trkpt lat="46.27949" lon="6.06708">
        <ele>448.03</ele>
        <time>2014-09-05T08:17:15Z</time>
      </trkpt>
      <trkpt lat="46.27945" lon="6.06711">
        <ele>448</ele>
        <time>2014-09-05T08:17:16Z</time>
      </trkpt>
      <trkpt lat="46.27941" lon="6.06715">
        <ele>448</ele>
        <time>2014-09-05T08:17:17Z</time>
      </trkpt>
      <trkpt lat="46.27937" lon="6.06718">
        <ele>447.98</ele>
        <time>2014-09-05T08:17:18Z</time>
      </trkpt>
      <trkpt lat="46.27933" lon="6.06721">
        <ele>448.1</ele>
        <time>2014-09-05T08:17:19Z</time>
      </trkpt>
      <trkpt lat="46.2793" lon="6.06725">
        <ele>448.04</ele>
        <time>2014-09-05T08:17:20Z</time>
      </trkpt>
      <trkpt lat="46.27927" lon="6.0673">
        <ele>447.84</ele>
        <time>2014-09-05T08:17:21Z</time>
      </trkpt>
      <trkpt lat="46.27924" lon="6.06736">
        <ele>447.88</ele>
        <time>2014-09-05T08:17:22Z</time>
      </trkpt>
      <trkpt lat="46.27913" lon="6.06753">
        <ele>447.67</ele>
        <time>2014-09-05T08:17:25Z</time>
      </trkpt>
      <trkpt lat="46.2791" lon="6.0676">
        <ele>447.63</ele>
        <time>2014-09-05T08:17:26Z</time>
      </trkpt>
      <trkpt lat="46.27898" lon="6.06807">
        <ele>447.59</ele>
        <time>2014-09-05T08:17:32Z</time>
      </trkpt>
      <trkpt lat="46.27894" lon="6.06814">
        <ele>447.52</ele>
        <time>2014-09-05T08:17:33Z</time>
      </trkpt>
      <trkpt lat="46.2784" lon="6.06903">
        <ele>444.9</ele>
        <time>2014-09-05T08:17:45Z</time>
      </trkpt>
      <trkpt lat="46.27834" lon="6.06908">
        <ele>444.63</ele>
        <time>2014-09-05T08:17:46Z</time>
      </trkpt>
      <trkpt lat="46.27827" lon="6.06913">
        <ele>444.4</ele>
        <time>2014-09-05T08:17:47Z</time>
      </trkpt>
      <trkpt lat="46.27712" lon="6.06978">
        <ele>443.43</ele>
        <time>2014-09-05T08:18:04Z</time>
      </trkpt>
      <trkpt lat="46.27588" lon="6.07047">
        <ele>443.8</ele>
        <time>2014-09-05T08:18:24Z</time>
      </trkpt>
      <trkpt lat="46.27519" lon="6.07093">
        <ele>444.69</ele>
        <time>2014-09-05T08:18:37Z</time>
      </trkpt>
      <trkpt lat="46.27462" lon="6.07128">
        <ele>447.06</ele>
        <time>2014-09-05T08:18:50Z</time>
      </trkpt>
      <trkpt lat="46.27414" lon="6.0715">
        <ele>448.65</ele>
        <time>2014-09-05T08:19:00Z</time>
      </trkpt>
      <trkpt lat="46.27409" lon="6.07152">
        <ele>448.72</ele>
        <time>2014-09-05T08:19:01Z</time>
      </trkpt>
      <trkpt lat="46.27301" lon="6.07173">
        <ele>448.44</ele>
        <time>2014-09-05T08:19:20Z</time>
      </trkpt>
      <trkpt lat="46.27186" lon="6.07172">
        <ele>447.75</ele>
        <time>2014-09-05T08:19:38Z</time>
      </trkpt>
      <trkpt lat="46.27089" lon="6.07192">
        <ele>444.71</ele>
        <time>2014-09-05T08:19:50Z</time>
      </trkpt>
      <trkpt lat="46.26961" lon="6.07242">
        <ele>442.03</ele>
        <time>2014-09-05T08:20:06Z</time>
      </trkpt>
      <trkpt lat="46.26897" lon="6.07321">
        <ele>440.11</ele>
        <time>2014-09-05T08:20:16Z</time>
      </trkpt>
      <trkpt lat="46.2682" lon="6.07428">
        <ele>440.92</ele>
        <time>2014-09-05T08:20:31Z</time>
      </trkpt>
      <trkpt lat="46.26812" lon="6.07437">
        <ele>441.24</ele>
        <time>2014-09-05T08:20:33Z</time>
      </trkpt>
      <trkpt lat="46.26808" lon="6.0744">
        <ele>441.24</ele>
        <time>2014-09-05T08:20:34Z</time>
      </trkpt>
      <trkpt lat="46.26804" lon="6.07444">
        <ele>441.42</ele>
        <time>2014-09-05T08:20:35Z</time>
      </trkpt>
      <trkpt lat="46.26787" lon="6.07457">
        <ele>442.36</ele>
        <time>2014-09-05T08:20:39Z</time>
      </trkpt>
      <trkpt lat="46.26784" lon="6.07462">
        <ele>442.57</ele>
        <time>2014-09-05T08:20:40Z</time>
      </trkpt>
      <trkpt lat="46.2678" lon="6.07466">
        <ele>442.84</ele>
        <time>2014-09-05T08:20:41Z</time>
      </trkpt>
      <trkpt lat="46.26777" lon="6.07472">
        <ele>443.1</ele>
        <time>2014-09-05T08:20:42Z</time>
      </trkpt>
      <trkpt lat="46.26774" lon="6.07477">
        <ele>443.3</ele>
        <time>2014-09-05T08:20:43Z</time>
      </trkpt>
      <trkpt lat="46.26772" lon="6.07482">
        <ele>443.43</ele>
        <time>2014-09-05T08:20:44Z</time>
      </trkpt>
      <trkpt lat="46.26772" lon="6.07489">
        <ele>443.66</ele>
        <time>2014-09-05T08:20:45Z</time>
      </trkpt>
      <trkpt lat="46.26773" lon="6.07495">
        <ele>443.9</ele>
        <time>2014-09-05T08:20:46Z</time>
      </trkpt>
      <trkpt lat="46.26774" lon="6.07502">
        <ele>444.09</ele>
        <time>2014-09-05T08:20:47Z</time>
      </trkpt>
      <trkpt lat="46.26776" lon="6.07508">
        <ele>444.27</ele>
        <time>2014-09-05T08:20:48Z</time>
      </trkpt>
      <trkpt lat="46.26779" lon="6.07515">
        <ele>444.39</ele>
        <time>2014-09-05T08:20:49Z</time>
      </trkpt>
      <trkpt lat="46.26782" lon="6.0752">
        <ele>444.53</ele>
        <time>2014-09-05T08:20:50Z</time>
      </trkpt>
      <trkpt lat="46.2684" lon="6.07637">
        <ele>444.22</ele>
        <time>2014-09-05T08:21:08Z</time>
      </trkpt>
      <trkpt lat="46.26887" lon="6.07734">
        <ele>444.4</ele>
        <time>2014-09-05T08:21:23Z</time>
      </trkpt>
      <trkpt lat="46.26939" lon="6.0784">
        <ele>445.35</ele>
        <time>2014-09-05T08:21:41Z</time>
      </trkpt>
      <trkpt lat="46.26944" lon="6.07851">
        <ele>445.66</ele>
        <time>2014-09-05T08:21:43Z</time>
      </trkpt>
      <trkpt lat="46.26954" lon="6.079">
        <ele>445.92</ele>
        <time>2014-09-05T08:21:52Z</time>
      </trkpt>
      <trkpt lat="46.26956" lon="6.07906">
        <ele>445.95</ele>
        <time>2014-09-05T08:21:53Z</time>
      </trkpt>
      <trkpt lat="46.26972" lon="6.07999">
        <ele>446.63</ele>
        <time>2014-09-05T08:22:07Z</time>
      </trkpt>
      <trkpt lat="46.26983" lon="6.08041">
        <ele>447.52</ele>
        <time>2014-09-05T08:22:14Z</time>
      </trkpt>
      <trkpt lat="46.27025" lon="6.08147">
        <ele>450.04</ele>
        <time>2014-09-05T08:22:33Z</time>
      </trkpt>
      <trkpt lat="46.27075" lon="6.08264">
        <ele>449.72</ele>
        <time>2014-09-05T08:22:52Z</time>
      </trkpt>
      <trkpt lat="46.27106" lon="6.08343">
        <ele>450.74</ele>
        <time>2014-09-05T08:23:05Z</time>
      </trkpt>
      <trkpt lat="46.27132" lon="6.0841">
        <ele>451.03</ele>
        <time>2014-09-05T08:23:15Z</time>
      </trkpt>
      <trkpt lat="46.27135" lon="6.08417">
        <ele>451.21</ele>
        <time>2014-09-05T08:23:16Z</time>
      </trkpt>
      <trkpt lat="46.27158" lon="6.08477">
        <ele>451.62</ele>
        <time>2014-09-05T08:23:25Z</time>
      </trkpt>
      <trkpt lat="46.27161" lon="6.08484">
        <ele>451.69</ele>
        <time>2014-09-05T08:23:26Z</time>
      </trkpt>
      <trkpt lat="46.27213" lon="6.08609">
        <ele>452.75</ele>
        <time>2014-09-05T08:23:45Z</time>
      </trkpt>
      <trkpt lat="46.27247" lon="6.08695">
        <ele>453.44</ele>
        <time>2014-09-05T08:23:58Z</time>
      </trkpt>
      <trkpt lat="46.2725" lon="6.087">
        <ele>453.58</ele>
        <time>2014-09-05T08:23:59Z</time>
      </trkpt>
      <trkpt lat="46.27254" lon="6.08705">
        <ele>453.69</ele>
        <time>2014-09-05T08:24:00Z</time>
      </trkpt>
      <trkpt lat="46.27257" lon="6.0871">
        <ele>453.81</ele>
        <time>2014-09-05T08:24:01Z</time>
      </trkpt>
      <trkpt lat="46.27261" lon="6.08715">
        <ele>454.02</ele>
        <time>2014-09-05T08:24:02Z</time>
      </trkpt>
      <trkpt lat="46.27354" lon="6.08819">
        <ele>455.61</ele>
        <time>2014-09-05T08:24:25Z</time>
      </trkpt>
      <trkpt lat="46.27424" lon="6.08899">
        <ele>455.73</ele>
        <time>2014-09-05T08:24:41Z</time>
      </trkpt>
      <trkpt lat="46.27473" lon="6.08959">
        <ele>455.63</ele>
        <time>2014-09-05T08:24:53Z</time>
      </trkpt>
      <trkpt lat="46.27478" lon="6.08974">
        <ele>455.44</ele>
        <time>2014-09-05T08:24:55Z</time>
      </trkpt>
      <trkpt lat="46.27478" lon="6.08982">
        <ele>455.29</ele>
        <time>2014-09-05T08:24:56Z</time>
      </trkpt>
      <trkpt lat="46.27478" lon="6.0899">
        <ele>455.21</ele>
        <time>2014-09-05T08:24:57Z</time>
      </trkpt>
      <trkpt lat="46.27476" lon="6.08997">
        <ele>455.28</ele>
        <time>2014-09-05T08:24:58Z</time>
      </trkpt>
      <trkpt lat="46.27474" lon="6.09004">
        <ele>455.28</ele>
        <time>2014-09-05T08:24:59Z</time>
      </trkpt>
      <trkpt lat="46.27472" lon="6.09011">
        <ele>455.41</ele>
        <time>2014-09-05T08:25:00Z</time>
      </trkpt>
      <trkpt lat="46.2747" lon="6.09018">
        <ele>455.37</ele>
        <time>2014-09-05T08:25:01Z</time>
      </trkpt>
      <trkpt lat="46.27441" lon="6.09123">
        <ele>455.74</ele>
        <time>2014-09-05T08:25:15Z</time>
      </trkpt>
      <trkpt lat="46.27389" lon="6.09222">
        <ele>457.85</ele>
        <time>2014-09-05T08:25:32Z</time>
      </trkpt>
      <trkpt lat="46.27369" lon="6.09258">
        <ele>458.48</ele>
        <time>2014-09-05T08:25:38Z</time>
      </trkpt>
      <trkpt lat="46.27367" lon="6.09264">
        <ele>458.56</ele>
        <time>2014-09-05T08:25:39Z</time>
      </trkpt>
      <trkpt lat="46.27365" lon="6.09271">
        <ele>458.61</ele>
        <time>2014-09-05T08:25:40Z</time>
      </trkpt>
      <trkpt lat="46.27356" lon="6.09297">
        <ele>458.92</ele>
        <time>2014-09-05T08:25:44Z</time>
      </trkpt>
      <trkpt lat="46.27354" lon="6.09303">
        <ele>458.98</ele>
        <time>2014-09-05T08:25:45Z</time>
      </trkpt>
      <trkpt lat="46.27349" lon="6.09317">
        <ele>459.03</ele>
        <time>2014-09-05T08:25:47Z</time>
      </trkpt>
      <trkpt lat="46.27346" lon="6.09324">
        <ele>459.04</ele>
        <time>2014-09-05T08:25:48Z</time>
      </trkpt>
      <trkpt lat="46.27314" lon="6.09419">
        <ele>457.66</ele>
        <time>2014-09-05T08:26:00Z</time>
      </trkpt>
      <trkpt lat="46.27307" lon="6.09462">
        <ele>457.5</ele>
        <time>2014-09-05T08:26:06Z</time>
      </trkpt>
      <trkpt lat="46.27306" lon="6.09469">
        <ele>457.43</ele>
        <time>2014-09-05T08:26:07Z</time>
      </trkpt>
      <trkpt lat="46.27306" lon="6.09475">
        <ele>457.36</ele>
        <time>2014-09-05T08:26:08Z</time>
      </trkpt>
      <trkpt lat="46.2731" lon="6.09486">
        <ele>457.18</ele>
        <time>2014-09-05T08:26:10Z</time>
      </trkpt>
      <trkpt lat="46.2732" lon="6.095">
        <ele>458.45</ele>
        <time>2014-09-05T08:26:20Z</time>
      </trkpt>
      <trkpt lat="46.27321" lon="6.095">
        <ele>458.71</ele>
        <time>2014-09-05T08:26:30Z</time>
      </trkpt>
      <trkpt lat="46.27327" lon="6.09495">
        <ele>458.99</ele>
        <time>2014-09-05T08:26:41Z</time>
      </trkpt>
      <trkpt lat="46.27328" lon="6.09496">
        <ele>458.99</ele>
        <time>2014-09-05T08:26:43Z</time>
      </trkpt>
      <trkpt lat="46.27329" lon="6.09497">
        <ele>458.99</ele>
        <time>2014-09-05T08:26:44Z</time>
      </trkpt>
      <trkpt lat="46.27331" lon="6.09498">
        <ele>458.99</ele>
        <time>2014-09-05T08:26:45Z</time>
      </trkpt>
      <trkpt lat="46.27332" lon="6.09499">
        <ele>458.93</ele>
        <time>2014-09-05T08:26:46Z</time>
      </trkpt>
      <trkpt lat="46.27333" lon="6.09499">
        <ele>458.84</ele>
        <time>2014-09-05T08:26:47Z</time>
      </trkpt>
      <trkpt lat="46.27339" lon="6.09506">
        <ele>458.4</ele>
        <time>2014-09-05T08:26:55Z</time>
      </trkpt>
      <trkpt lat="46.27383" lon="6.09559">
        <ele>458.65</ele>
        <time>2014-09-05T08:27:07Z</time>
      </trkpt>
      <trkpt lat="46.27436" lon="6.09627">
        <ele>460.16</ele>
        <time>2014-09-05T08:27:21Z</time>
      </trkpt>
      <trkpt lat="46.27455" lon="6.09653">
        <ele>459.76</ele>
        <time>2014-09-05T08:27:27Z</time>
      </trkpt>
      <trkpt lat="46.27455" lon="6.09657">
        <ele>459.46</ele>
        <time>2014-09-05T08:27:28Z</time>
      </trkpt>
      <trkpt lat="46.27455" lon="6.09661">
        <ele>459.18</ele>
        <time>2014-09-05T08:27:29Z</time>
      </trkpt>
      <trkpt lat="46.27453" lon="6.09666">
        <ele>458.94</ele>
        <time>2014-09-05T08:27:30Z</time>
      </trkpt>
      <trkpt lat="46.27451" lon="6.09671">
        <ele>458.82</ele>
        <time>2014-09-05T08:27:31Z</time>
      </trkpt>
      <trkpt lat="46.27448" lon="6.09676">
        <ele>458.77</ele>
        <time>2014-09-05T08:27:32Z</time>
      </trkpt>
      <trkpt lat="46.27441" lon="6.09689">
        <ele>458.59</ele>
        <time>2014-09-05T08:27:34Z</time>
      </trkpt>
      <trkpt lat="46.27438" lon="6.09695">
        <ele>458.56</ele>
        <time>2014-09-05T08:27:35Z</time>
      </trkpt>
      <trkpt lat="46.27377" lon="6.0981">
        <ele>457.67</ele>
        <time>2014-09-05T08:27:53Z</time>
      </trkpt>
      <trkpt lat="46.27328" lon="6.09896">
        <ele>456.32</ele>
        <time>2014-09-05T08:28:06Z</time>
      </trkpt>
      <trkpt lat="46.27326" lon="6.09903">
        <ele>456.27</ele>
        <time>2014-09-05T08:28:07Z</time>
      </trkpt>
      <trkpt lat="46.27325" lon="6.09911">
        <ele>456.24</ele>
        <time>2014-09-05T08:28:08Z</time>
      </trkpt>
      <trkpt lat="46.27288" lon="6.10047">
        <ele>453.7</ele>
        <time>2014-09-05T08:28:24Z</time>
      </trkpt>
      <trkpt lat="46.2724" lon="6.10169">
        <ele>451.75</ele>
        <time>2014-09-05T08:28:39Z</time>
      </trkpt>
      <trkpt lat="46.27176" lon="6.10269">
        <ele>448.61</ele>
        <time>2014-09-05T08:28:51Z</time>
      </trkpt>
      <trkpt lat="46.27143" lon="6.10333">
        <ele>445.23</ele>
        <time>2014-09-05T08:28:57Z</time>
      </trkpt>
      <trkpt lat="46.27123" lon="6.10384">
        <ele>443.15</ele>
        <time>2014-09-05T08:29:02Z</time>
      </trkpt>
      <trkpt lat="46.2712" lon="6.10392">
        <ele>442.62</ele>
        <time>2014-09-05T08:29:03Z</time>
      </trkpt>
      <trkpt lat="46.27117" lon="6.10397">
        <ele>442.22</ele>
        <time>2014-09-05T08:29:04Z</time>
      </trkpt>
      <trkpt lat="46.27114" lon="6.104">
        <ele>441.91</ele>
        <time>2014-09-05T08:29:05Z</time>
      </trkpt>
      <trkpt lat="46.2711" lon="6.10401">
        <ele>441.62</ele>
        <time>2014-09-05T08:29:06Z</time>
      </trkpt>
      <trkpt lat="46.27107" lon="6.10402">
        <ele>441.37</ele>
        <time>2014-09-05T08:29:07Z</time>
      </trkpt>
      <trkpt lat="46.27104" lon="6.10404">
        <ele>441</ele>
        <time>2014-09-05T08:29:09Z</time>
      </trkpt>
      <trkpt lat="46.27103" lon="6.10407">
        <ele>440.81</ele>
        <time>2014-09-05T08:29:10Z</time>
      </trkpt>
      <trkpt lat="46.27102" lon="6.1041">
        <ele>440.72</ele>
        <time>2014-09-05T08:29:11Z</time>
      </trkpt>
      <trkpt lat="46.27101" lon="6.10415">
        <ele>440.78</ele>
        <time>2014-09-05T08:29:12Z</time>
      </trkpt>
      <trkpt lat="46.27102" lon="6.1042">
        <ele>440.7</ele>
        <time>2014-09-05T08:29:13Z</time>
      </trkpt>
      <trkpt lat="46.27102" lon="6.10425">
        <ele>440.77</ele>
        <time>2014-09-05T08:29:14Z</time>
      </trkpt>
      <trkpt lat="46.27102" lon="6.10431">
        <ele>440.73</ele>
        <time>2014-09-05T08:29:15Z</time>
      </trkpt>
      <trkpt lat="46.27103" lon="6.10438">
        <ele>440.84</ele>
        <time>2014-09-05T08:29:16Z</time>
      </trkpt>
      <trkpt lat="46.27103" lon="6.10445">
        <ele>440.9</ele>
        <time>2014-09-05T08:29:17Z</time>
      </trkpt>
      <trkpt lat="46.27103" lon="6.10452">
        <ele>440.86</ele>
        <time>2014-09-05T08:29:18Z</time>
      </trkpt>
      <trkpt lat="46.27103" lon="6.1046">
        <ele>440.84</ele>
        <time>2014-09-05T08:29:19Z</time>
      </trkpt>
      <trkpt lat="46.27102" lon="6.10483">
        <ele>440.89</ele>
        <time>2014-09-05T08:29:22Z</time>
      </trkpt>
      <trkpt lat="46.27098" lon="6.10506">
        <ele>440.76</ele>
        <time>2014-09-05T08:29:25Z</time>
      </trkpt>
      <trkpt lat="46.27093" lon="6.10523">
        <ele>440.56</ele>
        <time>2014-09-05T08:29:27Z</time>
      </trkpt>
      <trkpt lat="46.2709" lon="6.10532">
        <ele>440.33</ele>
        <time>2014-09-05T08:29:28Z</time>
      </trkpt>
      <trkpt lat="46.27087" lon="6.1054">
        <ele>440.18</ele>
        <time>2014-09-05T08:29:29Z</time>
      </trkpt>
      <trkpt lat="46.27084" lon="6.10548">
        <ele>439.97</ele>
        <time>2014-09-05T08:29:30Z</time>
      </trkpt>
      <trkpt lat="46.2706" lon="6.10601">
        <ele>438.01</ele>
        <time>2014-09-05T08:29:38Z</time>
      </trkpt>
      <trkpt lat="46.27055" lon="6.10616">
        <ele>437.94</ele>
        <time>2014-09-05T08:29:40Z</time>
      </trkpt>
      <trkpt lat="46.27054" lon="6.10623">
        <ele>437.85</ele>
        <time>2014-09-05T08:29:41Z</time>
      </trkpt>
      <trkpt lat="46.27052" lon="6.10632">
        <ele>437.8</ele>
        <time>2014-09-05T08:29:42Z</time>
      </trkpt>
      <trkpt lat="46.2705" lon="6.10649">
        <ele>437.69</ele>
        <time>2014-09-05T08:29:44Z</time>
      </trkpt>
      <trkpt lat="46.27048" lon="6.10666">
        <ele>437.53</ele>
        <time>2014-09-05T08:29:46Z</time>
      </trkpt>
      <trkpt lat="46.27044" lon="6.10683">
        <ele>437.32</ele>
        <time>2014-09-05T08:29:48Z</time>
      </trkpt>
      <trkpt lat="46.27011" lon="6.10766">
        <ele>436.89</ele>
        <time>2014-09-05T08:29:59Z</time>
      </trkpt>
      <trkpt lat="46.26968" lon="6.10824">
        <ele>434.77</ele>
        <time>2014-09-05T08:30:09Z</time>
      </trkpt>
      <trkpt lat="46.26961" lon="6.1084">
        <ele>434.19</ele>
        <time>2014-09-05T08:30:11Z</time>
      </trkpt>
      <trkpt lat="46.26904" lon="6.10935">
        <ele>431.11</ele>
        <time>2014-09-05T08:30:22Z</time>
      </trkpt>
      <trkpt lat="46.26846" lon="6.11022">
        <ele>427.91</ele>
        <time>2014-09-05T08:30:31Z</time>
      </trkpt>
      <trkpt lat="46.26786" lon="6.11098">
        <ele>424.54</ele>
        <time>2014-09-05T08:30:39Z</time>
      </trkpt>
      <trkpt lat="46.26693" lon="6.11236">
        <ele>421.84</ele>
        <time>2014-09-05T08:30:54Z</time>
      </trkpt>
      <trkpt lat="46.26628" lon="6.11337">
        <ele>418.22</ele>
        <time>2014-09-05T08:31:04Z</time>
      </trkpt>
      <trkpt lat="46.26599" lon="6.11386">
        <ele>414.62</ele>
        <time>2014-09-05T08:31:09Z</time>
      </trkpt>
      <trkpt lat="46.26571" lon="6.11434">
        <ele>411.41</ele>
        <time>2014-09-05T08:31:15Z</time>
      </trkpt>
      <trkpt lat="46.26567" lon="6.1144">
        <ele>411.2</ele>
        <time>2014-09-05T08:31:16Z</time>
      </trkpt>
      <trkpt lat="46.26562" lon="6.11446">
        <ele>410.96</ele>
        <time>2014-09-05T08:31:17Z</time>
      </trkpt>
      <trkpt lat="46.26523" lon="6.11503">
        <ele>413.04</ele>
        <time>2014-09-05T08:31:29Z</time>
      </trkpt>
      <trkpt lat="46.26505" lon="6.11522">
        <ele>414.34</ele>
        <time>2014-09-05T08:31:35Z</time>
      </trkpt>
      <trkpt lat="46.26501" lon="6.11522">
        <ele>414.64</ele>
        <time>2014-09-05T08:31:36Z</time>
      </trkpt>
      <trkpt lat="46.26497" lon="6.11521">
        <ele>415.12</ele>
        <time>2014-09-05T08:31:37Z</time>
      </trkpt>
      <trkpt lat="46.26493" lon="6.1152">
        <ele>415.52</ele>
        <time>2014-09-05T08:31:38Z</time>
      </trkpt>
      <trkpt lat="46.26489" lon="6.11517">
        <ele>415.71</ele>
        <time>2014-09-05T08:31:39Z</time>
      </trkpt>
      <trkpt lat="46.26485" lon="6.11514">
        <ele>415.81</ele>
        <time>2014-09-05T08:31:40Z</time>
      </trkpt>
      <trkpt lat="46.26449" lon="6.11473">
        <ele>416.09</ele>
        <time>2014-09-05T08:31:51Z</time>
      </trkpt>
      <trkpt lat="46.26445" lon="6.11472">
        <ele>416.06</ele>
        <time>2014-09-05T08:31:52Z</time>
      </trkpt>
      <trkpt lat="46.2644" lon="6.11472">
        <ele>416.12</ele>
        <time>2014-09-05T08:31:53Z</time>
      </trkpt>
      <trkpt lat="46.26436" lon="6.11475">
        <ele>416.14</ele>
        <time>2014-09-05T08:31:54Z</time>
      </trkpt>
      <trkpt lat="46.26431" lon="6.11479">
        <ele>416.15</ele>
        <time>2014-09-05T08:31:55Z</time>
      </trkpt>
      <trkpt lat="46.26346" lon="6.11522">
        <ele>413.77</ele>
        <time>2014-09-05T08:32:08Z</time>
      </trkpt>
      <trkpt lat="46.26295" lon="6.11546">
        <ele>410.6</ele>
        <time>2014-09-05T08:32:14Z</time>
      </trkpt>
      <trkpt lat="46.2625" lon="6.11566">
        <ele>407.58</ele>
        <time>2014-09-05T08:32:19Z</time>
      </trkpt>
      <trkpt lat="46.26227" lon="6.11579">
        <ele>405.57</ele>
        <time>2014-09-05T08:32:22Z</time>
      </trkpt>
      <trkpt lat="46.2622" lon="6.11582">
        <ele>405</ele>
        <time>2014-09-05T08:32:23Z</time>
      </trkpt>
      <trkpt lat="46.26214" lon="6.11584">
        <ele>404.56</ele>
        <time>2014-09-05T08:32:24Z</time>
      </trkpt>
      <trkpt lat="46.26208" lon="6.1159">
        <ele>404.24</ele>
        <time>2014-09-05T08:32:25Z</time>
      </trkpt>
      <trkpt lat="46.26203" lon="6.11597">
        <ele>404.01</ele>
        <time>2014-09-05T08:32:26Z</time>
      </trkpt>
      <trkpt lat="46.26198" lon="6.11604">
        <ele>403.87</ele>
        <time>2014-09-05T08:32:27Z</time>
      </trkpt>
      <trkpt lat="46.26187" lon="6.11617">
        <ele>403.54</ele>
        <time>2014-09-05T08:32:29Z</time>
      </trkpt>
      <trkpt lat="46.26132" lon="6.11709">
        <ele>402.84</ele>
        <time>2014-09-05T08:32:41Z</time>
      </trkpt>
      <trkpt lat="46.261" lon="6.11775">
        <ele>402.67</ele>
        <time>2014-09-05T08:32:49Z</time>
      </trkpt>
      <trkpt lat="46.26096" lon="6.11782">
        <ele>402.62</ele>
        <time>2014-09-05T08:32:50Z</time>
      </trkpt>
      <trkpt lat="46.26046" lon="6.11874">
        <ele>402.24</ele>
        <time>2014-09-05T08:33:04Z</time>
      </trkpt>
      <trkpt lat="46.2604" lon="6.11887">
        <ele>402.56</ele>
        <time>2014-09-05T08:33:08Z</time>
      </trkpt>
      <trkpt lat="46.26039" lon="6.11891">
        <ele>402.68</ele>
        <time>2014-09-05T08:33:13Z</time>
      </trkpt>
      <trkpt lat="46.26054" lon="6.11928">
        <ele>402.96</ele>
        <time>2014-09-05T08:33:22Z</time>
      </trkpt>
      <trkpt lat="46.26059" lon="6.11938">
        <ele>403.06</ele>
        <time>2014-09-05T08:33:24Z</time>
      </trkpt>
      <trkpt lat="46.26062" lon="6.11943">
        <ele>403.05</ele>
        <time>2014-09-05T08:33:25Z</time>
      </trkpt>
      <trkpt lat="46.2611" lon="6.12032">
        <ele>404.61</ele>
        <time>2014-09-05T08:33:42Z</time>
      </trkpt>
      <trkpt lat="46.26116" lon="6.12042">
        <ele>405.12</ele>
        <time>2014-09-05T08:33:44Z</time>
      </trkpt>
      <trkpt lat="46.26118" lon="6.12047">
        <ele>405.12</ele>
        <time>2014-09-05T08:33:45Z</time>
      </trkpt>
      <trkpt lat="46.26154" lon="6.12115">
        <ele>408.18</ele>
        <time>2014-09-05T08:33:58Z</time>
      </trkpt>
      <trkpt lat="46.26159" lon="6.12126">
        <ele>408.47</ele>
        <time>2014-09-05T08:34:00Z</time>
      </trkpt>
      <trkpt lat="46.26185" lon="6.12172">
        <ele>408.87</ele>
        <time>2014-09-05T08:34:09Z</time>
      </trkpt>
      <trkpt lat="46.26188" lon="6.12177">
        <ele>408.8</ele>
        <time>2014-09-05T08:34:10Z</time>
      </trkpt>
      <trkpt lat="46.26238" lon="6.1227">
        <ele>406.69</ele>
        <time>2014-09-05T08:34:23Z</time>
      </trkpt>
      <trkpt lat="46.26299" lon="6.12385">
        <ele>403.54</ele>
        <time>2014-09-05T08:34:37Z</time>
      </trkpt>
      <trkpt lat="46.26337" lon="6.12454">
        <ele>402.86</ele>
        <time>2014-09-05T08:34:46Z</time>
      </trkpt>
      <trkpt lat="46.26346" lon="6.1249">
        <ele>402.68</ele>
        <time>2014-09-05T08:34:54Z</time>
      </trkpt>
      <trkpt lat="46.2636" lon="6.12493">
        <ele>402.02</ele>
        <time>2014-09-05T08:35:00Z</time>
      </trkpt>
      <trkpt lat="46.26378" lon="6.12479">
        <ele>402.52</ele>
        <time>2014-09-05T08:35:06Z</time>
      </trkpt>
      <trkpt lat="46.26392" lon="6.1248">
        <ele>402.63</ele>
        <time>2014-09-05T08:35:09Z</time>
      </trkpt>
      <trkpt lat="46.26434" lon="6.12484">
        <ele>402.14</ele>
        <time>2014-09-05T08:35:17Z</time>
      </trkpt>
      <trkpt lat="46.26554" lon="6.12486">
        <ele>402.8</ele>
        <time>2014-09-05T08:35:36Z</time>
      </trkpt>
      <trkpt lat="46.26572" lon="6.12492">
        <ele>402.95</ele>
        <time>2014-09-05T08:35:39Z</time>
      </trkpt>
      <trkpt lat="46.2668" lon="6.12531">
        <ele>405.35</ele>
        <time>2014-09-05T08:35:58Z</time>
      </trkpt>
      <trkpt lat="46.26709" lon="6.12534">
        <ele>405.05</ele>
        <time>2014-09-05T08:36:03Z</time>
      </trkpt>
      <trkpt lat="46.26747" lon="6.12511">
        <ele>406.26</ele>
        <time>2014-09-05T08:36:11Z</time>
      </trkpt>
      <trkpt lat="46.26791" lon="6.12415">
        <ele>408.72</ele>
        <time>2014-09-05T08:36:27Z</time>
      </trkpt>
      <trkpt lat="46.26793" lon="6.12408">
        <ele>408.8</ele>
        <time>2014-09-05T08:36:28Z</time>
      </trkpt>
      <trkpt lat="46.26827" lon="6.12301">
        <ele>409.34</ele>
        <time>2014-09-05T08:36:44Z</time>
      </trkpt>
      <trkpt lat="46.26873" lon="6.12224">
        <ele>411.99</ele>
        <time>2014-09-05T08:37:00Z</time>
      </trkpt>
      <trkpt lat="46.26883" lon="6.12208">
        <ele>412.38</ele>
        <time>2014-09-05T08:37:04Z</time>
      </trkpt>
      <trkpt lat="46.26899" lon="6.12185">
        <ele>412.85</ele>
        <time>2014-09-05T08:37:09Z</time>
      </trkpt>
      <trkpt lat="46.26931" lon="6.12173">
        <ele>412.64</ele>
        <time>2014-09-05T08:37:16Z</time>
      </trkpt>
      <trkpt lat="46.26968" lon="6.12207">
        <ele>412.5</ele>
        <time>2014-09-05T08:37:25Z</time>
      </trkpt>
      <trkpt lat="46.26981" lon="6.12219">
        <ele>413</ele>
        <time>2014-09-05T08:37:28Z</time>
      </trkpt>
      <trkpt lat="46.27004" lon="6.12246">
        <ele>413.24</ele>
        <time>2014-09-05T08:37:34Z</time>
      </trkpt>
      <trkpt lat="46.27014" lon="6.12263">
        <ele>413.24</ele>
        <time>2014-09-05T08:37:37Z</time>
      </trkpt>
      <trkpt lat="46.27056" lon="6.12347">
        <ele>410.92</ele>
        <time>2014-09-05T08:37:48Z</time>
      </trkpt>
      <trkpt lat="46.2709" lon="6.12439">
        <ele>408.31</ele>
        <time>2014-09-05T08:37:57Z</time>
      </trkpt>
      <trkpt lat="46.2711" lon="6.12477">
        <ele>407.88</ele>
        <time>2014-09-05T08:38:02Z</time>
      </trkpt>
      <trkpt lat="46.27124" lon="6.12493">
        <ele>408.19</ele>
        <time>2014-09-05T08:38:05Z</time>
      </trkpt>
      <trkpt lat="46.2717" lon="6.12557">
        <ele>410.35</ele>
        <time>2014-09-05T08:38:19Z</time>
      </trkpt>
      <trkpt lat="46.27177" lon="6.1258">
        <ele>410.76</ele>
        <time>2014-09-05T08:38:24Z</time>
      </trkpt>
      <trkpt lat="46.27188" lon="6.12606">
        <ele>411.44</ele>
        <time>2014-09-05T08:38:29Z</time>
      </trkpt>
      <trkpt lat="46.2721" lon="6.12729">
        <ele>411.6</ele>
        <time>2014-09-05T08:38:46Z</time>
      </trkpt>
      <trkpt lat="46.27243" lon="6.12837">
        <ele>412.85</ele>
        <time>2014-09-05T08:39:01Z</time>
      </trkpt>
      <trkpt lat="46.27294" lon="6.12923">
        <ele>411.5</ele>
        <time>2014-09-05T08:39:14Z</time>
      </trkpt>
      <trkpt lat="46.27359" lon="6.13061">
        <ele>411.09</ele>
        <time>2014-09-05T08:39:32Z</time>
      </trkpt>
      <trkpt lat="46.27373" lon="6.1308">
        <ele>410.95</ele>
        <time>2014-09-05T08:39:35Z</time>
      </trkpt>
      <trkpt lat="46.27471" lon="6.13179">
        <ele>409.08</ele>
        <time>2014-09-05T08:39:52Z</time>
      </trkpt>
      <trkpt lat="46.27502" lon="6.13185">
        <ele>408.32</ele>
        <time>2014-09-05T08:39:56Z</time>
      </trkpt>
      <trkpt lat="46.27607" lon="6.13199">
        <ele>406.73</ele>
        <time>2014-09-05T08:40:09Z</time>
      </trkpt>
      <trkpt lat="46.27713" lon="6.13298">
        <ele>406.67</ele>
        <time>2014-09-05T08:40:26Z</time>
      </trkpt>
      <trkpt lat="46.2779" lon="6.13379">
        <ele>405.32</ele>
        <time>2014-09-05T08:40:40Z</time>
      </trkpt>
      <trkpt lat="46.278" lon="6.13401">
        <ele>405.11</ele>
        <time>2014-09-05T08:40:49Z</time>
      </trkpt>
      <trkpt lat="46.278" lon="6.134">
        <ele>405.12</ele>
        <time>2014-09-05T08:40:52Z</time>
      </trkpt>
      <trkpt lat="46.27821" lon="6.13414">
        <ele>405.04</ele>
        <time>2014-09-05T08:41:00Z</time>
      </trkpt>
      <trkpt lat="46.27884" lon="6.13459">
        <ele>404.84</ele>
        <time>2014-09-05T08:41:12Z</time>
      </trkpt>
      <trkpt lat="46.27953" lon="6.13505">
        <ele>401.56</ele>
        <time>2014-09-05T08:41:22Z</time>
      </trkpt>
      <trkpt lat="46.27993" lon="6.13543">
        <ele>399.78</ele>
        <time>2014-09-05T08:41:27Z</time>
      </trkpt>
      <trkpt lat="46.28028" lon="6.13605">
        <ele>396.13</ele>
        <time>2014-09-05T08:41:32Z</time>
      </trkpt>
      <trkpt lat="46.28052" lon="6.13662">
        <ele>392.56</ele>
        <time>2014-09-05T08:41:36Z</time>
      </trkpt>
      <trkpt lat="46.28078" lon="6.13736">
        <ele>390.48</ele>
        <time>2014-09-05T08:41:41Z</time>
      </trkpt>
      <trkpt lat="46.28113" lon="6.13835">
        <ele>387.44</ele>
        <time>2014-09-05T08:41:48Z</time>
      </trkpt>
      <trkpt lat="46.28162" lon="6.13937">
        <ele>387.75</ele>
        <time>2014-09-05T08:41:58Z</time>
      </trkpt>
      <trkpt lat="46.2817" lon="6.14012">
        <ele>388.98</ele>
        <time>2014-09-05T08:42:06Z</time>
      </trkpt>
      <trkpt lat="46.28165" lon="6.14142">
        <ele>389.4</ele>
        <time>2014-09-05T08:42:20Z</time>
      </trkpt>
      <trkpt lat="46.28181" lon="6.14252">
        <ele>389.38</ele>
        <time>2014-09-05T08:42:32Z</time>
      </trkpt>
      <trkpt lat="46.28199" lon="6.14384">
        <ele>389.68</ele>
        <time>2014-09-05T08:42:46Z</time>
      </trkpt>
      <trkpt lat="46.28203" lon="6.1441">
        <ele>389.8</ele>
        <time>2014-09-05T08:42:49Z</time>
      </trkpt>
      <trkpt lat="46.28221" lon="6.14489">
        <ele>392.75</ele>
        <time>2014-09-05T08:43:01Z</time>
      </trkpt>
      <trkpt lat="46.28241" lon="6.14553">
        <ele>394.75</ele>
        <time>2014-09-05T08:43:12Z</time>
      </trkpt>
      <trkpt lat="46.28247" lon="6.14571">
        <ele>395.01</ele>
        <time>2014-09-05T08:43:15Z</time>
      </trkpt>
      <trkpt lat="46.28259" lon="6.14597">
        <ele>395.26</ele>
        <time>2014-09-05T08:43:20Z</time>
      </trkpt>
      <trkpt lat="46.28325" lon="6.14674">
        <ele>396.93</ele>
        <time>2014-09-05T08:43:38Z</time>
      </trkpt>
      <trkpt lat="46.28386" lon="6.14749">
        <ele>397.51</ele>
        <time>2014-09-05T08:43:54Z</time>
      </trkpt>
      <trkpt lat="46.28396" lon="6.14769">
        <ele>397.37</ele>
        <time>2014-09-05T08:43:57Z</time>
      </trkpt>
      <trkpt lat="46.28399" lon="6.14785">
        <ele>397.24</ele>
        <time>2014-09-05T08:43:59Z</time>
      </trkpt>
      <trkpt lat="46.28433" lon="6.14794">
        <ele>397.27</ele>
        <time>2014-09-05T08:44:06Z</time>
      </trkpt>
      <trkpt lat="46.28514" lon="6.14875">
        <ele>399.96</ele>
        <time>2014-09-05T08:44:26Z</time>
      </trkpt>
      <trkpt lat="46.28586" lon="6.14951">
        <ele>401.63</ele>
        <time>2014-09-05T08:44:44Z</time>
      </trkpt>
      <trkpt lat="46.28676" lon="6.15049">
        <ele>402.38</ele>
        <time>2014-09-05T08:45:05Z</time>
      </trkpt>
      <trkpt lat="46.28725" lon="6.15099">
        <ele>401.78</ele>
        <time>2014-09-05T08:45:15Z</time>
      </trkpt>
      <trkpt lat="46.28741" lon="6.15125">
        <ele>401.72</ele>
        <time>2014-09-05T08:45:19Z</time>
      </trkpt>
      <trkpt lat="46.28767" lon="6.15145">
        <ele>401.88</ele>
        <time>2014-09-05T08:45:24Z</time>
      </trkpt>
      <trkpt lat="46.28847" lon="6.15199">
        <ele>401.66</ele>
        <time>2014-09-05T08:45:38Z</time>
      </trkpt>
      <trkpt lat="46.2896" lon="6.15259">
        <ele>400.72</ele>
        <time>2014-09-05T08:45:56Z</time>
      </trkpt>
      <trkpt lat="46.2905" lon="6.15306">
        <ele>400.64</ele>
        <time>2014-09-05T08:46:11Z</time>
      </trkpt>
      <trkpt lat="46.29146" lon="6.15343">
        <ele>400.47</ele>
        <time>2014-09-05T08:46:26Z</time>
      </trkpt>
      <trkpt lat="46.29186" lon="6.15357">
        <ele>400.21</ele>
        <time>2014-09-05T08:46:33Z</time>
      </trkpt>
      <trkpt lat="46.29204" lon="6.15373">
        <ele>400.32</ele>
        <time>2014-09-05T08:46:37Z</time>
      </trkpt>
      <trkpt lat="46.29225" lon="6.15381">
        <ele>400.15</ele>
        <time>2014-09-05T08:46:41Z</time>
      </trkpt>
      <trkpt lat="46.29247" lon="6.15391">
        <ele>400.2</ele>
        <time>2014-09-05T08:46:45Z</time>
      </trkpt>
      <trkpt lat="46.2933" lon="6.15469">
        <ele>401.57</ele>
        <time>2014-09-05T08:47:02Z</time>
      </trkpt>
      <trkpt lat="46.2936" lon="6.15497">
        <ele>401.88</ele>
        <time>2014-09-05T08:47:08Z</time>
      </trkpt>
      <trkpt lat="46.29455" lon="6.1559">
        <ele>401.34</ele>
        <time>2014-09-05T08:47:27Z</time>
      </trkpt>
      <trkpt lat="46.29553" lon="6.15679">
        <ele>400.95</ele>
        <time>2014-09-05T08:47:45Z</time>
      </trkpt>
      <trkpt lat="46.29565" lon="6.15685">
        <ele>400.7</ele>
        <time>2014-09-05T08:47:47Z</time>
      </trkpt>
      <trkpt lat="46.2962" lon="6.15743">
        <ele>400.54</ele>
        <time>2014-09-05T08:48:00Z</time>
      </trkpt>
      <trkpt lat="46.29632" lon="6.15737">
        <ele>400.32</ele>
        <time>2014-09-05T08:48:04Z</time>
      </trkpt>
      <trkpt lat="46.29637" lon="6.15727">
        <ele>400.13</ele>
        <time>2014-09-05T08:48:06Z</time>
      </trkpt>
      <trkpt lat="46.29687" lon="6.15635">
        <ele>403.09</ele>
        <time>2014-09-05T08:48:23Z</time>
      </trkpt>
      <trkpt lat="46.29749" lon="6.15519">
        <ele>403.51</ele>
        <time>2014-09-05T08:48:44Z</time>
      </trkpt>
      <trkpt lat="46.29761" lon="6.15498">
        <ele>404.31</ele>
        <time>2014-09-05T08:48:48Z</time>
      </trkpt>
      <trkpt lat="46.29776" lon="6.1547">
        <ele>405.03</ele>
        <time>2014-09-05T08:48:54Z</time>
      </trkpt>
      <trkpt lat="46.29788" lon="6.15448">
        <ele>405.56</ele>
        <time>2014-09-05T08:48:59Z</time>
      </trkpt>
      <trkpt lat="46.29794" lon="6.15453">
        <ele>405.64</ele>
        <time>2014-09-05T08:49:03Z</time>
      </trkpt>
      <trkpt lat="46.29802" lon="6.15463">
        <ele>405.49</ele>
        <time>2014-09-05T08:49:06Z</time>
      </trkpt>
      <trkpt lat="46.29864" lon="6.15532">
        <ele>404.47</ele>
        <time>2014-09-05T08:49:20Z</time>
      </trkpt>
      <trkpt lat="46.2989" lon="6.15568">
        <ele>403.78</ele>
        <time>2014-09-05T08:49:26Z</time>
      </trkpt>
      <trkpt lat="46.29911" lon="6.15597">
        <ele>403.79</ele>
        <time>2014-09-05T08:49:31Z</time>
      </trkpt>
      <trkpt lat="46.2992" lon="6.15615">
        <ele>403.81</ele>
        <time>2014-09-05T08:49:34Z</time>
      </trkpt>
      <trkpt lat="46.29934" lon="6.15648">
        <ele>403.26</ele>
        <time>2014-09-05T08:49:39Z</time>
      </trkpt>
      <trkpt lat="46.29941" lon="6.1566">
        <ele>403.3</ele>
        <time>2014-09-05T08:49:41Z</time>
      </trkpt>
      <trkpt lat="46.29947" lon="6.15674">
        <ele>403.27</ele>
        <time>2014-09-05T08:49:43Z</time>
      </trkpt>
      <trkpt lat="46.29961" lon="6.15703">
        <ele>403.52</ele>
        <time>2014-09-05T08:49:48Z</time>
      </trkpt>
      <trkpt lat="46.2997" lon="6.1572">
        <ele>403.79</ele>
        <time>2014-09-05T08:49:51Z</time>
      </trkpt>
      <trkpt lat="46.29984" lon="6.15746">
        <ele>404.46</ele>
        <time>2014-09-05T08:49:56Z</time>
      </trkpt>
      <trkpt lat="46.3" lon="6.15779">
        <ele>404.32</ele>
        <time>2014-09-05T08:50:02Z</time>
      </trkpt>
      <trkpt lat="46.30011" lon="6.15812">
        <ele>404.5</ele>
        <time>2014-09-05T08:50:08Z</time>
      </trkpt>
      <trkpt lat="46.30026" lon="6.15863">
        <ele>404.7</ele>
        <time>2014-09-05T08:50:15Z</time>
      </trkpt>
      <trkpt lat="46.30044" lon="6.15926">
        <ele>404.62</ele>
        <time>2014-09-05T08:50:23Z</time>
      </trkpt>
      <trkpt lat="46.30056" lon="6.15979">
        <ele>403.48</ele>
        <time>2014-09-05T08:50:30Z</time>
      </trkpt>
      <trkpt lat="46.3006" lon="6.15995">
        <ele>403.17</ele>
        <time>2014-09-05T08:50:32Z</time>
      </trkpt>
      <trkpt lat="46.30061" lon="6.16025">
        <ele>402.67</ele>
        <time>2014-09-05T08:50:36Z</time>
      </trkpt>
      <trkpt lat="46.30049" lon="6.16064">
        <ele>402.56</ele>
        <time>2014-09-05T08:50:41Z</time>
      </trkpt>
      <trkpt lat="46.30042" lon="6.16078">
        <ele>402.54</ele>
        <time>2014-09-05T08:50:43Z</time>
      </trkpt>
      <trkpt lat="46.30042" lon="6.16133">
        <ele>402.93</ele>
        <time>2014-09-05T08:50:51Z</time>
      </trkpt>
      <trkpt lat="46.3005" lon="6.16141">
        <ele>403.3</ele>
        <time>2014-09-05T08:50:53Z</time>
      </trkpt>
      <trkpt lat="46.30097" lon="6.16188">
        <ele>403.57</ele>
        <time>2014-09-05T08:51:03Z</time>
      </trkpt>
      <trkpt lat="46.30121" lon="6.16207">
        <ele>403.75</ele>
        <time>2014-09-05T08:51:08Z</time>
      </trkpt>
      <trkpt lat="46.30153" lon="6.16229">
        <ele>403.73</ele>
        <time>2014-09-05T08:51:14Z</time>
      </trkpt>
      <trkpt lat="46.30163" lon="6.16235">
        <ele>403.69</ele>
        <time>2014-09-05T08:51:16Z</time>
      </trkpt>
      <trkpt lat="46.30183" lon="6.16245">
        <ele>403.49</ele>
        <time>2014-09-05T08:51:20Z</time>
      </trkpt>
      <trkpt lat="46.30217" lon="6.16246">
        <ele>403.76</ele>
        <time>2014-09-05T08:51:27Z</time>
      </trkpt>
      <trkpt lat="46.30236" lon="6.16246">
        <ele>403.77</ele>
        <time>2014-09-05T08:51:31Z</time>
      </trkpt>
      <trkpt lat="46.30282" lon="6.16228">
        <ele>403.78</ele>
        <time>2014-09-05T08:51:44Z</time>
      </trkpt>
      <trkpt lat="46.30284" lon="6.16237">
        <ele>403.76</ele>
        <time>2014-09-05T08:52:05Z</time>
      </trkpt>
      <trkpt lat="46.30289" lon="6.16235">
        <ele>404.11</ele>
        <time>2014-09-05T08:52:49Z</time>
      </trkpt>
      <trkpt lat="46.30302" lon="6.16228">
        <ele>404.14</ele>
        <time>2014-09-05T08:53:04Z</time>
      </trkpt>
      <trkpt lat="46.30314" lon="6.16226">
        <ele>404.14</ele>
        <time>2014-09-05T08:53:07Z</time>
      </trkpt>
      <trkpt lat="46.30345" lon="6.16228">
        <ele>404.04</ele>
        <time>2014-09-05T08:53:13Z</time>
      </trkpt>
      <trkpt lat="46.30461" lon="6.16261">
        <ele>403.82</ele>
        <time>2014-09-05T08:53:32Z</time>
      </trkpt>
      <trkpt lat="46.30504" lon="6.16264">
        <ele>403.71</ele>
        <time>2014-09-05T08:53:40Z</time>
      </trkpt>
      <trkpt lat="46.30605" lon="6.16263">
        <ele>403.29</ele>
        <time>2014-09-05T08:53:57Z</time>
      </trkpt>
      <trkpt lat="46.30617" lon="6.16259">
        <ele>403.29</ele>
        <time>2014-09-05T08:53:59Z</time>
      </trkpt>
      <trkpt lat="46.30641" lon="6.1626">
        <ele>403.29</ele>
        <time>2014-09-05T08:54:03Z</time>
      </trkpt>
      <trkpt lat="46.30676" lon="6.16282">
        <ele>402.73</ele>
        <time>2014-09-05T08:54:09Z</time>
      </trkpt>
      <trkpt lat="46.30685" lon="6.16294">
        <ele>402.57</ele>
        <time>2014-09-05T08:54:11Z</time>
      </trkpt>
      <trkpt lat="46.30693" lon="6.16302">
        <ele>402.59</ele>
        <time>2014-09-05T08:54:13Z</time>
      </trkpt>
      <trkpt lat="46.3073" lon="6.16307">
        <ele>402.37</ele>
        <time>2014-09-05T08:54:20Z</time>
      </trkpt>
      <trkpt lat="46.30739" lon="6.16302">
        <ele>402.42</ele>
        <time>2014-09-05T08:54:22Z</time>
      </trkpt>
      <trkpt lat="46.30791" lon="6.16181">
        <ele>403.86</ele>
        <time>2014-09-05T08:54:40Z</time>
      </trkpt>
      <trkpt lat="46.30818" lon="6.16118">
        <ele>404.97</ele>
        <time>2014-09-05T08:54:49Z</time>
      </trkpt>
      <trkpt lat="46.30834" lon="6.16114">
        <ele>405.29</ele>
        <time>2014-09-05T08:54:54Z</time>
      </trkpt>
      <trkpt lat="46.30851" lon="6.16139">
        <ele>405.52</ele>
        <time>2014-09-05T08:54:59Z</time>
      </trkpt>
      <trkpt lat="46.30863" lon="6.16151">
        <ele>404.95</ele>
        <time>2014-09-05T08:55:02Z</time>
      </trkpt>
      <trkpt lat="46.30888" lon="6.16111">
        <ele>405.81</ele>
        <time>2014-09-05T08:55:12Z</time>
      </trkpt>
      <trkpt lat="46.30896" lon="6.16095">
        <ele>406.01</ele>
        <time>2014-09-05T08:55:15Z</time>
      </trkpt>
      <trkpt lat="46.30945" lon="6.15991">
        <ele>407.44</ele>
        <time>2014-09-05T08:55:32Z</time>
      </trkpt>
      <trkpt lat="46.30963" lon="6.15947">
        <ele>408.33</ele>
        <time>2014-09-05T08:55:40Z</time>
      </trkpt>
      <trkpt lat="46.30987" lon="6.1587">
        <ele>411.13</ele>
        <time>2014-09-05T08:55:54Z</time>
      </trkpt>
      <trkpt lat="46.30997" lon="6.15831">
        <ele>412.28</ele>
        <time>2014-09-05T08:56:01Z</time>
      </trkpt>
      <trkpt lat="46.31005" lon="6.15799">
        <ele>413.37</ele>
        <time>2014-09-05T08:56:07Z</time>
      </trkpt>
      <trkpt lat="46.31016" lon="6.15756">
        <ele>413.84</ele>
        <time>2014-09-05T08:56:15Z</time>
      </trkpt>
      <trkpt lat="46.31039" lon="6.15745">
        <ele>414.88</ele>
        <time>2014-09-05T08:56:22Z</time>
      </trkpt>
      <trkpt lat="46.31067" lon="6.15761">
        <ele>415.24</ele>
        <time>2014-09-05T08:56:29Z</time>
      </trkpt>
      <trkpt lat="46.31087" lon="6.15755">
        <ele>415.3</ele>
        <time>2014-09-05T08:56:34Z</time>
      </trkpt>
      <trkpt lat="46.31092" lon="6.15745">
        <ele>415.11</ele>
        <time>2014-09-05T08:56:36Z</time>
      </trkpt>
      <trkpt lat="46.31106" lon="6.15713">
        <ele>415.35</ele>
        <time>2014-09-05T08:56:42Z</time>
      </trkpt>
      <trkpt lat="46.3111" lon="6.15689">
        <ele>415.74</ele>
        <time>2014-09-05T08:56:46Z</time>
      </trkpt>
      <trkpt lat="46.31109" lon="6.15608">
        <ele>417.59</ele>
        <time>2014-09-05T08:57:00Z</time>
      </trkpt>
      <trkpt lat="46.31118" lon="6.15522">
        <ele>420.23</ele>
        <time>2014-09-05T08:57:16Z</time>
      </trkpt>
      <trkpt lat="46.31111" lon="6.1546">
        <ele>423.35</ele>
        <time>2014-09-05T08:57:29Z</time>
      </trkpt>
      <trkpt lat="46.31088" lon="6.15395">
        <ele>424.65</ele>
        <time>2014-09-05T08:57:43Z</time>
      </trkpt>
      <trkpt lat="46.31062" lon="6.15322">
        <ele>425.69</ele>
        <time>2014-09-05T08:57:58Z</time>
      </trkpt>
      <trkpt lat="46.31049" lon="6.15286">
        <ele>425.56</ele>
        <time>2014-09-05T08:58:05Z</time>
      </trkpt>
      <trkpt lat="46.31064" lon="6.15244">
        <ele>426.64</ele>
        <time>2014-09-05T08:58:14Z</time>
      </trkpt>
      <trkpt lat="46.31074" lon="6.15228">
        <ele>427.09</ele>
        <time>2014-09-05T08:58:18Z</time>
      </trkpt>
      <trkpt lat="46.31113" lon="6.1516">
        <ele>428.07</ele>
        <time>2014-09-05T08:58:34Z</time>
      </trkpt>
      <trkpt lat="46.31133" lon="6.15167">
        <ele>428.45</ele>
        <time>2014-09-05T08:58:40Z</time>
      </trkpt>
      <trkpt lat="46.31217" lon="6.15238">
        <ele>428.35</ele>
        <time>2014-09-05T08:59:00Z</time>
      </trkpt>
      <trkpt lat="46.31307" lon="6.15313">
        <ele>427.1</ele>
        <time>2014-09-05T08:59:17Z</time>
      </trkpt>
      <trkpt lat="46.31399" lon="6.1539">
        <ele>425.58</ele>
        <time>2014-09-05T08:59:35Z</time>
      </trkpt>
      <trkpt lat="46.31409" lon="6.15402">
        <ele>425.34</ele>
        <time>2014-09-05T08:59:39Z</time>
      </trkpt>
      <trkpt lat="46.31411" lon="6.15406">
        <ele>425.12</ele>
        <time>2014-09-05T08:59:40Z</time>
      </trkpt>
      <trkpt lat="46.31407" lon="6.15464">
        <ele>424.51</ele>
        <time>2014-09-05T08:59:48Z</time>
      </trkpt>
      <trkpt lat="46.31424" lon="6.15568">
        <ele>422.71</ele>
        <time>2014-09-05T09:00:00Z</time>
      </trkpt>
      <trkpt lat="46.31446" lon="6.15583">
        <ele>422.21</ele>
        <time>2014-09-05T09:00:05Z</time>
      </trkpt>
      <trkpt lat="46.31549" lon="6.15581">
        <ele>422.08</ele>
        <time>2014-09-05T09:00:23Z</time>
      </trkpt>
      <trkpt lat="46.3157" lon="6.15581">
        <ele>422.64</ele>
        <time>2014-09-05T09:00:27Z</time>
      </trkpt>
      <trkpt lat="46.31616" lon="6.1558">
        <ele>424.61</ele>
        <time>2014-09-05T09:00:37Z</time>
      </trkpt>
      <trkpt lat="46.31657" lon="6.15579">
        <ele>427.25</ele>
        <time>2014-09-05T09:00:48Z</time>
      </trkpt>
      <trkpt lat="46.31675" lon="6.15578">
        <ele>428.58</ele>
        <time>2014-09-05T09:00:53Z</time>
      </trkpt>
      <trkpt lat="46.31754" lon="6.15575">
        <ele>430.51</ele>
        <time>2014-09-05T09:01:13Z</time>
      </trkpt>
      <trkpt lat="46.3177" lon="6.15575">
        <ele>430.78</ele>
        <time>2014-09-05T09:01:17Z</time>
      </trkpt>
      <trkpt lat="46.31791" lon="6.15574">
        <ele>431.32</ele>
        <time>2014-09-05T09:01:22Z</time>
      </trkpt>
      <trkpt lat="46.31887" lon="6.15571">
        <ele>431.43</ele>
        <time>2014-09-05T09:01:42Z</time>
      </trkpt>
      <trkpt lat="46.31987" lon="6.15568">
        <ele>432.66</ele>
        <time>2014-09-05T09:02:02Z</time>
      </trkpt>
      <trkpt lat="46.32041" lon="6.15567">
        <ele>432.86</ele>
        <time>2014-09-05T09:02:13Z</time>
      </trkpt>
      <trkpt lat="46.3213" lon="6.15563">
        <ele>433.67</ele>
        <time>2014-09-05T09:02:31Z</time>
      </trkpt>
      <trkpt lat="46.32203" lon="6.15562">
        <ele>433.11</ele>
        <time>2014-09-05T09:02:47Z</time>
      </trkpt>
      <trkpt lat="46.32212" lon="6.15518">
        <ele>433.44</ele>
        <time>2014-09-05T09:02:56Z</time>
      </trkpt>
      <trkpt lat="46.32228" lon="6.15375">
        <ele>434.75</ele>
        <time>2014-09-05T09:03:16Z</time>
      </trkpt>
      <trkpt lat="46.32236" lon="6.1528">
        <ele>435.85</ele>
        <time>2014-09-05T09:03:30Z</time>
      </trkpt>
      <trkpt lat="46.32254" lon="6.1527">
        <ele>436.76</ele>
        <time>2014-09-05T09:03:36Z</time>
      </trkpt>
      <trkpt lat="46.32323" lon="6.15325">
        <ele>436.86</ele>
        <time>2014-09-05T09:03:54Z</time>
      </trkpt>
      <trkpt lat="46.32418" lon="6.15398">
        <ele>437.25</ele>
        <time>2014-09-05T09:04:14Z</time>
      </trkpt>
      <trkpt lat="46.32482" lon="6.15448">
        <ele>438.04</ele>
        <time>2014-09-05T09:04:28Z</time>
      </trkpt>
      <trkpt lat="46.32548" lon="6.155">
        <ele>438.45</ele>
        <time>2014-09-05T09:04:42Z</time>
      </trkpt>
      <trkpt lat="46.32597" lon="6.15537">
        <ele>439.02</ele>
        <time>2014-09-05T09:04:53Z</time>
      </trkpt>
      <trkpt lat="46.3267" lon="6.15587">
        <ele>439.65</ele>
        <time>2014-09-05T09:05:09Z</time>
      </trkpt>
      <trkpt lat="46.3272" lon="6.1562">
        <ele>440.25</ele>
        <time>2014-09-05T09:05:20Z</time>
      </trkpt>
      <trkpt lat="46.32738" lon="6.1561">
        <ele>440.48</ele>
        <time>2014-09-05T09:05:25Z</time>
      </trkpt>
      <trkpt lat="46.32762" lon="6.15562">
        <ele>442.27</ele>
        <time>2014-09-05T09:05:37Z</time>
      </trkpt>
      <trkpt lat="46.328" lon="6.15494">
        <ele>444.17</ele>
        <time>2014-09-05T09:05:54Z</time>
      </trkpt>
      <trkpt lat="46.32823" lon="6.15452">
        <ele>445.34</ele>
        <time>2014-09-05T09:06:06Z</time>
      </trkpt>
      <trkpt lat="46.32844" lon="6.154">
        <ele>447.21</ele>
        <time>2014-09-05T09:06:20Z</time>
      </trkpt>
      <trkpt lat="46.32854" lon="6.15383">
        <ele>448.7</ele>
        <time>2014-09-05T09:06:31Z</time>
      </trkpt>
      <trkpt lat="46.32856" lon="6.15385">
        <ele>448.75</ele>
        <time>2014-09-05T09:07:08Z</time>
      </trkpt>
      <trkpt lat="46.32856" lon="6.15386">
        <ele>448.59</ele>
        <time>2014-09-05T09:07:32Z</time>
      </trkpt>
      <trkpt lat="46.32888" lon="6.15408">
        <ele>448.65</ele>
        <time>2014-09-05T09:07:43Z</time>
      </trkpt>
      <trkpt lat="46.32972" lon="6.15479">
        <ele>447.34</ele>
        <time>2014-09-05T09:08:00Z</time>
      </trkpt>
      <trkpt lat="46.33046" lon="6.15548">
        <ele>446.99</ele>
        <time>2014-09-05T09:08:15Z</time>
      </trkpt>
      <trkpt lat="46.33067" lon="6.15587">
        <ele>445.13</ele>
        <time>2014-09-05T09:08:23Z</time>
      </trkpt>
      <trkpt lat="46.3308" lon="6.15574">
        <ele>444.65</ele>
        <time>2014-09-05T09:08:28Z</time>
      </trkpt>
      <trkpt lat="46.3309" lon="6.15556">
        <ele>444.72</ele>
        <time>2014-09-05T09:08:32Z</time>
      </trkpt>
      <trkpt lat="46.33095" lon="6.15545">
        <ele>445.03</ele>
        <time>2014-09-05T09:08:34Z</time>
      </trkpt>
      <trkpt lat="46.331" lon="6.15518">
        <ele>445.83</ele>
        <time>2014-09-05T09:08:38Z</time>
      </trkpt>
      <trkpt lat="46.33112" lon="6.1549">
        <ele>446.67</ele>
        <time>2014-09-05T09:08:43Z</time>
      </trkpt>
      <trkpt lat="46.33158" lon="6.15404">
        <ele>448.81</ele>
        <time>2014-09-05T09:09:00Z</time>
      </trkpt>
      <trkpt lat="46.33169" lon="6.15379">
        <ele>449.53</ele>
        <time>2014-09-05T09:09:05Z</time>
      </trkpt>
      <trkpt lat="46.33177" lon="6.15364">
        <ele>450.19</ele>
        <time>2014-09-05T09:09:08Z</time>
      </trkpt>
      <trkpt lat="46.33203" lon="6.153">
        <ele>452.14</ele>
        <time>2014-09-05T09:09:21Z</time>
      </trkpt>
      <trkpt lat="46.33223" lon="6.15252">
        <ele>453.35</ele>
        <time>2014-09-05T09:09:31Z</time>
      </trkpt>
      <trkpt lat="46.33225" lon="6.15246">
        <ele>453.5</ele>
        <time>2014-09-05T09:09:32Z</time>
      </trkpt>
      <trkpt lat="46.33239" lon="6.15213">
        <ele>453.47</ele>
        <time>2014-09-05T09:09:38Z</time>
      </trkpt>
      <trkpt lat="46.33261" lon="6.15153">
        <ele>454.67</ele>
        <time>2014-09-05T09:09:49Z</time>
      </trkpt>
      <trkpt lat="46.33267" lon="6.15135">
        <ele>454.77</ele>
        <time>2014-09-05T09:09:52Z</time>
      </trkpt>
      <trkpt lat="46.33281" lon="6.15102">
        <ele>455.33</ele>
        <time>2014-09-05T09:09:58Z</time>
      </trkpt>
      <trkpt lat="46.33294" lon="6.15075">
        <ele>455.33</ele>
        <time>2014-09-05T09:10:03Z</time>
      </trkpt>
      <trkpt lat="46.333" lon="6.15065">
        <ele>455.27</ele>
        <time>2014-09-05T09:10:05Z</time>
      </trkpt>
      <trkpt lat="46.33372" lon="6.14995">
        <ele>455.96</ele>
        <time>2014-09-05T09:10:21Z</time>
      </trkpt>
      <trkpt lat="46.33424" lon="6.14941">
        <ele>456.32</ele>
        <time>2014-09-05T09:10:34Z</time>
      </trkpt>
      <trkpt lat="46.33432" lon="6.14934">
        <ele>456.41</ele>
        <time>2014-09-05T09:10:36Z</time>
      </trkpt>
      <trkpt lat="46.33445" lon="6.14918">
        <ele>456.41</ele>
        <time>2014-09-05T09:10:40Z</time>
      </trkpt>
      <trkpt lat="46.33437" lon="6.14884">
        <ele>456</ele>
        <time>2014-09-05T09:10:46Z</time>
      </trkpt>
      <trkpt lat="46.33381" lon="6.14787">
        <ele>456.22</ele>
        <time>2014-09-05T09:11:01Z</time>
      </trkpt>
      <trkpt lat="46.33302" lon="6.14644">
        <ele>456.27</ele>
        <time>2014-09-05T09:11:22Z</time>
      </trkpt>
      <trkpt lat="46.33227" lon="6.14572">
        <ele>459.31</ele>
        <time>2014-09-05T09:11:40Z</time>
      </trkpt>
      <trkpt lat="46.33203" lon="6.14548">
        <ele>460.46</ele>
        <time>2014-09-05T09:11:46Z</time>
      </trkpt>
      <trkpt lat="46.33151" lon="6.14457">
        <ele>459.83</ele>
        <time>2014-09-05T09:12:01Z</time>
      </trkpt>
      <trkpt lat="46.33142" lon="6.14442">
        <ele>459.64</ele>
        <time>2014-09-05T09:12:03Z</time>
      </trkpt>
      <trkpt lat="46.33109" lon="6.14405">
        <ele>458.84</ele>
        <time>2014-09-05T09:12:09Z</time>
      </trkpt>
      <trkpt lat="46.32998" lon="6.14342">
        <ele>457.41</ele>
        <time>2014-09-05T09:12:27Z</time>
      </trkpt>
      <trkpt lat="46.32936" lon="6.14312">
        <ele>458.5</ele>
        <time>2014-09-05T09:12:38Z</time>
      </trkpt>
      <trkpt lat="46.32899" lon="6.14294">
        <ele>459.16</ele>
        <time>2014-09-05T09:12:45Z</time>
      </trkpt>
      <trkpt lat="46.32812" lon="6.1424">
        <ele>462.37</ele>
        <time>2014-09-05T09:13:04Z</time>
      </trkpt>
      <trkpt lat="46.32737" lon="6.14168">
        <ele>463.15</ele>
        <time>2014-09-05T09:13:22Z</time>
      </trkpt>
      <trkpt lat="46.32641" lon="6.14092">
        <ele>461.73</ele>
        <time>2014-09-05T09:13:39Z</time>
      </trkpt>
      <trkpt lat="46.32509" lon="6.14023">
        <ele>461.41</ele>
        <time>2014-09-05T09:14:00Z</time>
      </trkpt>
      <trkpt lat="46.32449" lon="6.13983">
        <ele>462.03</ele>
        <time>2014-09-05T09:14:10Z</time>
      </trkpt>
      <trkpt lat="46.32421" lon="6.13955">
        <ele>461.88</ele>
        <time>2014-09-05T09:14:15Z</time>
      </trkpt>
      <trkpt lat="46.32321" lon="6.13815">
        <ele>462.13</ele>
        <time>2014-09-05T09:14:36Z</time>
      </trkpt>
      <trkpt lat="46.32192" lon="6.13679">
        <ele>461.14</ele>
        <time>2014-09-05T09:14:59Z</time>
      </trkpt>
      <trkpt lat="46.32092" lon="6.1357">
        <ele>459.7</ele>
        <time>2014-09-05T09:15:17Z</time>
      </trkpt>
      <trkpt lat="46.32079" lon="6.13541">
        <ele>459.16</ele>
        <time>2014-09-05T09:15:21Z</time>
      </trkpt>
      <trkpt lat="46.32076" lon="6.13525">
        <ele>459.03</ele>
        <time>2014-09-05T09:15:23Z</time>
      </trkpt>
      <trkpt lat="46.32028" lon="6.13378">
        <ele>457.31</ele>
        <time>2014-09-05T09:15:43Z</time>
      </trkpt>
      <trkpt lat="46.31982" lon="6.13247">
        <ele>456.85</ele>
        <time>2014-09-05T09:15:59Z</time>
      </trkpt>
      <trkpt lat="46.31936" lon="6.13146">
        <ele>456.52</ele>
        <time>2014-09-05T09:16:12Z</time>
      </trkpt>
      <trkpt lat="46.31859" lon="6.1306">
        <ele>455.7</ele>
        <time>2014-09-05T09:16:28Z</time>
      </trkpt>
      <trkpt lat="46.31803" lon="6.13013">
        <ele>455.25</ele>
        <time>2014-09-05T09:16:38Z</time>
      </trkpt>
      <trkpt lat="46.31758" lon="6.13005">
        <ele>454.2</ele>
        <time>2014-09-05T09:16:45Z</time>
      </trkpt>
      <trkpt lat="46.31643" lon="6.1298">
        <ele>453.2</ele>
        <time>2014-09-05T09:17:03Z</time>
      </trkpt>
      <trkpt lat="46.31637" lon="6.12978">
        <ele>452.98</ele>
        <time>2014-09-05T09:17:04Z</time>
      </trkpt>
      <trkpt lat="46.31607" lon="6.12949">
        <ele>452.92</ele>
        <time>2014-09-05T09:17:12Z</time>
      </trkpt>
      <trkpt lat="46.31552" lon="6.12892">
        <ele>452.67</ele>
        <time>2014-09-05T09:17:22Z</time>
      </trkpt>
      <trkpt lat="46.31544" lon="6.12826">
        <ele>452.26</ele>
        <time>2014-09-05T09:17:29Z</time>
      </trkpt>
      <trkpt lat="46.31599" lon="6.12636">
        <ele>450.34</ele>
        <time>2014-09-05T09:17:49Z</time>
      </trkpt>
      <trkpt lat="46.31602" lon="6.12626">
        <ele>450.07</ele>
        <time>2014-09-05T09:17:50Z</time>
      </trkpt>
      <trkpt lat="46.31592" lon="6.12548">
        <ele>449.01</ele>
        <time>2014-09-05T09:17:57Z</time>
      </trkpt>
      <trkpt lat="46.31569" lon="6.12511">
        <ele>447.51</ele>
        <time>2014-09-05T09:18:01Z</time>
      </trkpt>
      <trkpt lat="46.31447" lon="6.12377">
        <ele>445.26</ele>
        <time>2014-09-05T09:18:19Z</time>
      </trkpt>
      <trkpt lat="46.31369" lon="6.12267">
        <ele>444.56</ele>
        <time>2014-09-05T09:18:32Z</time>
      </trkpt>
      <trkpt lat="46.31364" lon="6.12259">
        <ele>444.6</ele>
        <time>2014-09-05T09:18:33Z</time>
      </trkpt>
      <trkpt lat="46.3127" lon="6.12127">
        <ele>444.85</ele>
        <time>2014-09-05T09:18:52Z</time>
      </trkpt>
      <trkpt lat="46.31263" lon="6.12122">
        <ele>444.72</ele>
        <time>2014-09-05T09:18:53Z</time>
      </trkpt>
      <trkpt lat="46.31256" lon="6.12117">
        <ele>444.6</ele>
        <time>2014-09-05T09:18:54Z</time>
      </trkpt>
      <trkpt lat="46.3117" lon="6.12072">
        <ele>441.63</ele>
        <time>2014-09-05T09:19:06Z</time>
      </trkpt>
      <trkpt lat="46.31165" lon="6.12066">
        <ele>441.26</ele>
        <time>2014-09-05T09:19:07Z</time>
      </trkpt>
      <trkpt lat="46.3116" lon="6.12058">
        <ele>440.8</ele>
        <time>2014-09-05T09:19:08Z</time>
      </trkpt>
      <trkpt lat="46.31158" lon="6.12048">
        <ele>440.27</ele>
        <time>2014-09-05T09:19:09Z</time>
      </trkpt>
      <trkpt lat="46.31157" lon="6.12037">
        <ele>439.69</ele>
        <time>2014-09-05T09:19:10Z</time>
      </trkpt>
      <trkpt lat="46.31159" lon="6.12027">
        <ele>439.19</ele>
        <time>2014-09-05T09:19:11Z</time>
      </trkpt>
      <trkpt lat="46.31163" lon="6.12017">
        <ele>438.92</ele>
        <time>2014-09-05T09:19:12Z</time>
      </trkpt>
      <trkpt lat="46.31167" lon="6.12008">
        <ele>438.78</ele>
        <time>2014-09-05T09:19:13Z</time>
      </trkpt>
      <trkpt lat="46.31171" lon="6.11999">
        <ele>438.71</ele>
        <time>2014-09-05T09:19:14Z</time>
      </trkpt>
      <trkpt lat="46.31231" lon="6.11903">
        <ele>439.76</ele>
        <time>2014-09-05T09:19:27Z</time>
      </trkpt>
      <trkpt lat="46.31243" lon="6.11892">
        <ele>440.56</ele>
        <time>2014-09-05T09:19:30Z</time>
      </trkpt>
      <trkpt lat="46.31246" lon="6.11887">
        <ele>440.92</ele>
        <time>2014-09-05T09:19:31Z</time>
      </trkpt>
      <trkpt lat="46.31246" lon="6.11881">
        <ele>441.3</ele>
        <time>2014-09-05T09:19:32Z</time>
      </trkpt>
      <trkpt lat="46.31246" lon="6.11876">
        <ele>441.6</ele>
        <time>2014-09-05T09:19:33Z</time>
      </trkpt>
      <trkpt lat="46.31243" lon="6.1187">
        <ele>441.86</ele>
        <time>2014-09-05T09:19:34Z</time>
      </trkpt>
      <trkpt lat="46.31241" lon="6.11865">
        <ele>442.19</ele>
        <time>2014-09-05T09:19:35Z</time>
      </trkpt>
      <trkpt lat="46.31237" lon="6.1186">
        <ele>442.58</ele>
        <time>2014-09-05T09:19:36Z</time>
      </trkpt>
      <trkpt lat="46.31227" lon="6.11843">
        <ele>443.64</ele>
        <time>2014-09-05T09:19:39Z</time>
      </trkpt>
      <trkpt lat="46.31224" lon="6.11837">
        <ele>443.9</ele>
        <time>2014-09-05T09:19:40Z</time>
      </trkpt>
      <trkpt lat="46.31187" lon="6.11766">
        <ele>446.05</ele>
        <time>2014-09-05T09:19:52Z</time>
      </trkpt>
      <trkpt lat="46.3116" lon="6.11727">
        <ele>446.43</ele>
        <time>2014-09-05T09:20:00Z</time>
      </trkpt>
      <trkpt lat="46.31112" lon="6.1164">
        <ele>446.09</ele>
        <time>2014-09-05T09:20:15Z</time>
      </trkpt>
      <trkpt lat="46.31104" lon="6.11623">
        <ele>445.72</ele>
        <time>2014-09-05T09:20:18Z</time>
      </trkpt>
      <trkpt lat="46.31101" lon="6.11617">
        <ele>445.63</ele>
        <time>2014-09-05T09:20:19Z</time>
      </trkpt>
      <trkpt lat="46.31089" lon="6.11599">
        <ele>445.68</ele>
        <time>2014-09-05T09:20:22Z</time>
      </trkpt>
      <trkpt lat="46.31085" lon="6.11594">
        <ele>445.62</ele>
        <time>2014-09-05T09:20:23Z</time>
      </trkpt>
      <trkpt lat="46.31079" lon="6.1159">
        <ele>445.58</ele>
        <time>2014-09-05T09:20:24Z</time>
      </trkpt>
      <trkpt lat="46.31002" lon="6.11531">
        <ele>443.96</ele>
        <time>2014-09-05T09:20:37Z</time>
      </trkpt>
      <trkpt lat="46.3092" lon="6.11409">
        <ele>442.08</ele>
        <time>2014-09-05T09:20:53Z</time>
      </trkpt>
      <trkpt lat="46.30867" lon="6.11322">
        <ele>440.95</ele>
        <time>2014-09-05T09:21:03Z</time>
      </trkpt>
      <trkpt lat="46.30863" lon="6.11312">
        <ele>440.84</ele>
        <time>2014-09-05T09:21:04Z</time>
      </trkpt>
      <trkpt lat="46.30839" lon="6.1125">
        <ele>440.98</ele>
        <time>2014-09-05T09:21:11Z</time>
      </trkpt>
      <trkpt lat="46.30758" lon="6.11138">
        <ele>441.59</ele>
        <time>2014-09-05T09:21:28Z</time>
      </trkpt>
      <trkpt lat="46.30741" lon="6.11121">
        <ele>441.72</ele>
        <time>2014-09-05T09:21:31Z</time>
      </trkpt>
      <trkpt lat="46.30735" lon="6.11117">
        <ele>441.72</ele>
        <time>2014-09-05T09:21:32Z</time>
      </trkpt>
      <trkpt lat="46.30642" lon="6.11071">
        <ele>442.83</ele>
        <time>2014-09-05T09:21:48Z</time>
      </trkpt>
      <trkpt lat="46.30586" lon="6.11034">
        <ele>443.75</ele>
        <time>2014-09-05T09:22:00Z</time>
      </trkpt>
      <trkpt lat="46.30564" lon="6.11022">
        <ele>443.46</ele>
        <time>2014-09-05T09:22:04Z</time>
      </trkpt>
      <trkpt lat="46.30554" lon="6.11013">
        <ele>443.01</ele>
        <time>2014-09-05T09:22:06Z</time>
      </trkpt>
      <trkpt lat="46.30546" lon="6.11002">
        <ele>442.87</ele>
        <time>2014-09-05T09:22:08Z</time>
      </trkpt>
      <trkpt lat="46.30543" lon="6.10995">
        <ele>442.84</ele>
        <time>2014-09-05T09:22:09Z</time>
      </trkpt>
      <trkpt lat="46.30542" lon="6.1098">
        <ele>442.67</ele>
        <time>2014-09-05T09:22:11Z</time>
      </trkpt>
      <trkpt lat="46.30544" lon="6.10974">
        <ele>442.62</ele>
        <time>2014-09-05T09:22:12Z</time>
      </trkpt>
      <trkpt lat="46.30547" lon="6.10969">
        <ele>442.59</ele>
        <time>2014-09-05T09:22:13Z</time>
      </trkpt>
      <trkpt lat="46.30551" lon="6.10964">
        <ele>442.57</ele>
        <time>2014-09-05T09:22:14Z</time>
      </trkpt>
      <trkpt lat="46.30555" lon="6.1096">
        <ele>442.57</ele>
        <time>2014-09-05T09:22:15Z</time>
      </trkpt>
      <trkpt lat="46.30568" lon="6.10944">
        <ele>443.7</ele>
        <time>2014-09-05T09:22:19Z</time>
      </trkpt>
      <trkpt lat="46.30571" lon="6.1094">
        <ele>444.03</ele>
        <time>2014-09-05T09:22:20Z</time>
      </trkpt>
      <trkpt lat="46.30589" lon="6.10916">
        <ele>445.97</ele>
        <time>2014-09-05T09:22:26Z</time>
      </trkpt>
      <trkpt lat="46.30598" lon="6.10903">
        <ele>446.93</ele>
        <time>2014-09-05T09:22:29Z</time>
      </trkpt>
      <trkpt lat="46.30646" lon="6.1084">
        <ele>449.12</ele>
        <time>2014-09-05T09:22:45Z</time>
      </trkpt>
      <trkpt lat="46.30652" lon="6.10832">
        <ele>449.39</ele>
        <time>2014-09-05T09:22:47Z</time>
      </trkpt>
      <trkpt lat="46.30655" lon="6.10828">
        <ele>449.57</ele>
        <time>2014-09-05T09:22:48Z</time>
      </trkpt>
      <trkpt lat="46.30658" lon="6.10824">
        <ele>449.75</ele>
        <time>2014-09-05T09:22:49Z</time>
      </trkpt>
      <trkpt lat="46.30661" lon="6.1082">
        <ele>449.75</ele>
        <time>2014-09-05T09:22:50Z</time>
      </trkpt>
      <trkpt lat="46.30665" lon="6.10816">
        <ele>449.85</ele>
        <time>2014-09-05T09:22:51Z</time>
      </trkpt>
      <trkpt lat="46.30668" lon="6.10813">
        <ele>449.89</ele>
        <time>2014-09-05T09:22:52Z</time>
      </trkpt>
      <trkpt lat="46.3067" lon="6.10809">
        <ele>449.92</ele>
        <time>2014-09-05T09:22:53Z</time>
      </trkpt>
      <trkpt lat="46.30673" lon="6.10804">
        <ele>450</ele>
        <time>2014-09-05T09:22:54Z</time>
      </trkpt>
      <trkpt lat="46.30676" lon="6.108">
        <ele>449.97</ele>
        <time>2014-09-05T09:22:55Z</time>
      </trkpt>
      <trkpt lat="46.30683" lon="6.10783">
        <ele>450.03</ele>
        <time>2014-09-05T09:22:58Z</time>
      </trkpt>
      <trkpt lat="46.30684" lon="6.10776">
        <ele>450.05</ele>
        <time>2014-09-05T09:22:59Z</time>
      </trkpt>
      <trkpt lat="46.30684" lon="6.1077">
        <ele>450.06</ele>
        <time>2014-09-05T09:23:00Z</time>
      </trkpt>
      <trkpt lat="46.30684" lon="6.10764">
        <ele>450</ele>
        <time>2014-09-05T09:23:01Z</time>
      </trkpt>
      <trkpt lat="46.30683" lon="6.10759">
        <ele>450</ele>
        <time>2014-09-05T09:23:02Z</time>
      </trkpt>
      <trkpt lat="46.30681" lon="6.10753">
        <ele>450.01</ele>
        <time>2014-09-05T09:23:03Z</time>
      </trkpt>
      <trkpt lat="46.30679" lon="6.10747">
        <ele>449.98</ele>
        <time>2014-09-05T09:23:04Z</time>
      </trkpt>
      <trkpt lat="46.30677" lon="6.10742">
        <ele>449.98</ele>
        <time>2014-09-05T09:23:05Z</time>
      </trkpt>
      <trkpt lat="46.30674" lon="6.10736">
        <ele>449.86</ele>
        <time>2014-09-05T09:23:06Z</time>
      </trkpt>
      <trkpt lat="46.30636" lon="6.10648">
        <ele>450.71</ele>
        <time>2014-09-05T09:23:22Z</time>
      </trkpt>
      <trkpt lat="46.30604" lon="6.10537">
        <ele>451.82</ele>
        <time>2014-09-05T09:23:40Z</time>
      </trkpt>
      <trkpt lat="46.30575" lon="6.10442">
        <ele>453.21</ele>
        <time>2014-09-05T09:23:55Z</time>
      </trkpt>
      <trkpt lat="46.30534" lon="6.1035">
        <ele>454.21</ele>
        <time>2014-09-05T09:24:10Z</time>
      </trkpt>
      <trkpt lat="46.30476" lon="6.10241">
        <ele>455.29</ele>
        <time>2014-09-05T09:24:29Z</time>
      </trkpt>
      <trkpt lat="46.3043" lon="6.10165">
        <ele>454.07</ele>
        <time>2014-09-05T09:24:41Z</time>
      </trkpt>
      <trkpt lat="46.30427" lon="6.10157">
        <ele>453.83</ele>
        <time>2014-09-05T09:24:42Z</time>
      </trkpt>
      <trkpt lat="46.30426" lon="6.10148">
        <ele>453.62</ele>
        <time>2014-09-05T09:24:43Z</time>
      </trkpt>
      <trkpt lat="46.30425" lon="6.1014">
        <ele>453.41</ele>
        <time>2014-09-05T09:24:44Z</time>
      </trkpt>
      <trkpt lat="46.30427" lon="6.10122">
        <ele>453.34</ele>
        <time>2014-09-05T09:24:46Z</time>
      </trkpt>
      <trkpt lat="46.30429" lon="6.10114">
        <ele>453.34</ele>
        <time>2014-09-05T09:24:47Z</time>
      </trkpt>
      <trkpt lat="46.30437" lon="6.10081">
        <ele>453.21</ele>
        <time>2014-09-05T09:24:51Z</time>
      </trkpt>
      <trkpt lat="46.30437" lon="6.10073">
        <ele>453.25</ele>
        <time>2014-09-05T09:24:52Z</time>
      </trkpt>
      <trkpt lat="46.30437" lon="6.10064">
        <ele>453.22</ele>
        <time>2014-09-05T09:24:53Z</time>
      </trkpt>
      <trkpt lat="46.30433" lon="6.10049">
        <ele>453.21</ele>
        <time>2014-09-05T09:24:55Z</time>
      </trkpt>
      <trkpt lat="46.30423" lon="6.10028">
        <ele>453.3</ele>
        <time>2014-09-05T09:24:58Z</time>
      </trkpt>
      <trkpt lat="46.30416" lon="6.10015">
        <ele>453.49</ele>
        <time>2014-09-05T09:25:00Z</time>
      </trkpt>
      <trkpt lat="46.30412" lon="6.10008">
        <ele>453.63</ele>
        <time>2014-09-05T09:25:01Z</time>
      </trkpt>
      <trkpt lat="46.30406" lon="6.09996">
        <ele>454</ele>
        <time>2014-09-05T09:25:03Z</time>
      </trkpt>
      <trkpt lat="46.30403" lon="6.09989">
        <ele>454.3</ele>
        <time>2014-09-05T09:25:04Z</time>
      </trkpt>
      <trkpt lat="46.30401" lon="6.09982">
        <ele>454.45</ele>
        <time>2014-09-05T09:25:05Z</time>
      </trkpt>
      <trkpt lat="46.304" lon="6.09974">
        <ele>454.57</ele>
        <time>2014-09-05T09:25:06Z</time>
      </trkpt>
      <trkpt lat="46.304" lon="6.09966">
        <ele>454.74</ele>
        <time>2014-09-05T09:25:07Z</time>
      </trkpt>
      <trkpt lat="46.30401" lon="6.09958">
        <ele>454.82</ele>
        <time>2014-09-05T09:25:08Z</time>
      </trkpt>
      <trkpt lat="46.30404" lon="6.09946">
        <ele>454.74</ele>
        <time>2014-09-05T09:25:10Z</time>
      </trkpt>
      <trkpt lat="46.30406" lon="6.0994">
        <ele>454.73</ele>
        <time>2014-09-05T09:25:11Z</time>
      </trkpt>
      <trkpt lat="46.30428" lon="6.09888">
        <ele>457.83</ele>
        <time>2014-09-05T09:25:22Z</time>
      </trkpt>
      <trkpt lat="46.30447" lon="6.09839">
        <ele>458.96</ele>
        <time>2014-09-05T09:25:35Z</time>
      </trkpt>
      <trkpt lat="46.30447" lon="6.09833">
        <ele>459.19</ele>
        <time>2014-09-05T09:25:37Z</time>
      </trkpt>
      <trkpt lat="46.30446" lon="6.09829">
        <ele>459.08</ele>
        <time>2014-09-05T09:25:38Z</time>
      </trkpt>
      <trkpt lat="46.30445" lon="6.09826">
        <ele>459.14</ele>
        <time>2014-09-05T09:25:39Z</time>
      </trkpt>
      <trkpt lat="46.30443" lon="6.09822">
        <ele>459.17</ele>
        <time>2014-09-05T09:25:40Z</time>
      </trkpt>
      <trkpt lat="46.3044" lon="6.09818">
        <ele>459.14</ele>
        <time>2014-09-05T09:25:41Z</time>
      </trkpt>
      <trkpt lat="46.30437" lon="6.09813">
        <ele>459.13</ele>
        <time>2014-09-05T09:25:42Z</time>
      </trkpt>
      <trkpt lat="46.30433" lon="6.09809">
        <ele>458.99</ele>
        <time>2014-09-05T09:25:43Z</time>
      </trkpt>
      <trkpt lat="46.3043" lon="6.09805">
        <ele>458.93</ele>
        <time>2014-09-05T09:25:44Z</time>
      </trkpt>
      <trkpt lat="46.30426" lon="6.09801">
        <ele>458.83</ele>
        <time>2014-09-05T09:25:45Z</time>
      </trkpt>
      <trkpt lat="46.30422" lon="6.09796">
        <ele>458.72</ele>
        <time>2014-09-05T09:25:46Z</time>
      </trkpt>
      <trkpt lat="46.30418" lon="6.09792">
        <ele>458.56</ele>
        <time>2014-09-05T09:25:47Z</time>
      </trkpt>
      <trkpt lat="46.30401" lon="6.09775">
        <ele>458.37</ele>
        <time>2014-09-05T09:25:51Z</time>
      </trkpt>
      <trkpt lat="46.30365" lon="6.09737">
        <ele>458.11</ele>
        <time>2014-09-05T09:25:59Z</time>
      </trkpt>
      <trkpt lat="46.30324" lon="6.09675">
        <ele>458.89</ele>
        <time>2014-09-05T09:26:12Z</time>
      </trkpt>
      <trkpt lat="46.30327" lon="6.09667">
        <ele>458.96</ele>
        <time>2014-09-05T09:26:14Z</time>
      </trkpt>
      <trkpt lat="46.30337" lon="6.09644">
        <ele>458.85</ele>
        <time>2014-09-05T09:26:18Z</time>
      </trkpt>
      <trkpt lat="46.30339" lon="6.09638">
        <ele>458.77</ele>
        <time>2014-09-05T09:26:19Z</time>
      </trkpt>
      <trkpt lat="46.30341" lon="6.09631">
        <ele>458.68</ele>
        <time>2014-09-05T09:26:20Z</time>
      </trkpt>
      <trkpt lat="46.30343" lon="6.09624">
        <ele>458.62</ele>
        <time>2014-09-05T09:26:21Z</time>
      </trkpt>
      <trkpt lat="46.30351" lon="6.0959">
        <ele>458.71</ele>
        <time>2014-09-05T09:26:26Z</time>
      </trkpt>
      <trkpt lat="46.30353" lon="6.09569">
        <ele>458.76</ele>
        <time>2014-09-05T09:26:29Z</time>
      </trkpt>
      <trkpt lat="46.30354" lon="6.09518">
        <ele>459.22</ele>
        <time>2014-09-05T09:26:36Z</time>
      </trkpt>
      <trkpt lat="46.30356" lon="6.09511">
        <ele>459.25</ele>
        <time>2014-09-05T09:26:37Z</time>
      </trkpt>
      <trkpt lat="46.30361" lon="6.09498">
        <ele>459.23</ele>
        <time>2014-09-05T09:26:39Z</time>
      </trkpt>
      <trkpt lat="46.30377" lon="6.09462">
        <ele>459.45</ele>
        <time>2014-09-05T09:26:45Z</time>
      </trkpt>
      <trkpt lat="46.30379" lon="6.09456">
        <ele>459.69</ele>
        <time>2014-09-05T09:26:46Z</time>
      </trkpt>
      <trkpt lat="46.3038" lon="6.09449">
        <ele>459.94</ele>
        <time>2014-09-05T09:26:47Z</time>
      </trkpt>
      <trkpt lat="46.3038" lon="6.09442">
        <ele>460.13</ele>
        <time>2014-09-05T09:26:48Z</time>
      </trkpt>
      <trkpt lat="46.30379" lon="6.09436">
        <ele>460.29</ele>
        <time>2014-09-05T09:26:49Z</time>
      </trkpt>
      <trkpt lat="46.30378" lon="6.0943">
        <ele>460.46</ele>
        <time>2014-09-05T09:26:50Z</time>
      </trkpt>
      <trkpt lat="46.30376" lon="6.09424">
        <ele>460.69</ele>
        <time>2014-09-05T09:26:51Z</time>
      </trkpt>
      <trkpt lat="46.30372" lon="6.09413">
        <ele>461.03</ele>
        <time>2014-09-05T09:26:53Z</time>
      </trkpt>
      <trkpt lat="46.30369" lon="6.09408">
        <ele>461.14</ele>
        <time>2014-09-05T09:26:54Z</time>
      </trkpt>
      <trkpt lat="46.30366" lon="6.09404">
        <ele>461.31</ele>
        <time>2014-09-05T09:26:55Z</time>
      </trkpt>
      <trkpt lat="46.30363" lon="6.09399">
        <ele>461.54</ele>
        <time>2014-09-05T09:26:56Z</time>
      </trkpt>
      <trkpt lat="46.30357" lon="6.0939">
        <ele>461.78</ele>
        <time>2014-09-05T09:26:58Z</time>
      </trkpt>
      <trkpt lat="46.30307" lon="6.0932">
        <ele>461.72</ele>
        <time>2014-09-05T09:27:12Z</time>
      </trkpt>
      <trkpt lat="46.30304" lon="6.09313">
        <ele>461.6</ele>
        <time>2014-09-05T09:27:13Z</time>
      </trkpt>
      <trkpt lat="46.30302" lon="6.09307">
        <ele>461.55</ele>
        <time>2014-09-05T09:27:14Z</time>
      </trkpt>
      <trkpt lat="46.30297" lon="6.09269">
        <ele>461.89</ele>
        <time>2014-09-05T09:27:20Z</time>
      </trkpt>
      <trkpt lat="46.30297" lon="6.09262">
        <ele>461.92</ele>
        <time>2014-09-05T09:27:21Z</time>
      </trkpt>
      <trkpt lat="46.30298" lon="6.09256">
        <ele>462.03</ele>
        <time>2014-09-05T09:27:22Z</time>
      </trkpt>
      <trkpt lat="46.30298" lon="6.09249">
        <ele>462.15</ele>
        <time>2014-09-05T09:27:23Z</time>
      </trkpt>
      <trkpt lat="46.303" lon="6.09243">
        <ele>462.31</ele>
        <time>2014-09-05T09:27:24Z</time>
      </trkpt>
      <trkpt lat="46.30302" lon="6.09237">
        <ele>462.49</ele>
        <time>2014-09-05T09:27:25Z</time>
      </trkpt>
      <trkpt lat="46.30304" lon="6.09231">
        <ele>462.61</ele>
        <time>2014-09-05T09:27:26Z</time>
      </trkpt>
      <trkpt lat="46.30352" lon="6.09146">
        <ele>463.79</ele>
        <time>2014-09-05T09:27:42Z</time>
      </trkpt>
      <trkpt lat="46.30381" lon="6.09085">
        <ele>465.36</ele>
        <time>2014-09-05T09:27:53Z</time>
      </trkpt>
      <trkpt lat="46.30384" lon="6.09079">
        <ele>465.48</ele>
        <time>2014-09-05T09:27:54Z</time>
      </trkpt>
      <trkpt lat="46.30406" lon="6.0903">
        <ele>465.56</ele>
        <time>2014-09-05T09:28:02Z</time>
      </trkpt>
      <trkpt lat="46.30406" lon="6.09023">
        <ele>465.81</ele>
        <time>2014-09-05T09:28:03Z</time>
      </trkpt>
      <trkpt lat="46.30405" lon="6.09017">
        <ele>465.81</ele>
        <time>2014-09-05T09:28:04Z</time>
      </trkpt>
      <trkpt lat="46.30402" lon="6.0901">
        <ele>466.07</ele>
        <time>2014-09-05T09:28:05Z</time>
      </trkpt>
      <trkpt lat="46.30399" lon="6.09004">
        <ele>466.14</ele>
        <time>2014-09-05T09:28:06Z</time>
      </trkpt>
      <trkpt lat="46.30396" lon="6.08998">
        <ele>466.14</ele>
        <time>2014-09-05T09:28:07Z</time>
      </trkpt>
      <trkpt lat="46.30348" lon="6.08917">
        <ele>464.97</ele>
        <time>2014-09-05T09:28:20Z</time>
      </trkpt>
      <trkpt lat="46.30345" lon="6.08909">
        <ele>465</ele>
        <time>2014-09-05T09:28:21Z</time>
      </trkpt>
      <trkpt lat="46.30343" lon="6.08901">
        <ele>465.01</ele>
        <time>2014-09-05T09:28:22Z</time>
      </trkpt>
      <trkpt lat="46.30342" lon="6.08893">
        <ele>465.02</ele>
        <time>2014-09-05T09:28:23Z</time>
      </trkpt>
      <trkpt lat="46.30341" lon="6.08884">
        <ele>465.02</ele>
        <time>2014-09-05T09:28:24Z</time>
      </trkpt>
      <trkpt lat="46.3034" lon="6.08875">
        <ele>465.06</ele>
        <time>2014-09-05T09:28:25Z</time>
      </trkpt>
      <trkpt lat="46.3034" lon="6.08867">
        <ele>465.07</ele>
        <time>2014-09-05T09:28:26Z</time>
      </trkpt>
      <trkpt lat="46.30348" lon="6.08723">
        <ele>464.83</ele>
        <time>2014-09-05T09:28:43Z</time>
      </trkpt>
      <trkpt lat="46.30357" lon="6.08585">
        <ele>466.52</ele>
        <time>2014-09-05T09:29:00Z</time>
      </trkpt>
      <trkpt lat="46.30358" lon="6.08453">
        <ele>467.77</ele>
        <time>2014-09-05T09:29:17Z</time>
      </trkpt>
      <trkpt lat="46.30346" lon="6.08393">
        <ele>468.31</ele>
        <time>2014-09-05T09:29:25Z</time>
      </trkpt>
      <trkpt lat="46.3032" lon="6.0828">
        <ele>469.88</ele>
        <time>2014-09-05T09:29:41Z</time>
      </trkpt>
      <trkpt lat="46.30308" lon="6.08255">
        <ele>470.27</ele>
        <time>2014-09-05T09:29:45Z</time>
      </trkpt>
      <trkpt lat="46.30243" lon="6.08151">
        <ele>471.01</ele>
        <time>2014-09-05T09:30:03Z</time>
      </trkpt>
      <trkpt lat="46.30162" lon="6.08025">
        <ele>469.35</ele>
        <time>2014-09-05T09:30:23Z</time>
      </trkpt>
      <trkpt lat="46.3008" lon="6.07892">
        <ele>468.82</ele>
        <time>2014-09-05T09:30:43Z</time>
      </trkpt>
      <trkpt lat="46.29998" lon="6.07778">
        <ele>468.13</ele>
        <time>2014-09-05T09:31:01Z</time>
      </trkpt>
      <trkpt lat="46.29941" lon="6.07705">
        <ele>467.77</ele>
        <time>2014-09-05T09:31:15Z</time>
      </trkpt>
      <trkpt lat="46.29937" lon="6.077">
        <ele>467.7</ele>
        <time>2014-09-05T09:31:16Z</time>
      </trkpt>
      <trkpt lat="46.29932" lon="6.07696">
        <ele>467.64</ele>
        <time>2014-09-05T09:31:17Z</time>
      </trkpt>
      <trkpt lat="46.29886" lon="6.07651">
        <ele>466.88</ele>
        <time>2014-09-05T09:31:26Z</time>
      </trkpt>
      <trkpt lat="46.29824" lon="6.07557">
        <ele>466.39</ele>
        <time>2014-09-05T09:31:42Z</time>
      </trkpt>
      <trkpt lat="46.29766" lon="6.07475">
        <ele>465.62</ele>
        <time>2014-09-05T09:31:58Z</time>
      </trkpt>
      <trkpt lat="46.2976" lon="6.07466">
        <ele>465.52</ele>
        <time>2014-09-05T09:32:00Z</time>
      </trkpt>
      <trkpt lat="46.29757" lon="6.07461">
        <ele>465.44</ele>
        <time>2014-09-05T09:32:01Z</time>
      </trkpt>
      <trkpt lat="46.29754" lon="6.07457">
        <ele>465.44</ele>
        <time>2014-09-05T09:32:02Z</time>
      </trkpt>
      <trkpt lat="46.29752" lon="6.07453">
        <ele>465.44</ele>
        <time>2014-09-05T09:32:03Z</time>
      </trkpt>
      <trkpt lat="46.29749" lon="6.07448">
        <ele>465.36</ele>
        <time>2014-09-05T09:32:04Z</time>
      </trkpt>
      <trkpt lat="46.29748" lon="6.07443">
        <ele>465.4</ele>
        <time>2014-09-05T09:32:05Z</time>
      </trkpt>
      <trkpt lat="46.29739" lon="6.07421">
        <ele>465.72</ele>
        <time>2014-09-05T09:32:12Z</time>
      </trkpt>
      <trkpt lat="46.2972" lon="6.0741">
        <ele>465.68</ele>
        <time>2014-09-05T09:32:22Z</time>
      </trkpt>
      <trkpt lat="46.29714" lon="6.07402">
        <ele>465.52</ele>
        <time>2014-09-05T09:32:24Z</time>
      </trkpt>
      <trkpt lat="46.29711" lon="6.07397">
        <ele>465.41</ele>
        <time>2014-09-05T09:32:25Z</time>
      </trkpt>
      <trkpt lat="46.29707" lon="6.07393">
        <ele>465.32</ele>
        <time>2014-09-05T09:32:26Z</time>
      </trkpt>
      <trkpt lat="46.29704" lon="6.07388">
        <ele>465.34</ele>
        <time>2014-09-05T09:32:27Z</time>
      </trkpt>
      <trkpt lat="46.297" lon="6.07384">
        <ele>465.34</ele>
        <time>2014-09-05T09:32:28Z</time>
      </trkpt>
      <trkpt lat="46.29693" lon="6.07375">
        <ele>465.31</ele>
        <time>2014-09-05T09:32:30Z</time>
      </trkpt>
      <trkpt lat="46.29689" lon="6.07372">
        <ele>465.37</ele>
        <time>2014-09-05T09:32:31Z</time>
      </trkpt>
      <trkpt lat="46.29682" lon="6.07366">
        <ele>465.29</ele>
        <time>2014-09-05T09:32:33Z</time>
      </trkpt>
      <trkpt lat="46.29679" lon="6.07361">
        <ele>465.27</ele>
        <time>2014-09-05T09:32:34Z</time>
      </trkpt>
      <trkpt lat="46.29671" lon="6.07344">
        <ele>465.3</ele>
        <time>2014-09-05T09:32:37Z</time>
      </trkpt>
      <trkpt lat="46.29668" lon="6.07338">
        <ele>465.28</ele>
        <time>2014-09-05T09:32:38Z</time>
      </trkpt>
      <trkpt lat="46.29657" lon="6.07321">
        <ele>465.27</ele>
        <time>2014-09-05T09:32:41Z</time>
      </trkpt>
      <trkpt lat="46.29599" lon="6.07262">
        <ele>464.74</ele>
        <time>2014-09-05T09:32:54Z</time>
      </trkpt>
      <trkpt lat="46.2954" lon="6.07208">
        <ele>464.31</ele>
        <time>2014-09-05T09:33:07Z</time>
      </trkpt>
      <trkpt lat="46.29539" lon="6.07202">
        <ele>464.27</ele>
        <time>2014-09-05T09:33:08Z</time>
      </trkpt>
      <trkpt lat="46.29539" lon="6.07197">
        <ele>464.25</ele>
        <time>2014-09-05T09:33:09Z</time>
      </trkpt>
      <trkpt lat="46.29541" lon="6.07193">
        <ele>464.28</ele>
        <time>2014-09-05T09:33:10Z</time>
      </trkpt>
      <trkpt lat="46.29544" lon="6.07188">
        <ele>464.39</ele>
        <time>2014-09-05T09:33:11Z</time>
      </trkpt>
      <trkpt lat="46.29579" lon="6.07152">
        <ele>465.7</ele>
        <time>2014-09-05T09:33:19Z</time>
      </trkpt>
      <trkpt lat="46.29594" lon="6.07142">
        <ele>465.73</ele>
        <time>2014-09-05T09:33:22Z</time>
      </trkpt>
      <trkpt lat="46.29613" lon="6.07127">
        <ele>465.62</ele>
        <time>2014-09-05T09:33:26Z</time>
      </trkpt>
      <trkpt lat="46.29617" lon="6.07122">
        <ele>465.65</ele>
        <time>2014-09-05T09:33:27Z</time>
      </trkpt>
      <trkpt lat="46.29629" lon="6.07106">
        <ele>465.88</ele>
        <time>2014-09-05T09:33:30Z</time>
      </trkpt>
      <trkpt lat="46.29632" lon="6.071">
        <ele>466.02</ele>
        <time>2014-09-05T09:33:31Z</time>
      </trkpt>
      <trkpt lat="46.29635" lon="6.07093">
        <ele>466.29</ele>
        <time>2014-09-05T09:33:32Z</time>
      </trkpt>
      <trkpt lat="46.29683" lon="6.07007">
        <ele>467.88</ele>
        <time>2014-09-05T09:33:47Z</time>
      </trkpt>
      <trkpt lat="46.2971" lon="6.0697">
        <ele>468.58</ele>
        <time>2014-09-05T09:33:55Z</time>
      </trkpt>
      <trkpt lat="46.29716" lon="6.06964">
        <ele>468.62</ele>
        <time>2014-09-05T09:33:57Z</time>
      </trkpt>
      <trkpt lat="46.29723" lon="6.06956">
        <ele>468.78</ele>
        <time>2014-09-05T09:34:01Z</time>
      </trkpt>
      <trkpt lat="46.29723" lon="6.06953">
        <ele>468.82</ele>
        <time>2014-09-05T09:34:02Z</time>
      </trkpt>
      <trkpt lat="46.29723" lon="6.06949">
        <ele>468.86</ele>
        <time>2014-09-05T09:34:03Z</time>
      </trkpt>
      <trkpt lat="46.29723" lon="6.06936">
        <ele>468.76</ele>
        <time>2014-09-05T09:34:06Z</time>
      </trkpt>
      <trkpt lat="46.29724" lon="6.06932">
        <ele>468.82</ele>
        <time>2014-09-05T09:34:07Z</time>
      </trkpt>
      <trkpt lat="46.29726" lon="6.06927">
        <ele>468.86</ele>
        <time>2014-09-05T09:34:08Z</time>
      </trkpt>
      <trkpt lat="46.29728" lon="6.06923">
        <ele>468.94</ele>
        <time>2014-09-05T09:34:09Z</time>
      </trkpt>
      <trkpt lat="46.29729" lon="6.06917">
        <ele>468.99</ele>
        <time>2014-09-05T09:34:10Z</time>
      </trkpt>
      <trkpt lat="46.29733" lon="6.06906">
        <ele>469.1</ele>
        <time>2014-09-05T09:34:12Z</time>
      </trkpt>
      <trkpt lat="46.29738" lon="6.06895">
        <ele>469.42</ele>
        <time>2014-09-05T09:34:14Z</time>
      </trkpt>
      <trkpt lat="46.2974" lon="6.06889">
        <ele>469.51</ele>
        <time>2014-09-05T09:34:15Z</time>
      </trkpt>
      <trkpt lat="46.29743" lon="6.06884">
        <ele>469.58</ele>
        <time>2014-09-05T09:34:16Z</time>
      </trkpt>
      <trkpt lat="46.29746" lon="6.06879">
        <ele>469.75</ele>
        <time>2014-09-05T09:34:17Z</time>
      </trkpt>
      <trkpt lat="46.29749" lon="6.06875">
        <ele>469.83</ele>
        <time>2014-09-05T09:34:18Z</time>
      </trkpt>
      <trkpt lat="46.2976" lon="6.06863">
        <ele>470.14</ele>
        <time>2014-09-05T09:34:21Z</time>
      </trkpt>
      <trkpt lat="46.29764" lon="6.0686">
        <ele>470.26</ele>
        <time>2014-09-05T09:34:22Z</time>
      </trkpt>
      <trkpt lat="46.29767" lon="6.06856">
        <ele>470.42</ele>
        <time>2014-09-05T09:34:23Z</time>
      </trkpt>
      <trkpt lat="46.29771" lon="6.06852">
        <ele>470.6</ele>
        <time>2014-09-05T09:34:24Z</time>
      </trkpt>
      <trkpt lat="46.29774" lon="6.06848">
        <ele>470.69</ele>
        <time>2014-09-05T09:34:25Z</time>
      </trkpt>
      <trkpt lat="46.29792" lon="6.06829">
        <ele>470.84</ele>
        <time>2014-09-05T09:34:30Z</time>
      </trkpt>
      <trkpt lat="46.29855" lon="6.06757">
        <ele>472.22</ele>
        <time>2014-09-05T09:34:48Z</time>
      </trkpt>
      <trkpt lat="46.29916" lon="6.06692">
        <ele>473.75</ele>
        <time>2014-09-05T09:35:06Z</time>
      </trkpt>
      <trkpt lat="46.29919" lon="6.06689">
        <ele>473.81</ele>
        <time>2014-09-05T09:35:07Z</time>
      </trkpt>
      <trkpt lat="46.29963" lon="6.06641">
        <ele>475.2</ele>
        <time>2014-09-05T09:35:21Z</time>
      </trkpt>
      <trkpt lat="46.29968" lon="6.06636">
        <ele>475.34</ele>
        <time>2014-09-05T09:35:23Z</time>
      </trkpt>
      <trkpt lat="46.29985" lon="6.06613">
        <ele>476.07</ele>
        <time>2014-09-05T09:35:29Z</time>
      </trkpt>
      <trkpt lat="46.29985" lon="6.06608">
        <ele>476.12</ele>
        <time>2014-09-05T09:35:30Z</time>
      </trkpt>
      <trkpt lat="46.29985" lon="6.06603">
        <ele>476.18</ele>
        <time>2014-09-05T09:35:31Z</time>
      </trkpt>
      <trkpt lat="46.29982" lon="6.066">
        <ele>476.3</ele>
        <time>2014-09-05T09:35:32Z</time>
      </trkpt>
      <trkpt lat="46.29979" lon="6.06597">
        <ele>476.33</ele>
        <time>2014-09-05T09:35:33Z</time>
      </trkpt>
      <trkpt lat="46.29975" lon="6.06595">
        <ele>476.37</ele>
        <time>2014-09-05T09:35:34Z</time>
      </trkpt>
      <trkpt lat="46.29971" lon="6.06592">
        <ele>476.39</ele>
        <time>2014-09-05T09:35:35Z</time>
      </trkpt>
      <trkpt lat="46.29968" lon="6.06589">
        <ele>476.29</ele>
        <time>2014-09-05T09:35:36Z</time>
      </trkpt>
      <trkpt lat="46.29965" lon="6.06586">
        <ele>476.23</ele>
        <time>2014-09-05T09:35:37Z</time>
      </trkpt>
      <trkpt lat="46.29962" lon="6.06581">
        <ele>476.13</ele>
        <time>2014-09-05T09:35:38Z</time>
      </trkpt>
      <trkpt lat="46.2996" lon="6.06576">
        <ele>476.06</ele>
        <time>2014-09-05T09:35:39Z</time>
      </trkpt>
      <trkpt lat="46.29959" lon="6.0657">
        <ele>476.02</ele>
        <time>2014-09-05T09:35:40Z</time>
      </trkpt>
      <trkpt lat="46.29958" lon="6.06564">
        <ele>476</ele>
        <time>2014-09-05T09:35:41Z</time>
      </trkpt>
      <trkpt lat="46.29954" lon="6.06546">
        <ele>476</ele>
        <time>2014-09-05T09:35:44Z</time>
      </trkpt>
      <trkpt lat="46.29952" lon="6.0654">
        <ele>476</ele>
        <time>2014-09-05T09:35:45Z</time>
      </trkpt>
      <trkpt lat="46.29949" lon="6.06535">
        <ele>476.03</ele>
        <time>2014-09-05T09:35:46Z</time>
      </trkpt>
      <trkpt lat="46.29938" lon="6.06511">
        <ele>476.02</ele>
        <time>2014-09-05T09:35:50Z</time>
      </trkpt>
      <trkpt lat="46.29927" lon="6.06496">
        <ele>476</ele>
        <time>2014-09-05T09:35:53Z</time>
      </trkpt>
      <trkpt lat="46.29918" lon="6.06488">
        <ele>475.86</ele>
        <time>2014-09-05T09:35:55Z</time>
      </trkpt>
      <trkpt lat="46.29912" lon="6.06484">
        <ele>475.8</ele>
        <time>2014-09-05T09:35:56Z</time>
      </trkpt>
      <trkpt lat="46.29871" lon="6.06458">
        <ele>474.37</ele>
        <time>2014-09-05T09:36:03Z</time>
      </trkpt>
      <trkpt lat="46.2982" lon="6.06394">
        <ele>473.56</ele>
        <time>2014-09-05T09:36:14Z</time>
      </trkpt>
      <trkpt lat="46.29817" lon="6.06386">
        <ele>473.42</ele>
        <time>2014-09-05T09:36:15Z</time>
      </trkpt>
      <trkpt lat="46.29816" lon="6.06377">
        <ele>473.3</ele>
        <time>2014-09-05T09:36:16Z</time>
      </trkpt>
      <trkpt lat="46.29816" lon="6.06369">
        <ele>473.3</ele>
        <time>2014-09-05T09:36:17Z</time>
      </trkpt>
      <trkpt lat="46.29815" lon="6.06362">
        <ele>473.32</ele>
        <time>2014-09-05T09:36:18Z</time>
      </trkpt>
      <trkpt lat="46.29815" lon="6.06354">
        <ele>473.23</ele>
        <time>2014-09-05T09:36:19Z</time>
      </trkpt>
      <trkpt lat="46.29813" lon="6.06348">
        <ele>473.29</ele>
        <time>2014-09-05T09:36:20Z</time>
      </trkpt>
      <trkpt lat="46.2981" lon="6.06343">
        <ele>473.21</ele>
        <time>2014-09-05T09:36:21Z</time>
      </trkpt>
      <trkpt lat="46.29806" lon="6.06338">
        <ele>473.04</ele>
        <time>2014-09-05T09:36:22Z</time>
      </trkpt>
      <trkpt lat="46.29801" lon="6.06334">
        <ele>473.05</ele>
        <time>2014-09-05T09:36:23Z</time>
      </trkpt>
      <trkpt lat="46.29796" lon="6.0633">
        <ele>473.05</ele>
        <time>2014-09-05T09:36:24Z</time>
      </trkpt>
      <trkpt lat="46.29781" lon="6.06317">
        <ele>473.08</ele>
        <time>2014-09-05T09:36:27Z</time>
      </trkpt>
      <trkpt lat="46.2977" lon="6.06311">
        <ele>473.12</ele>
        <time>2014-09-05T09:36:29Z</time>
      </trkpt>
      <trkpt lat="46.29763" lon="6.06309">
        <ele>473.17</ele>
        <time>2014-09-05T09:36:30Z</time>
      </trkpt>
      <trkpt lat="46.29756" lon="6.06306">
        <ele>473.15</ele>
        <time>2014-09-05T09:36:31Z</time>
      </trkpt>
      <trkpt lat="46.29696" lon="6.06279">
        <ele>472.65</ele>
        <time>2014-09-05T09:36:40Z</time>
      </trkpt>
      <trkpt lat="46.29691" lon="6.06275">
        <ele>472.38</ele>
        <time>2014-09-05T09:36:41Z</time>
      </trkpt>
      <trkpt lat="46.29685" lon="6.0627">
        <ele>472.12</ele>
        <time>2014-09-05T09:36:42Z</time>
      </trkpt>
      <trkpt lat="46.29681" lon="6.06265">
        <ele>471.92</ele>
        <time>2014-09-05T09:36:43Z</time>
      </trkpt>
      <trkpt lat="46.29675" lon="6.06251">
        <ele>471.6</ele>
        <time>2014-09-05T09:36:45Z</time>
      </trkpt>
      <trkpt lat="46.29669" lon="6.06237">
        <ele>471.53</ele>
        <time>2014-09-05T09:36:47Z</time>
      </trkpt>
      <trkpt lat="46.29665" lon="6.06229">
        <ele>471.53</ele>
        <time>2014-09-05T09:36:48Z</time>
      </trkpt>
      <trkpt lat="46.29661" lon="6.06222">
        <ele>471.53</ele>
        <time>2014-09-05T09:36:49Z</time>
      </trkpt>
      <trkpt lat="46.29641" lon="6.06195">
        <ele>472.94</ele>
        <time>2014-09-05T09:36:54Z</time>
      </trkpt>
      <trkpt lat="46.29608" lon="6.06159">
        <ele>476.2</ele>
        <time>2014-09-05T09:37:04Z</time>
      </trkpt>
      <trkpt lat="46.29583" lon="6.06133">
        <ele>478.51</ele>
        <time>2014-09-05T09:37:13Z</time>
      </trkpt>
      <trkpt lat="46.29578" lon="6.06127">
        <ele>479.21</ele>
        <time>2014-09-05T09:37:15Z</time>
      </trkpt>
      <trkpt lat="46.29547" lon="6.0609">
        <ele>482.48</ele>
        <time>2014-09-05T09:37:25Z</time>
      </trkpt>
      <trkpt lat="46.29519" lon="6.06056">
        <ele>484.69</ele>
        <time>2014-09-05T09:37:35Z</time>
      </trkpt>
      <trkpt lat="46.29516" lon="6.06053">
        <ele>485.12</ele>
        <time>2014-09-05T09:37:36Z</time>
      </trkpt>
      <trkpt lat="46.29514" lon="6.0605">
        <ele>485.5</ele>
        <time>2014-09-05T09:37:37Z</time>
      </trkpt>
      <trkpt lat="46.29511" lon="6.06048">
        <ele>485.74</ele>
        <time>2014-09-05T09:37:38Z</time>
      </trkpt>
      <trkpt lat="46.29509" lon="6.06046">
        <ele>485.96</ele>
        <time>2014-09-05T09:37:39Z</time>
      </trkpt>
      <trkpt lat="46.29506" lon="6.06045">
        <ele>486.23</ele>
        <time>2014-09-05T09:37:40Z</time>
      </trkpt>
      <trkpt lat="46.29505" lon="6.06043">
        <ele>486.56</ele>
        <time>2014-09-05T09:37:41Z</time>
      </trkpt>
      <trkpt lat="46.29501" lon="6.06038">
        <ele>486.91</ele>
        <time>2014-09-05T09:37:43Z</time>
      </trkpt>
      <trkpt lat="46.29499" lon="6.06036">
        <ele>487.03</ele>
        <time>2014-09-05T09:37:44Z</time>
      </trkpt>
      <trkpt lat="46.29495" lon="6.06032">
        <ele>487.23</ele>
        <time>2014-09-05T09:37:46Z</time>
      </trkpt>
      <trkpt lat="46.29493" lon="6.0603">
        <ele>487.38</ele>
        <time>2014-09-05T09:37:47Z</time>
      </trkpt>
      <trkpt lat="46.2949" lon="6.06028">
        <ele>487.74</ele>
        <time>2014-09-05T09:37:48Z</time>
      </trkpt>
      <trkpt lat="46.29459" lon="6.06">
        <ele>490.71</ele>
        <time>2014-09-05T09:38:00Z</time>
      </trkpt>
      <trkpt lat="46.29434" lon="6.05973">
        <ele>492.23</ele>
        <time>2014-09-05T09:38:09Z</time>
      </trkpt>
      <trkpt lat="46.29431" lon="6.05971">
        <ele>492.46</ele>
        <time>2014-09-05T09:38:10Z</time>
      </trkpt>
      <trkpt lat="46.29428" lon="6.05968">
        <ele>492.65</ele>
        <time>2014-09-05T09:38:11Z</time>
      </trkpt>
      <trkpt lat="46.29395" lon="6.05941">
        <ele>494.34</ele>
        <time>2014-09-05T09:38:22Z</time>
      </trkpt>
      <trkpt lat="46.29342" lon="6.05895">
        <ele>497.02</ele>
        <time>2014-09-05T09:38:37Z</time>
      </trkpt>
      <trkpt lat="46.29322" lon="6.05879">
        <ele>497.5</ele>
        <time>2014-09-05T09:38:42Z</time>
      </trkpt>
      <trkpt lat="46.29319" lon="6.05876">
        <ele>497.62</ele>
        <time>2014-09-05T09:38:43Z</time>
      </trkpt>
      <trkpt lat="46.29277" lon="6.05834">
        <ele>498.31</ele>
        <time>2014-09-05T09:38:54Z</time>
      </trkpt>
      <trkpt lat="46.29274" lon="6.0583">
        <ele>498.51</ele>
        <time>2014-09-05T09:38:55Z</time>
      </trkpt>
      <trkpt lat="46.29271" lon="6.05826">
        <ele>498.64</ele>
        <time>2014-09-05T09:38:56Z</time>
      </trkpt>
      <trkpt lat="46.29226" lon="6.05777">
        <ele>500.01</ele>
        <time>2014-09-05T09:39:09Z</time>
      </trkpt>
      <trkpt lat="46.29223" lon="6.05773">
        <ele>500.04</ele>
        <time>2014-09-05T09:39:10Z</time>
      </trkpt>
      <trkpt lat="46.2922" lon="6.0577">
        <ele>500.05</ele>
        <time>2014-09-05T09:39:11Z</time>
      </trkpt>
      <trkpt lat="46.29172" lon="6.05719">
        <ele>501.12</ele>
        <time>2014-09-05T09:39:26Z</time>
      </trkpt>
      <trkpt lat="46.29125" lon="6.0567">
        <ele>502.58</ele>
        <time>2014-09-05T09:39:41Z</time>
      </trkpt>
      <trkpt lat="46.29107" lon="6.05655">
        <ele>502.81</ele>
        <time>2014-09-05T09:39:46Z</time>
      </trkpt>
      <trkpt lat="46.29072" lon="6.0563">
        <ele>503.67</ele>
        <time>2014-09-05T09:39:56Z</time>
      </trkpt>
      <trkpt lat="46.29068" lon="6.05626">
        <ele>503.76</ele>
        <time>2014-09-05T09:39:57Z</time>
      </trkpt>
      <trkpt lat="46.29065" lon="6.05623">
        <ele>503.72</ele>
        <time>2014-09-05T09:39:58Z</time>
      </trkpt>
      <trkpt lat="46.29059" lon="6.05614">
        <ele>503.66</ele>
        <time>2014-09-05T09:40:00Z</time>
      </trkpt>
      <trkpt lat="46.29028" lon="6.05559">
        <ele>504.75</ele>
        <time>2014-09-05T09:40:12Z</time>
      </trkpt>
      <trkpt lat="46.29025" lon="6.05555">
        <ele>504.85</ele>
        <time>2014-09-05T09:40:13Z</time>
      </trkpt>
      <trkpt lat="46.29022" lon="6.05551">
        <ele>505.04</ele>
        <time>2014-09-05T09:40:14Z</time>
      </trkpt>
      <trkpt lat="46.28977" lon="6.05486">
        <ele>506.88</ele>
        <time>2014-09-05T09:40:31Z</time>
      </trkpt>
      <trkpt lat="46.28932" lon="6.05428">
        <ele>506.27</ele>
        <time>2014-09-05T09:40:49Z</time>
      </trkpt>
      <trkpt lat="46.28915" lon="6.05401">
        <ele>506.37</ele>
        <time>2014-09-05T09:40:56Z</time>
      </trkpt>
      <trkpt lat="46.28912" lon="6.05397">
        <ele>506.32</ele>
        <time>2014-09-05T09:40:57Z</time>
      </trkpt>
      <trkpt lat="46.28909" lon="6.05393">
        <ele>506.22</ele>
        <time>2014-09-05T09:40:58Z</time>
      </trkpt>
      <trkpt lat="46.28907" lon="6.05388">
        <ele>506.24</ele>
        <time>2014-09-05T09:40:59Z</time>
      </trkpt>
      <trkpt lat="46.28904" lon="6.05384">
        <ele>506.25</ele>
        <time>2014-09-05T09:41:00Z</time>
      </trkpt>
      <trkpt lat="46.28902" lon="6.05379">
        <ele>506.22</ele>
        <time>2014-09-05T09:41:01Z</time>
      </trkpt>
      <trkpt lat="46.2888" lon="6.05332">
        <ele>506.3</ele>
        <time>2014-09-05T09:41:11Z</time>
      </trkpt>
      <trkpt lat="46.28878" lon="6.05326">
        <ele>506.25</ele>
        <time>2014-09-05T09:41:12Z</time>
      </trkpt>
      <trkpt lat="46.28876" lon="6.0532">
        <ele>506.25</ele>
        <time>2014-09-05T09:41:13Z</time>
      </trkpt>
      <trkpt lat="46.28829" lon="6.05232">
        <ele>503.4</ele>
        <time>2014-09-05T09:41:25Z</time>
      </trkpt>
      <trkpt lat="46.28743" lon="6.05079">
        <ele>500.6</ele>
        <time>2014-09-05T09:41:43Z</time>
      </trkpt>
      <trkpt lat="46.28673" lon="6.04951">
        <ele>499.39</ele>
        <time>2014-09-05T09:41:59Z</time>
      </trkpt>
      <trkpt lat="46.28623" lon="6.04867">
        <ele>496.39</ele>
        <time>2014-09-05T09:42:09Z</time>
      </trkpt>
      <trkpt lat="46.28614" lon="6.04849">
        <ele>494.81</ele>
        <time>2014-09-05T09:42:12Z</time>
      </trkpt>
      <trkpt lat="46.28606" lon="6.04832">
        <ele>493.11</ele>
        <time>2014-09-05T09:42:16Z</time>
      </trkpt>
      <trkpt lat="46.28603" lon="6.04828">
        <ele>493.11</ele>
        <time>2014-09-05T09:42:17Z</time>
      </trkpt>
      <trkpt lat="46.286" lon="6.04822">
        <ele>492.81</ele>
        <time>2014-09-05T09:42:18Z</time>
      </trkpt>
      <trkpt lat="46.28596" lon="6.04816">
        <ele>492.48</ele>
        <time>2014-09-05T09:42:19Z</time>
      </trkpt>
      <trkpt lat="46.28592" lon="6.04809">
        <ele>492.22</ele>
        <time>2014-09-05T09:42:20Z</time>
      </trkpt>
      <trkpt lat="46.2852" lon="6.04719">
        <ele>489.96</ele>
        <time>2014-09-05T09:42:34Z</time>
      </trkpt>
      <trkpt lat="46.28515" lon="6.04711">
        <ele>489.88</ele>
        <time>2014-09-05T09:42:35Z</time>
      </trkpt>
      <trkpt lat="46.28477" lon="6.0464">
        <ele>488.34</ele>
        <time>2014-09-05T09:42:44Z</time>
      </trkpt>
      <trkpt lat="46.28472" lon="6.04633">
        <ele>488.29</ele>
        <time>2014-09-05T09:42:45Z</time>
      </trkpt>
      <trkpt lat="46.28392" lon="6.04553">
        <ele>486.19</ele>
        <time>2014-09-05T09:42:59Z</time>
      </trkpt>
      <trkpt lat="46.28383" lon="6.04543">
        <ele>485.16</ele>
        <time>2014-09-05T09:43:01Z</time>
      </trkpt>
      <trkpt lat="46.28378" lon="6.04537">
        <ele>484.75</ele>
        <time>2014-09-05T09:43:02Z</time>
      </trkpt>
      <trkpt lat="46.28374" lon="6.04529">
        <ele>484.49</ele>
        <time>2014-09-05T09:43:03Z</time>
      </trkpt>
      <trkpt lat="46.28308" lon="6.04445">
        <ele>482.11</ele>
        <time>2014-09-05T09:43:14Z</time>
      </trkpt>
      <trkpt lat="46.28294" lon="6.04431">
        <ele>481.92</ele>
        <time>2014-09-05T09:43:16Z</time>
      </trkpt>
      <trkpt lat="46.28276" lon="6.04405">
        <ele>481.3</ele>
        <time>2014-09-05T09:43:19Z</time>
      </trkpt>
      <trkpt lat="46.28271" lon="6.04395">
        <ele>481.21</ele>
        <time>2014-09-05T09:43:20Z</time>
      </trkpt>
      <trkpt lat="46.28234" lon="6.04309">
        <ele>480.26</ele>
        <time>2014-09-05T09:43:29Z</time>
      </trkpt>
      <trkpt lat="46.28191" lon="6.04229">
        <ele>477.05</ele>
        <time>2014-09-05T09:43:38Z</time>
      </trkpt>
      <trkpt lat="46.28143" lon="6.04126">
        <ele>474.55</ele>
        <time>2014-09-05T09:43:49Z</time>
      </trkpt>
      <trkpt lat="46.28113" lon="6.04088">
        <ele>472.73</ele>
        <time>2014-09-05T09:43:54Z</time>
      </trkpt>
      <trkpt lat="46.28106" lon="6.04082">
        <ele>472.73</ele>
        <time>2014-09-05T09:43:55Z</time>
      </trkpt>
      <trkpt lat="46.28083" lon="6.04066">
        <ele>472.17</ele>
        <time>2014-09-05T09:43:58Z</time>
      </trkpt>
      <trkpt lat="46.28078" lon="6.04059">
        <ele>471.89</ele>
        <time>2014-09-05T09:43:59Z</time>
      </trkpt>
      <trkpt lat="46.28074" lon="6.0405">
        <ele>471.52</ele>
        <time>2014-09-05T09:44:00Z</time>
      </trkpt>
      <trkpt lat="46.28073" lon="6.04029">
        <ele>470.79</ele>
        <time>2014-09-05T09:44:02Z</time>
      </trkpt>
      <trkpt lat="46.28076" lon="6.0402">
        <ele>470.63</ele>
        <time>2014-09-05T09:44:03Z</time>
      </trkpt>
      <trkpt lat="46.2808" lon="6.04011">
        <ele>470.54</ele>
        <time>2014-09-05T09:44:04Z</time>
      </trkpt>
      <trkpt lat="46.28099" lon="6.03962">
        <ele>471.05</ele>
        <time>2014-09-05T09:44:10Z</time>
      </trkpt>
      <trkpt lat="46.28099" lon="6.03954">
        <ele>471.27</ele>
        <time>2014-09-05T09:44:11Z</time>
      </trkpt>
      <trkpt lat="46.28097" lon="6.03946">
        <ele>471.45</ele>
        <time>2014-09-05T09:44:12Z</time>
      </trkpt>
      <trkpt lat="46.28094" lon="6.03939">
        <ele>471.57</ele>
        <time>2014-09-05T09:44:13Z</time>
      </trkpt>
      <trkpt lat="46.2809" lon="6.03933">
        <ele>471.69</ele>
        <time>2014-09-05T09:44:14Z</time>
      </trkpt>
      <trkpt lat="46.28081" lon="6.03924">
        <ele>472.08</ele>
        <time>2014-09-05T09:44:16Z</time>
      </trkpt>
      <trkpt lat="46.28048" lon="6.039">
        <ele>473.9</ele>
        <time>2014-09-05T09:44:23Z</time>
      </trkpt>
      <trkpt lat="46.28044" lon="6.03895">
        <ele>474.07</ele>
        <time>2014-09-05T09:44:24Z</time>
      </trkpt>
      <trkpt lat="46.28041" lon="6.0389">
        <ele>474.15</ele>
        <time>2014-09-05T09:44:25Z</time>
      </trkpt>
      <trkpt lat="46.28035" lon="6.0388">
        <ele>474.47</ele>
        <time>2014-09-05T09:44:27Z</time>
      </trkpt>
      <trkpt lat="46.28015" lon="6.03824">
        <ele>476.6</ele>
        <time>2014-09-05T09:44:37Z</time>
      </trkpt>
      <trkpt lat="46.28015" lon="6.03819">
        <ele>476.84</ele>
        <time>2014-09-05T09:44:38Z</time>
      </trkpt>
      <trkpt lat="46.28014" lon="6.03813">
        <ele>477.03</ele>
        <time>2014-09-05T09:44:39Z</time>
      </trkpt>
      <trkpt lat="46.28025" lon="6.03753">
        <ele>479.39</ele>
        <time>2014-09-05T09:44:51Z</time>
      </trkpt>
      <trkpt lat="46.28035" lon="6.03727">
        <ele>481.4</ele>
        <time>2014-09-05T09:45:00Z</time>
      </trkpt>
      <trkpt lat="46.28034" lon="6.03723">
        <ele>481.56</ele>
        <time>2014-09-05T09:45:01Z</time>
      </trkpt>
      <trkpt lat="46.28033" lon="6.03719">
        <ele>481.56</ele>
        <time>2014-09-05T09:45:02Z</time>
      </trkpt>
      <trkpt lat="46.2803" lon="6.03715">
        <ele>481.78</ele>
        <time>2014-09-05T09:45:03Z</time>
      </trkpt>
      <trkpt lat="46.28027" lon="6.03711">
        <ele>481.98</ele>
        <time>2014-09-05T09:45:04Z</time>
      </trkpt>
      <trkpt lat="46.28024" lon="6.03707">
        <ele>482.08</ele>
        <time>2014-09-05T09:45:05Z</time>
      </trkpt>
      <trkpt lat="46.28021" lon="6.03704">
        <ele>482.04</ele>
        <time>2014-09-05T09:45:06Z</time>
      </trkpt>
      <trkpt lat="46.28015" lon="6.03695">
        <ele>481.73</ele>
        <time>2014-09-05T09:45:08Z</time>
      </trkpt>
      <trkpt lat="46.2796" lon="6.03623">
        <ele>479.71</ele>
        <time>2014-09-05T09:45:22Z</time>
      </trkpt>
      <trkpt lat="46.27937" lon="6.03592">
        <ele>478.6</ele>
        <time>2014-09-05T09:45:27Z</time>
      </trkpt>
      <trkpt lat="46.27934" lon="6.03584">
        <ele>478.49</ele>
        <time>2014-09-05T09:45:28Z</time>
      </trkpt>
      <trkpt lat="46.2793" lon="6.03571">
        <ele>478.36</ele>
        <time>2014-09-05T09:45:30Z</time>
      </trkpt>
      <trkpt lat="46.27927" lon="6.03566">
        <ele>478.3</ele>
        <time>2014-09-05T09:45:31Z</time>
      </trkpt>
      <trkpt lat="46.27925" lon="6.0356">
        <ele>478.28</ele>
        <time>2014-09-05T09:45:32Z</time>
      </trkpt>
      <trkpt lat="46.27914" lon="6.03534">
        <ele>477.89</ele>
        <time>2014-09-05T09:45:40Z</time>
      </trkpt>
      <trkpt lat="46.27913" lon="6.03532">
        <ele>477.85</ele>
        <time>2014-09-05T09:45:41Z</time>
      </trkpt>
      <trkpt lat="46.27912" lon="6.03529">
        <ele>477.82</ele>
        <time>2014-09-05T09:45:42Z</time>
      </trkpt>
      <trkpt lat="46.27911" lon="6.03525">
        <ele>477.84</ele>
        <time>2014-09-05T09:45:44Z</time>
      </trkpt>
      <trkpt lat="46.27911" lon="6.03525">
        <ele>477.74</ele>
        <time>2014-09-05T09:45:54Z</time>
      </trkpt>
      <trkpt lat="46.2791" lon="6.03523">
        <ele>477.67</ele>
        <time>2014-09-05T09:45:55Z</time>
      </trkpt>
      <trkpt lat="46.27896" lon="6.0349">
        <ele>478.01</ele>
        <time>2014-09-05T09:46:02Z</time>
      </trkpt>
      <trkpt lat="46.27893" lon="6.03483">
        <ele>478.14</ele>
        <time>2014-09-05T09:46:03Z</time>
      </trkpt>
      <trkpt lat="46.27845" lon="6.03362">
        <ele>477.36</ele>
        <time>2014-09-05T09:46:18Z</time>
      </trkpt>
      <trkpt lat="46.27781" lon="6.03234">
        <ele>475.38</ele>
        <time>2014-09-05T09:46:34Z</time>
      </trkpt>
      <trkpt lat="46.27753" lon="6.03182">
        <ele>475.18</ele>
        <time>2014-09-05T09:46:41Z</time>
      </trkpt>
      <trkpt lat="46.2775" lon="6.03174">
        <ele>475.13</ele>
        <time>2014-09-05T09:46:42Z</time>
      </trkpt>
      <trkpt lat="46.2775" lon="6.03167">
        <ele>475.08</ele>
        <time>2014-09-05T09:46:43Z</time>
      </trkpt>
      <trkpt lat="46.27751" lon="6.0316">
        <ele>474.98</ele>
        <time>2014-09-05T09:46:44Z</time>
      </trkpt>
      <trkpt lat="46.27754" lon="6.03155">
        <ele>474.94</ele>
        <time>2014-09-05T09:46:45Z</time>
      </trkpt>
      <trkpt lat="46.27758" lon="6.03152">
        <ele>474.92</ele>
        <time>2014-09-05T09:46:46Z</time>
      </trkpt>
      <trkpt lat="46.27762" lon="6.0315">
        <ele>474.97</ele>
        <time>2014-09-05T09:46:47Z</time>
      </trkpt>
      <trkpt lat="46.27767" lon="6.03149">
        <ele>475</ele>
        <time>2014-09-05T09:46:48Z</time>
      </trkpt>
      <trkpt lat="46.27772" lon="6.03149">
        <ele>474.95</ele>
        <time>2014-09-05T09:46:49Z</time>
      </trkpt>
      <trkpt lat="46.2783" lon="6.03146">
        <ele>477.1</ele>
        <time>2014-09-05T09:46:59Z</time>
      </trkpt>
      <trkpt lat="46.27836" lon="6.03145">
        <ele>477.23</ele>
        <time>2014-09-05T09:47:00Z</time>
      </trkpt>
      <trkpt lat="46.27847" lon="6.03143">
        <ele>477.38</ele>
        <time>2014-09-05T09:47:02Z</time>
      </trkpt>
      <trkpt lat="46.27853" lon="6.03141">
        <ele>477.37</ele>
        <time>2014-09-05T09:47:03Z</time>
      </trkpt>
      <trkpt lat="46.27858" lon="6.03138">
        <ele>477.4</ele>
        <time>2014-09-05T09:47:04Z</time>
      </trkpt>
      <trkpt lat="46.27891" lon="6.03121">
        <ele>477.4</ele>
        <time>2014-09-05T09:47:10Z</time>
      </trkpt>
      <trkpt lat="46.27972" lon="6.03081">
        <ele>475.88</ele>
        <time>2014-09-05T09:47:23Z</time>
      </trkpt>
      <trkpt lat="46.27999" lon="6.03064">
        <ele>476.37</ele>
        <time>2014-09-05T09:47:28Z</time>
      </trkpt>
      <trkpt lat="46.28004" lon="6.0306">
        <ele>476.63</ele>
        <time>2014-09-05T09:47:29Z</time>
      </trkpt>
      <trkpt lat="46.28011" lon="6.03052">
        <ele>476.84</ele>
        <time>2014-09-05T09:47:31Z</time>
      </trkpt>
      <trkpt lat="46.28014" lon="6.03047">
        <ele>476.99</ele>
        <time>2014-09-05T09:47:32Z</time>
      </trkpt>
      <trkpt lat="46.28016" lon="6.03041">
        <ele>477.19</ele>
        <time>2014-09-05T09:47:33Z</time>
      </trkpt>
      <trkpt lat="46.2802" lon="6.03029">
        <ele>477.74</ele>
        <time>2014-09-05T09:47:35Z</time>
      </trkpt>
      <trkpt lat="46.28022" lon="6.03018">
        <ele>478.38</ele>
        <time>2014-09-05T09:47:37Z</time>
      </trkpt>
      <trkpt lat="46.28023" lon="6.03012">
        <ele>478.74</ele>
        <time>2014-09-05T09:47:38Z</time>
      </trkpt>
      <trkpt lat="46.28023" lon="6.03006">
        <ele>478.92</ele>
        <time>2014-09-05T09:47:39Z</time>
      </trkpt>
      <trkpt lat="46.28023" lon="6.03001">
        <ele>479.07</ele>
        <time>2014-09-05T09:47:40Z</time>
      </trkpt>
      <trkpt lat="46.28024" lon="6.02995">
        <ele>479.21</ele>
        <time>2014-09-05T09:47:41Z</time>
      </trkpt>
      <trkpt lat="46.28024" lon="6.0299">
        <ele>479.42</ele>
        <time>2014-09-05T09:47:42Z</time>
      </trkpt>
      <trkpt lat="46.28024" lon="6.02984">
        <ele>479.71</ele>
        <time>2014-09-05T09:47:43Z</time>
      </trkpt>
      <trkpt lat="46.28021" lon="6.02969">
        <ele>480.33</ele>
        <time>2014-09-05T09:47:46Z</time>
      </trkpt>
      <trkpt lat="46.28021" lon="6.02964">
        <ele>480.33</ele>
        <time>2014-09-05T09:47:47Z</time>
      </trkpt>
      <trkpt lat="46.28008" lon="6.02898">
        <ele>483.42</ele>
        <time>2014-09-05T09:48:01Z</time>
      </trkpt>
      <trkpt lat="46.27993" lon="6.02833">
        <ele>486.5</ele>
        <time>2014-09-05T09:48:16Z</time>
      </trkpt>
      <trkpt lat="46.28002" lon="6.02772">
        <ele>489.67</ele>
        <time>2014-09-05T09:48:30Z</time>
      </trkpt>
      <trkpt lat="46.28035" lon="6.02732">
        <ele>492.52</ele>
        <time>2014-09-05T09:48:44Z</time>
      </trkpt>
      <trkpt lat="46.28077" lon="6.02727">
        <ele>495.64</ele>
        <time>2014-09-05T09:48:58Z</time>
      </trkpt>
      <trkpt lat="46.28118" lon="6.02762">
        <ele>498.84</ele>
        <time>2014-09-05T09:49:13Z</time>
      </trkpt>
      <trkpt lat="46.28157" lon="6.02783">
        <ele>502.03</ele>
        <time>2014-09-05T09:49:27Z</time>
      </trkpt>
      <trkpt lat="46.28195" lon="6.0275">
        <ele>504.95</ele>
        <time>2014-09-05T09:49:41Z</time>
      </trkpt>
      <trkpt lat="46.28212" lon="6.02731">
        <ele>505.44</ele>
        <time>2014-09-05T09:49:51Z</time>
      </trkpt>
      <trkpt lat="46.28215" lon="6.02728">
        <ele>505.4</ele>
        <time>2014-09-05T09:49:53Z</time>
      </trkpt>
      <trkpt lat="46.28221" lon="6.02726">
        <ele>505.1</ele>
        <time>2014-09-05T09:50:06Z</time>
      </trkpt>
      <trkpt lat="46.28224" lon="6.02722">
        <ele>505.04</ele>
        <time>2014-09-05T09:50:22Z</time>
      </trkpt>
      <trkpt lat="46.28224" lon="6.0272">
        <ele>504.94</ele>
        <time>2014-09-05T09:50:23Z</time>
      </trkpt>
      <trkpt lat="46.28225" lon="6.02718">
        <ele>505</ele>
        <time>2014-09-05T09:50:24Z</time>
      </trkpt>
      <trkpt lat="46.28226" lon="6.02717">
        <ele>504.96</ele>
        <time>2014-09-05T09:50:25Z</time>
      </trkpt>
      <trkpt lat="46.28227" lon="6.02715">
        <ele>504.91</ele>
        <time>2014-09-05T09:50:26Z</time>
      </trkpt>
      <trkpt lat="46.28229" lon="6.02713">
        <ele>504.92</ele>
        <time>2014-09-05T09:50:27Z</time>
      </trkpt>
      <trkpt lat="46.28231" lon="6.02711">
        <ele>505.02</ele>
        <time>2014-09-05T09:50:28Z</time>
      </trkpt>
      <trkpt lat="46.28234" lon="6.02709">
        <ele>504.97</ele>
        <time>2014-09-05T09:50:29Z</time>
      </trkpt>
      <trkpt lat="46.28275" lon="6.0267">
        <ele>504.91</ele>
        <time>2014-09-05T09:50:43Z</time>
      </trkpt>
      <trkpt lat="46.28279" lon="6.02666">
        <ele>504.92</ele>
        <time>2014-09-05T09:50:44Z</time>
      </trkpt>
      <trkpt lat="46.28282" lon="6.02663">
        <ele>504.93</ele>
        <time>2014-09-05T09:50:45Z</time>
      </trkpt>
      <trkpt lat="46.28295" lon="6.02645">
        <ele>505.11</ele>
        <time>2014-09-05T09:50:49Z</time>
      </trkpt>
      <trkpt lat="46.28311" lon="6.02626">
        <ele>505.07</ele>
        <time>2014-09-05T09:50:53Z</time>
      </trkpt>
      <trkpt lat="46.28335" lon="6.02598">
        <ele>504.8</ele>
        <time>2014-09-05T09:50:59Z</time>
      </trkpt>
      <trkpt lat="46.28402" lon="6.02526">
        <ele>504.9</ele>
        <time>2014-09-05T09:51:14Z</time>
      </trkpt>
      <trkpt lat="46.28423" lon="6.02502">
        <ele>504.85</ele>
        <time>2014-09-05T09:51:19Z</time>
      </trkpt>
      <trkpt lat="46.28427" lon="6.02497">
        <ele>504.86</ele>
        <time>2014-09-05T09:51:20Z</time>
      </trkpt>
      <trkpt lat="46.28469" lon="6.02409">
        <ele>507.8</ele>
        <time>2014-09-05T09:51:36Z</time>
      </trkpt>
      <trkpt lat="46.28462" lon="6.02363">
        <ele>509.55</ele>
        <time>2014-09-05T09:51:45Z</time>
      </trkpt>
      <trkpt lat="46.28457" lon="6.02352">
        <ele>509.71</ele>
        <time>2014-09-05T09:51:47Z</time>
      </trkpt>
      <trkpt lat="46.2842" lon="6.02286">
        <ele>509.21</ele>
        <time>2014-09-05T09:51:59Z</time>
      </trkpt>
      <trkpt lat="46.28367" lon="6.02202">
        <ele>508.06</ele>
        <time>2014-09-05T09:52:13Z</time>
      </trkpt>
      <trkpt lat="46.28365" lon="6.02195">
        <ele>508.03</ele>
        <time>2014-09-05T09:52:14Z</time>
      </trkpt>
      <trkpt lat="46.28364" lon="6.02187">
        <ele>508.05</ele>
        <time>2014-09-05T09:52:15Z</time>
      </trkpt>
      <trkpt lat="46.28338" lon="6.02064">
        <ele>509.75</ele>
        <time>2014-09-05T09:52:32Z</time>
      </trkpt>
      <trkpt lat="46.28302" lon="6.01932">
        <ele>512.16</ele>
        <time>2014-09-05T09:52:52Z</time>
      </trkpt>
      <trkpt lat="46.28261" lon="6.01828">
        <ele>514.82</ele>
        <time>2014-09-05T09:53:12Z</time>
      </trkpt>
      <trkpt lat="46.28266" lon="6.01816">
        <ele>515.14</ele>
        <time>2014-09-05T09:53:15Z</time>
      </trkpt>
      <trkpt lat="46.28268" lon="6.01812">
        <ele>515.36</ele>
        <time>2014-09-05T09:53:16Z</time>
      </trkpt>
      <trkpt lat="46.28269" lon="6.01808">
        <ele>515.67</ele>
        <time>2014-09-05T09:53:17Z</time>
      </trkpt>
      <trkpt lat="46.2827" lon="6.01803">
        <ele>516.05</ele>
        <time>2014-09-05T09:53:18Z</time>
      </trkpt>
      <trkpt lat="46.28271" lon="6.01798">
        <ele>516.37</ele>
        <time>2014-09-05T09:53:19Z</time>
      </trkpt>
      <trkpt lat="46.2827" lon="6.01794">
        <ele>516.64</ele>
        <time>2014-09-05T09:53:20Z</time>
      </trkpt>
      <trkpt lat="46.28269" lon="6.01789">
        <ele>516.92</ele>
        <time>2014-09-05T09:53:21Z</time>
      </trkpt>
      <trkpt lat="46.28266" lon="6.01786">
        <ele>517.27</ele>
        <time>2014-09-05T09:53:22Z</time>
      </trkpt>
      <trkpt lat="46.28263" lon="6.01784">
        <ele>517.44</ele>
        <time>2014-09-05T09:53:23Z</time>
      </trkpt>
      <trkpt lat="46.2826" lon="6.01783">
        <ele>517.76</ele>
        <time>2014-09-05T09:53:24Z</time>
      </trkpt>
      <trkpt lat="46.28256" lon="6.01782">
        <ele>517.94</ele>
        <time>2014-09-05T09:53:25Z</time>
      </trkpt>
      <trkpt lat="46.28252" lon="6.01781">
        <ele>518.04</ele>
        <time>2014-09-05T09:53:26Z</time>
      </trkpt>
      <trkpt lat="46.28248" lon="6.0178">
        <ele>517.91</ele>
        <time>2014-09-05T09:53:27Z</time>
      </trkpt>
      <trkpt lat="46.28244" lon="6.01777">
        <ele>517.73</ele>
        <time>2014-09-05T09:53:28Z</time>
      </trkpt>
      <trkpt lat="46.28228" lon="6.01759">
        <ele>517.08</ele>
        <time>2014-09-05T09:53:32Z</time>
      </trkpt>
      <trkpt lat="46.28224" lon="6.01753">
        <ele>516.89</ele>
        <time>2014-09-05T09:53:33Z</time>
      </trkpt>
      <trkpt lat="46.28207" lon="6.01717">
        <ele>516.77</ele>
        <time>2014-09-05T09:53:39Z</time>
      </trkpt>
      <trkpt lat="46.28204" lon="6.01711">
        <ele>516.86</ele>
        <time>2014-09-05T09:53:40Z</time>
      </trkpt>
      <trkpt lat="46.28198" lon="6.01699">
        <ele>517</ele>
        <time>2014-09-05T09:53:42Z</time>
      </trkpt>
      <trkpt lat="46.28139" lon="6.01609">
        <ele>515.77</ele>
        <time>2014-09-05T09:53:58Z</time>
      </trkpt>
      <trkpt lat="46.28054" lon="6.01534">
        <ele>514.95</ele>
        <time>2014-09-05T09:54:14Z</time>
      </trkpt>
      <trkpt lat="46.27964" lon="6.01462">
        <ele>516.23</ele>
        <time>2014-09-05T09:54:31Z</time>
      </trkpt>
      <trkpt lat="46.27906" lon="6.01424">
        <ele>515.88</ele>
        <time>2014-09-05T09:54:41Z</time>
      </trkpt>
      <trkpt lat="46.279" lon="6.0142">
        <ele>515.8</ele>
        <time>2014-09-05T09:54:42Z</time>
      </trkpt>
      <trkpt lat="46.27792" lon="6.01347">
        <ele>512.77</ele>
        <time>2014-09-05T09:54:57Z</time>
      </trkpt>
      <trkpt lat="46.27678" lon="6.01273">
        <ele>510.66</ele>
        <time>2014-09-05T09:55:12Z</time>
      </trkpt>
      <trkpt lat="46.27536" lon="6.01195">
        <ele>508.21</ele>
        <time>2014-09-05T09:55:29Z</time>
      </trkpt>
      <trkpt lat="46.27527" lon="6.01191">
        <ele>508.11</ele>
        <time>2014-09-05T09:55:30Z</time>
      </trkpt>
      <trkpt lat="46.275" lon="6.0118">
        <ele>508</ele>
        <time>2014-09-05T09:55:33Z</time>
      </trkpt>
      <trkpt lat="46.27491" lon="6.01177">
        <ele>507.87</ele>
        <time>2014-09-05T09:55:34Z</time>
      </trkpt>
      <trkpt lat="46.27482" lon="6.01173">
        <ele>507.68</ele>
        <time>2014-09-05T09:55:35Z</time>
      </trkpt>
      <trkpt lat="46.27347" lon="6.01084">
        <ele>504.93</ele>
        <time>2014-09-05T09:55:51Z</time>
      </trkpt>
      <trkpt lat="46.27257" lon="6.00985">
        <ele>505.05</ele>
        <time>2014-09-05T09:56:04Z</time>
      </trkpt>
      <trkpt lat="46.27177" lon="6.00902">
        <ele>505.91</ele>
        <time>2014-09-05T09:56:16Z</time>
      </trkpt>
      <trkpt lat="46.27118" lon="6.00776">
        <ele>504.17</ele>
        <time>2014-09-05T09:56:28Z</time>
      </trkpt>
      <trkpt lat="46.27065" lon="6.00642">
        <ele>505.65</ele>
        <time>2014-09-05T09:56:42Z</time>
      </trkpt>
      <trkpt lat="46.2702" lon="6.00526">
        <ele>505.4</ele>
        <time>2014-09-05T09:56:55Z</time>
      </trkpt>
      <trkpt lat="46.27015" lon="6.00519">
        <ele>505.29</ele>
        <time>2014-09-05T09:56:56Z</time>
      </trkpt>
      <trkpt lat="46.27009" lon="6.00512">
        <ele>505.07</ele>
        <time>2014-09-05T09:56:57Z</time>
      </trkpt>
      <trkpt lat="46.26927" lon="6.00455">
        <ele>501.94</ele>
        <time>2014-09-05T09:57:08Z</time>
      </trkpt>
      <trkpt lat="46.26831" lon="6.0039">
        <ele>498.83</ele>
        <time>2014-09-05T09:57:20Z</time>
      </trkpt>
      <trkpt lat="46.26688" lon="6.00264">
        <ele>496.7</ele>
        <time>2014-09-05T09:57:39Z</time>
      </trkpt>
      <trkpt lat="46.26569" lon="6.00194">
        <ele>495.19</ele>
        <time>2014-09-05T09:57:54Z</time>
      </trkpt>
      <trkpt lat="46.26425" lon="6.00062">
        <ele>493.86</ele>
        <time>2014-09-05T09:58:14Z</time>
      </trkpt>
      <trkpt lat="46.26306" lon="5.99936">
        <ele>490.71</ele>
        <time>2014-09-05T09:58:30Z</time>
      </trkpt>
      <trkpt lat="46.26243" lon="5.99876">
        <ele>487.31</ele>
        <time>2014-09-05T09:58:38Z</time>
      </trkpt>
      <trkpt lat="46.26146" lon="5.99802">
        <ele>484.16</ele>
        <time>2014-09-05T09:58:50Z</time>
      </trkpt>
      <trkpt lat="46.261" lon="5.99784">
        <ele>484.21</ele>
        <time>2014-09-05T09:58:56Z</time>
      </trkpt>
      <trkpt lat="46.26092" lon="5.99781">
        <ele>484.17</ele>
        <time>2014-09-05T09:58:57Z</time>
      </trkpt>
      <trkpt lat="46.2601" lon="5.9972">
        <ele>484.95</ele>
        <time>2014-09-05T09:59:10Z</time>
      </trkpt>
      <trkpt lat="46.25925" lon="5.99657">
        <ele>485.19</ele>
        <time>2014-09-05T09:59:25Z</time>
      </trkpt>
      <trkpt lat="46.25893" lon="5.99625">
        <ele>485.21</ele>
        <time>2014-09-05T09:59:32Z</time>
      </trkpt>
      <trkpt lat="46.25891" lon="5.9962">
        <ele>485.2</ele>
        <time>2014-09-05T09:59:33Z</time>
      </trkpt>
      <trkpt lat="46.25891" lon="5.99615">
        <ele>485.2</ele>
        <time>2014-09-05T09:59:34Z</time>
      </trkpt>
      <trkpt lat="46.25891" lon="5.9961">
        <ele>485.2</ele>
        <time>2014-09-05T09:59:35Z</time>
      </trkpt>
      <trkpt lat="46.25894" lon="5.99606">
        <ele>485.23</ele>
        <time>2014-09-05T09:59:36Z</time>
      </trkpt>
      <trkpt lat="46.25897" lon="5.99602">
        <ele>485.4</ele>
        <time>2014-09-05T09:59:37Z</time>
      </trkpt>
      <trkpt lat="46.259" lon="5.99599">
        <ele>485.35</ele>
        <time>2014-09-05T09:59:38Z</time>
      </trkpt>
      <trkpt lat="46.25903" lon="5.99596">
        <ele>485.46</ele>
        <time>2014-09-05T09:59:39Z</time>
      </trkpt>
      <trkpt lat="46.25947" lon="5.99552">
        <ele>487.8</ele>
        <time>2014-09-05T09:59:53Z</time>
      </trkpt>
      <trkpt lat="46.25952" lon="5.99546">
        <ele>487.87</ele>
        <time>2014-09-05T09:59:55Z</time>
      </trkpt>
      <trkpt lat="46.25955" lon="5.99543">
        <ele>487.92</ele>
        <time>2014-09-05T09:59:56Z</time>
      </trkpt>
      <trkpt lat="46.25988" lon="5.99496">
        <ele>491.07</ele>
        <time>2014-09-05T10:00:10Z</time>
      </trkpt>
      <trkpt lat="46.25992" lon="5.9949">
        <ele>491.26</ele>
        <time>2014-09-05T10:00:12Z</time>
      </trkpt>
      <trkpt lat="46.25994" lon="5.99487">
        <ele>491.51</ele>
        <time>2014-09-05T10:00:13Z</time>
      </trkpt>
      <trkpt lat="46.25996" lon="5.99484">
        <ele>491.8</ele>
        <time>2014-09-05T10:00:14Z</time>
      </trkpt>
      <trkpt lat="46.25998" lon="5.9948">
        <ele>492.12</ele>
        <time>2014-09-05T10:00:15Z</time>
      </trkpt>
      <trkpt lat="46.26002" lon="5.99473">
        <ele>492.51</ele>
        <time>2014-09-05T10:00:17Z</time>
      </trkpt>
      <trkpt lat="46.26004" lon="5.9947">
        <ele>492.72</ele>
        <time>2014-09-05T10:00:18Z</time>
      </trkpt>
      <trkpt lat="46.26006" lon="5.99468">
        <ele>492.99</ele>
        <time>2014-09-05T10:00:19Z</time>
      </trkpt>
      <trkpt lat="46.26018" lon="5.99455">
        <ele>493.92</ele>
        <time>2014-09-05T10:00:24Z</time>
      </trkpt>
      <trkpt lat="46.2602" lon="5.99453">
        <ele>494</ele>
        <time>2014-09-05T10:00:25Z</time>
      </trkpt>
      <trkpt lat="46.26022" lon="5.99452">
        <ele>494.09</ele>
        <time>2014-09-05T10:00:26Z</time>
      </trkpt>
      <trkpt lat="46.26025" lon="5.9945">
        <ele>494.25</ele>
        <time>2014-09-05T10:00:27Z</time>
      </trkpt>
      <trkpt lat="46.26027" lon="5.99447">
        <ele>494.61</ele>
        <time>2014-09-05T10:00:28Z</time>
      </trkpt>
      <trkpt lat="46.2603" lon="5.99445">
        <ele>495.13</ele>
        <time>2014-09-05T10:00:29Z</time>
      </trkpt>
      <trkpt lat="46.26032" lon="5.99442">
        <ele>495.55</ele>
        <time>2014-09-05T10:00:30Z</time>
      </trkpt>
      <trkpt lat="46.26035" lon="5.9944">
        <ele>495.82</ele>
        <time>2014-09-05T10:00:31Z</time>
      </trkpt>
      <trkpt lat="46.26038" lon="5.99438">
        <ele>496.12</ele>
        <time>2014-09-05T10:00:32Z</time>
      </trkpt>
      <trkpt lat="46.2604" lon="5.99436">
        <ele>496.4</ele>
        <time>2014-09-05T10:00:33Z</time>
      </trkpt>
      <trkpt lat="46.2606" lon="5.99422">
        <ele>497.81</ele>
        <time>2014-09-05T10:00:41Z</time>
      </trkpt>
      <trkpt lat="46.26063" lon="5.9942">
        <ele>497.99</ele>
        <time>2014-09-05T10:00:42Z</time>
      </trkpt>
      <trkpt lat="46.26065" lon="5.99418">
        <ele>498.14</ele>
        <time>2014-09-05T10:00:43Z</time>
      </trkpt>
      <trkpt lat="46.26067" lon="5.99416">
        <ele>498.35</ele>
        <time>2014-09-05T10:00:44Z</time>
      </trkpt>
      <trkpt lat="46.26069" lon="5.99414">
        <ele>498.65</ele>
        <time>2014-09-05T10:00:45Z</time>
      </trkpt>
      <trkpt lat="46.26071" lon="5.99411">
        <ele>498.8</ele>
        <time>2014-09-05T10:00:46Z</time>
      </trkpt>
      <trkpt lat="46.26073" lon="5.99409">
        <ele>499</ele>
        <time>2014-09-05T10:00:47Z</time>
      </trkpt>
      <trkpt lat="46.26075" lon="5.99407">
        <ele>499.17</ele>
        <time>2014-09-05T10:00:48Z</time>
      </trkpt>
      <trkpt lat="46.26096" lon="5.9938">
        <ele>501.58</ele>
        <time>2014-09-05T10:01:00Z</time>
      </trkpt>
      <trkpt lat="46.26097" lon="5.99376">
        <ele>501.86</ele>
        <time>2014-09-05T10:01:01Z</time>
      </trkpt>
      <trkpt lat="46.26098" lon="5.99372">
        <ele>502.13</ele>
        <time>2014-09-05T10:01:02Z</time>
      </trkpt>
      <trkpt lat="46.26097" lon="5.99367">
        <ele>502.32</ele>
        <time>2014-09-05T10:01:03Z</time>
      </trkpt>
      <trkpt lat="46.26096" lon="5.99363">
        <ele>502.45</ele>
        <time>2014-09-05T10:01:04Z</time>
      </trkpt>
      <trkpt lat="46.26095" lon="5.99359">
        <ele>502.57</ele>
        <time>2014-09-05T10:01:05Z</time>
      </trkpt>
      <trkpt lat="46.2609" lon="5.99343">
        <ele>502.84</ele>
        <time>2014-09-05T10:01:09Z</time>
      </trkpt>
      <trkpt lat="46.26065" lon="5.99295">
        <ele>503.23</ele>
        <time>2014-09-05T10:01:23Z</time>
      </trkpt>
      <trkpt lat="46.26062" lon="5.99291">
        <ele>503.36</ele>
        <time>2014-09-05T10:01:24Z</time>
      </trkpt>
      <trkpt lat="46.2606" lon="5.99288">
        <ele>503.39</ele>
        <time>2014-09-05T10:01:25Z</time>
      </trkpt>
      <trkpt lat="46.26058" lon="5.99285">
        <ele>503.4</ele>
        <time>2014-09-05T10:01:26Z</time>
      </trkpt>
      <trkpt lat="46.26052" lon="5.99281">
        <ele>503.41</ele>
        <time>2014-09-05T10:01:28Z</time>
      </trkpt>
      <trkpt lat="46.2605" lon="5.99278">
        <ele>503.41</ele>
        <time>2014-09-05T10:01:29Z</time>
      </trkpt>
      <trkpt lat="46.26047" lon="5.99275">
        <ele>503.41</ele>
        <time>2014-09-05T10:01:30Z</time>
      </trkpt>
      <trkpt lat="46.26045" lon="5.99272">
        <ele>503.35</ele>
        <time>2014-09-05T10:01:31Z</time>
      </trkpt>
      <trkpt lat="46.26025" lon="5.99253">
        <ele>503.69</ele>
        <time>2014-09-05T10:01:39Z</time>
      </trkpt>
      <trkpt lat="46.26022" lon="5.99251">
        <ele>503.76</ele>
        <time>2014-09-05T10:01:40Z</time>
      </trkpt>
      <trkpt lat="46.26018" lon="5.99248">
        <ele>503.72</ele>
        <time>2014-09-05T10:01:41Z</time>
      </trkpt>
      <trkpt lat="46.26015" lon="5.99246">
        <ele>503.72</ele>
        <time>2014-09-05T10:01:42Z</time>
      </trkpt>
      <trkpt lat="46.26011" lon="5.99244">
        <ele>503.61</ele>
        <time>2014-09-05T10:01:43Z</time>
      </trkpt>
      <trkpt lat="46.26006" lon="5.99242">
        <ele>503.43</ele>
        <time>2014-09-05T10:01:44Z</time>
      </trkpt>
      <trkpt lat="46.26001" lon="5.99241">
        <ele>503.32</ele>
        <time>2014-09-05T10:01:45Z</time>
      </trkpt>
      <trkpt lat="46.25996" lon="5.99241">
        <ele>503.13</ele>
        <time>2014-09-05T10:01:46Z</time>
      </trkpt>
      <trkpt lat="46.25985" lon="5.99239">
        <ele>502.79</ele>
        <time>2014-09-05T10:01:48Z</time>
      </trkpt>
      <trkpt lat="46.25979" lon="5.99236">
        <ele>502.63</ele>
        <time>2014-09-05T10:01:49Z</time>
      </trkpt>
      <trkpt lat="46.25974" lon="5.99233">
        <ele>502.63</ele>
        <time>2014-09-05T10:01:50Z</time>
      </trkpt>
      <trkpt lat="46.25968" lon="5.9923">
        <ele>502.59</ele>
        <time>2014-09-05T10:01:51Z</time>
      </trkpt>
      <trkpt lat="46.25962" lon="5.99229">
        <ele>502.37</ele>
        <time>2014-09-05T10:01:52Z</time>
      </trkpt>
      <trkpt lat="46.25956" lon="5.99228">
        <ele>502.16</ele>
        <time>2014-09-05T10:01:53Z</time>
      </trkpt>
      <trkpt lat="46.25949" lon="5.99227">
        <ele>501.9</ele>
        <time>2014-09-05T10:01:54Z</time>
      </trkpt>
      <trkpt lat="46.25943" lon="5.99223">
        <ele>501.25</ele>
        <time>2014-09-05T10:01:55Z</time>
      </trkpt>
      <trkpt lat="46.25933" lon="5.99211">
        <ele>501.05</ele>
        <time>2014-09-05T10:01:57Z</time>
      </trkpt>
      <trkpt lat="46.25887" lon="5.99147">
        <ele>501.14</ele>
        <time>2014-09-05T10:02:09Z</time>
      </trkpt>
      <trkpt lat="46.25845" lon="5.99084">
        <ele>501.66</ele>
        <time>2014-09-05T10:02:24Z</time>
      </trkpt>
      <trkpt lat="46.25847" lon="5.9908">
        <ele>501.82</ele>
        <time>2014-09-05T10:02:25Z</time>
      </trkpt>
      <trkpt lat="46.25849" lon="5.99077">
        <ele>502</ele>
        <time>2014-09-05T10:02:26Z</time>
      </trkpt>
      <trkpt lat="46.2588" lon="5.9903">
        <ele>504.11</ele>
        <time>2014-09-05T10:02:41Z</time>
      </trkpt>
      <trkpt lat="46.25896" lon="5.99009">
        <ele>505.99</ele>
        <time>2014-09-05T10:02:48Z</time>
      </trkpt>
      <trkpt lat="46.25905" lon="5.98988">
        <ele>507.89</ele>
        <time>2014-09-05T10:02:55Z</time>
      </trkpt>
      <trkpt lat="46.25905" lon="5.98986">
        <ele>507.98</ele>
        <time>2014-09-05T10:02:56Z</time>
      </trkpt>
      <trkpt lat="46.25905" lon="5.98982">
        <ele>508.12</ele>
        <time>2014-09-05T10:02:57Z</time>
      </trkpt>
      <trkpt lat="46.25903" lon="5.98972">
        <ele>508.28</ele>
        <time>2014-09-05T10:03:00Z</time>
      </trkpt>
      <trkpt lat="46.25903" lon="5.98969">
        <ele>508.26</ele>
        <time>2014-09-05T10:03:01Z</time>
      </trkpt>
      <trkpt lat="46.25902" lon="5.98965">
        <ele>509.24</ele>
        <time>2014-09-05T10:03:13Z</time>
      </trkpt>
    </trkseg>
  </trk>
</gpx>